<?xml version="1.0" encoding="UTF-8" standalone="no" ?>
<gpx xmlns="http://www.topografix.com/GPX/1/1" xmlns:xsi="http://www.w3.org/2001/XMLSchema-instance" xsi:schemaLocation="http://www.topografix.com/GPX/1/1 http://www.topografix.com/GPX/1/1/gpx.xsd" version="1.1" creator="VisuGPX - https://www.visugpx.com">
  <metadata>
    <name>boucle vigneronne 2014</name>
    <desc><![CDATA[circuit ciron]]></desc>
  </metadata>
  <trk>
    <name><![CDATA[25-JUIN-14 09:09:27]]></name>
    <trkseg>
      <trkpt lat="44.60565" lon="-0.31942">
        <ele>13.12</ele>
        <time>2014-06-16T05:55:17Z</time>
      </trkpt>
      <trkpt lat="44.60565" lon="-0.31942">
        <ele>11.67</ele>
        <time>2014-06-16T05:55:37Z</time>
      </trkpt>
      <trkpt lat="44.60576" lon="-0.31918">
        <ele>10.71</ele>
        <time>2014-06-16T05:55:49Z</time>
      </trkpt>
      <trkpt lat="44.60576" lon="-0.31917">
        <ele>11.19</ele>
        <time>2014-06-16T05:56:09Z</time>
      </trkpt>
      <trkpt lat="44.60569" lon="-0.31912">
        <ele>11.19</ele>
        <time>2014-06-16T05:56:14Z</time>
      </trkpt>
      <trkpt lat="44.60523" lon="-0.31921">
        <ele>10.71</ele>
        <time>2014-06-16T05:56:27Z</time>
      </trkpt>
      <trkpt lat="44.60503" lon="-0.31926">
        <ele>11.19</ele>
        <time>2014-06-16T05:56:32Z</time>
      </trkpt>
      <trkpt lat="44.60441" lon="-0.31945">
        <ele>11.67</ele>
        <time>2014-06-16T05:56:47Z</time>
      </trkpt>
      <trkpt lat="44.60422" lon="-0.31947">
        <ele>11.67</ele>
        <time>2014-06-16T05:56:51Z</time>
      </trkpt>
      <trkpt lat="44.60387" lon="-0.31939">
        <ele>11.67</ele>
        <time>2014-06-16T05:56:59Z</time>
      </trkpt>
      <trkpt lat="44.60379" lon="-0.31933">
        <ele>11.67</ele>
        <time>2014-06-16T05:57:01Z</time>
      </trkpt>
      <trkpt lat="44.60353" lon="-0.31909">
        <ele>12.15</ele>
        <time>2014-06-16T05:57:08Z</time>
      </trkpt>
      <trkpt lat="44.60324" lon="-0.31892">
        <ele>12.15</ele>
        <time>2014-06-16T05:57:15Z</time>
      </trkpt>
      <trkpt lat="44.60282" lon="-0.31884">
        <ele>11.67</ele>
        <time>2014-06-16T05:57:24Z</time>
      </trkpt>
      <trkpt lat="44.60247" lon="-0.31864">
        <ele>13.12</ele>
        <time>2014-06-16T05:57:32Z</time>
      </trkpt>
      <trkpt lat="44.60223" lon="-0.31846">
        <ele>15.04</ele>
        <time>2014-06-16T05:57:38Z</time>
      </trkpt>
      <trkpt lat="44.60207" lon="-0.31837">
        <ele>15.04</ele>
        <time>2014-06-16T05:57:42Z</time>
      </trkpt>
      <trkpt lat="44.60174" lon="-0.31818">
        <ele>15.04</ele>
        <time>2014-06-16T05:57:54Z</time>
      </trkpt>
      <trkpt lat="44.60153" lon="-0.31804">
        <ele>15.04</ele>
        <time>2014-06-16T05:58:00Z</time>
      </trkpt>
      <trkpt lat="44.60146" lon="-0.31799">
        <ele>14.56</ele>
        <time>2014-06-16T05:58:02Z</time>
      </trkpt>
      <trkpt lat="44.60092" lon="-0.31772">
        <ele>13.12</ele>
        <time>2014-06-16T05:58:15Z</time>
      </trkpt>
      <trkpt lat="44.60071" lon="-0.31761">
        <ele>13.12</ele>
        <time>2014-06-16T05:58:20Z</time>
      </trkpt>
      <trkpt lat="44.60054" lon="-0.31742">
        <ele>12.15</ele>
        <time>2014-06-16T05:58:25Z</time>
      </trkpt>
      <trkpt lat="44.60046" lon="-0.31725">
        <ele>12.15</ele>
        <time>2014-06-16T05:58:28Z</time>
      </trkpt>
      <trkpt lat="44.59996" lon="-0.31652">
        <ele>14.08</ele>
        <time>2014-06-16T05:58:43Z</time>
      </trkpt>
      <trkpt lat="44.59984" lon="-0.31633">
        <ele>14.08</ele>
        <time>2014-06-16T05:58:47Z</time>
      </trkpt>
      <trkpt lat="44.59971" lon="-0.31604">
        <ele>13.6</ele>
        <time>2014-06-16T05:58:52Z</time>
      </trkpt>
      <trkpt lat="44.59953" lon="-0.31557">
        <ele>13.6</ele>
        <time>2014-06-16T05:59:00Z</time>
      </trkpt>
      <trkpt lat="44.5994" lon="-0.31536">
        <ele>13.12</ele>
        <time>2014-06-16T05:59:04Z</time>
      </trkpt>
      <trkpt lat="44.59909" lon="-0.31502">
        <ele>13.6</ele>
        <time>2014-06-16T05:59:12Z</time>
      </trkpt>
      <trkpt lat="44.59886" lon="-0.31476">
        <ele>13.12</ele>
        <time>2014-06-16T05:59:18Z</time>
      </trkpt>
      <trkpt lat="44.59849" lon="-0.31434">
        <ele>12.63</ele>
        <time>2014-06-16T05:59:30Z</time>
      </trkpt>
      <trkpt lat="44.59825" lon="-0.31458">
        <ele>11.67</ele>
        <time>2014-06-16T05:59:40Z</time>
      </trkpt>
      <trkpt lat="44.5976" lon="-0.31517">
        <ele>10.23</ele>
        <time>2014-06-16T05:59:56Z</time>
      </trkpt>
      <trkpt lat="44.59722" lon="-0.31586">
        <ele>8.79</ele>
        <time>2014-06-16T06:00:08Z</time>
      </trkpt>
      <trkpt lat="44.59716" lon="-0.31603">
        <ele>8.79</ele>
        <time>2014-06-16T06:00:11Z</time>
      </trkpt>
      <trkpt lat="44.59707" lon="-0.31605">
        <ele>9.75</ele>
        <time>2014-06-16T06:00:19Z</time>
      </trkpt>
      <trkpt lat="44.59708" lon="-0.31605">
        <ele>10.71</ele>
        <time>2014-06-16T06:00:49Z</time>
      </trkpt>
      <trkpt lat="44.59707" lon="-0.31603">
        <ele>11.19</ele>
        <time>2014-06-16T06:01:27Z</time>
      </trkpt>
      <trkpt lat="44.59707" lon="-0.31604">
        <ele>11.19</ele>
        <time>2014-06-16T06:01:56Z</time>
      </trkpt>
      <trkpt lat="44.59707" lon="-0.31605">
        <ele>10.71</ele>
        <time>2014-06-16T06:02:19Z</time>
      </trkpt>
      <trkpt lat="44.59706" lon="-0.31606">
        <ele>9.75</ele>
        <time>2014-06-16T06:02:47Z</time>
      </trkpt>
      <trkpt lat="44.59695" lon="-0.31584">
        <ele>9.75</ele>
        <time>2014-06-16T06:02:59Z</time>
      </trkpt>
      <trkpt lat="44.59664" lon="-0.31555">
        <ele>9.75</ele>
        <time>2014-06-16T06:03:08Z</time>
      </trkpt>
      <trkpt lat="44.59634" lon="-0.31536">
        <ele>9.27</ele>
        <time>2014-06-16T06:03:15Z</time>
      </trkpt>
      <trkpt lat="44.59616" lon="-0.31537">
        <ele>8.79</ele>
        <time>2014-06-16T06:03:19Z</time>
      </trkpt>
      <trkpt lat="44.59568" lon="-0.31557">
        <ele>8.79</ele>
        <time>2014-06-16T06:03:31Z</time>
      </trkpt>
      <trkpt lat="44.59521" lon="-0.31577">
        <ele>8.31</ele>
        <time>2014-06-16T06:03:43Z</time>
      </trkpt>
      <trkpt lat="44.59491" lon="-0.31587">
        <ele>7.83</ele>
        <time>2014-06-16T06:03:51Z</time>
      </trkpt>
      <trkpt lat="44.59485" lon="-0.31593">
        <ele>6.87</ele>
        <time>2014-06-16T06:04:00Z</time>
      </trkpt>
      <trkpt lat="44.59484" lon="-0.31594">
        <ele>6.39</ele>
        <time>2014-06-16T06:04:03Z</time>
      </trkpt>
      <trkpt lat="44.59481" lon="-0.31592">
        <ele>5.91</ele>
        <time>2014-06-16T06:04:06Z</time>
      </trkpt>
      <trkpt lat="44.59436" lon="-0.31578">
        <ele>4.94</ele>
        <time>2014-06-16T06:04:19Z</time>
      </trkpt>
      <trkpt lat="44.59394" lon="-0.31571">
        <ele>6.39</ele>
        <time>2014-06-16T06:04:29Z</time>
      </trkpt>
      <trkpt lat="44.59325" lon="-0.31574">
        <ele>9.27</ele>
        <time>2014-06-16T06:04:44Z</time>
      </trkpt>
      <trkpt lat="44.59275" lon="-0.31576">
        <ele>6.87</ele>
        <time>2014-06-16T06:04:56Z</time>
      </trkpt>
      <trkpt lat="44.59259" lon="-0.31577">
        <ele>4.94</ele>
        <time>2014-06-16T06:05:00Z</time>
      </trkpt>
      <trkpt lat="44.5923" lon="-0.31582">
        <ele>4.46</ele>
        <time>2014-06-16T06:05:07Z</time>
      </trkpt>
      <trkpt lat="44.59206" lon="-0.31588">
        <ele>2.06</ele>
        <time>2014-06-16T06:05:13Z</time>
      </trkpt>
      <trkpt lat="44.59198" lon="-0.31589">
        <ele>2.06</ele>
        <time>2014-06-16T06:05:15Z</time>
      </trkpt>
      <trkpt lat="44.59177" lon="-0.31598">
        <ele>2.06</ele>
        <time>2014-06-16T06:05:21Z</time>
      </trkpt>
      <trkpt lat="44.59172" lon="-0.31611">
        <ele>2.06</ele>
        <time>2014-06-16T06:05:25Z</time>
      </trkpt>
      <trkpt lat="44.59185" lon="-0.31652">
        <ele>4.94</ele>
        <time>2014-06-16T06:05:35Z</time>
      </trkpt>
      <trkpt lat="44.59181" lon="-0.31666">
        <ele>6.39</ele>
        <time>2014-06-16T06:05:40Z</time>
      </trkpt>
      <trkpt lat="44.59194" lon="-0.31732">
        <ele>9.27</ele>
        <time>2014-06-16T06:05:55Z</time>
      </trkpt>
      <trkpt lat="44.5921" lon="-0.31788">
        <ele>9.75</ele>
        <time>2014-06-16T06:06:08Z</time>
      </trkpt>
      <trkpt lat="44.59222" lon="-0.31819">
        <ele>9.27</ele>
        <time>2014-06-16T06:06:15Z</time>
      </trkpt>
      <trkpt lat="44.59214" lon="-0.3183">
        <ele>10.23</ele>
        <time>2014-06-16T06:06:19Z</time>
      </trkpt>
      <trkpt lat="44.59182" lon="-0.31843">
        <ele>10.71</ele>
        <time>2014-06-16T06:06:30Z</time>
      </trkpt>
      <trkpt lat="44.59157" lon="-0.31868">
        <ele>10.71</ele>
        <time>2014-06-16T06:06:41Z</time>
      </trkpt>
      <trkpt lat="44.59152" lon="-0.31876">
        <ele>10.71</ele>
        <time>2014-06-16T06:06:45Z</time>
      </trkpt>
      <trkpt lat="44.59105" lon="-0.31912">
        <ele>9.75</ele>
        <time>2014-06-16T06:06:58Z</time>
      </trkpt>
      <trkpt lat="44.59043" lon="-0.31954">
        <ele>9.75</ele>
        <time>2014-06-16T06:07:13Z</time>
      </trkpt>
      <trkpt lat="44.58961" lon="-0.3199">
        <ele>9.27</ele>
        <time>2014-06-16T06:07:31Z</time>
      </trkpt>
      <trkpt lat="44.58897" lon="-0.32036">
        <ele>10.23</ele>
        <time>2014-06-16T06:07:46Z</time>
      </trkpt>
      <trkpt lat="44.58847" lon="-0.3208">
        <ele>11.19</ele>
        <time>2014-06-16T06:07:58Z</time>
      </trkpt>
      <trkpt lat="44.58835" lon="-0.32091">
        <ele>11.67</ele>
        <time>2014-06-16T06:08:01Z</time>
      </trkpt>
      <trkpt lat="44.58822" lon="-0.32099">
        <ele>11.67</ele>
        <time>2014-06-16T06:08:04Z</time>
      </trkpt>
      <trkpt lat="44.58777" lon="-0.32123">
        <ele>12.15</ele>
        <time>2014-06-16T06:08:14Z</time>
      </trkpt>
      <trkpt lat="44.58718" lon="-0.32155">
        <ele>13.12</ele>
        <time>2014-06-16T06:08:27Z</time>
      </trkpt>
      <trkpt lat="44.587" lon="-0.32162">
        <ele>14.08</ele>
        <time>2014-06-16T06:08:31Z</time>
      </trkpt>
      <trkpt lat="44.58661" lon="-0.32171">
        <ele>13.6</ele>
        <time>2014-06-16T06:08:39Z</time>
      </trkpt>
      <trkpt lat="44.58647" lon="-0.32175">
        <ele>14.08</ele>
        <time>2014-06-16T06:08:42Z</time>
      </trkpt>
      <trkpt lat="44.58623" lon="-0.32185">
        <ele>13.6</ele>
        <time>2014-06-16T06:08:47Z</time>
      </trkpt>
      <trkpt lat="44.58563" lon="-0.32224">
        <ele>14.56</ele>
        <time>2014-06-16T06:09:02Z</time>
      </trkpt>
      <trkpt lat="44.58558" lon="-0.32223">
        <ele>14.56</ele>
        <time>2014-06-16T06:09:04Z</time>
      </trkpt>
      <trkpt lat="44.58555" lon="-0.32219">
        <ele>14.56</ele>
        <time>2014-06-16T06:09:14Z</time>
      </trkpt>
      <trkpt lat="44.58554" lon="-0.3222">
        <ele>16</ele>
        <time>2014-06-16T06:09:47Z</time>
      </trkpt>
      <trkpt lat="44.58554" lon="-0.3222">
        <ele>15.04</ele>
        <time>2014-06-16T06:10:24Z</time>
      </trkpt>
      <trkpt lat="44.58551" lon="-0.3222">
        <ele>15.04</ele>
        <time>2014-06-16T06:10:36Z</time>
      </trkpt>
      <trkpt lat="44.58551" lon="-0.32218">
        <ele>14.08</ele>
        <time>2014-06-16T06:11:10Z</time>
      </trkpt>
      <trkpt lat="44.58551" lon="-0.32217">
        <ele>13.6</ele>
        <time>2014-06-16T06:11:35Z</time>
      </trkpt>
      <trkpt lat="44.58552" lon="-0.32218">
        <ele>12.63</ele>
        <time>2014-06-16T06:12:11Z</time>
      </trkpt>
      <trkpt lat="44.58553" lon="-0.32219">
        <ele>12.63</ele>
        <time>2014-06-16T06:12:46Z</time>
      </trkpt>
      <trkpt lat="44.58553" lon="-0.32219">
        <ele>13.12</ele>
        <time>2014-06-16T06:13:27Z</time>
      </trkpt>
      <trkpt lat="44.58553" lon="-0.3222">
        <ele>14.08</ele>
        <time>2014-06-16T06:14:07Z</time>
      </trkpt>
      <trkpt lat="44.58553" lon="-0.32215">
        <ele>14.56</ele>
        <time>2014-06-16T06:14:27Z</time>
      </trkpt>
      <trkpt lat="44.58542" lon="-0.3219">
        <ele>13.12</ele>
        <time>2014-06-16T06:14:35Z</time>
      </trkpt>
      <trkpt lat="44.58509" lon="-0.3213">
        <ele>12.15</ele>
        <time>2014-06-16T06:14:48Z</time>
      </trkpt>
      <trkpt lat="44.58497" lon="-0.32104">
        <ele>11.67</ele>
        <time>2014-06-16T06:14:53Z</time>
      </trkpt>
      <trkpt lat="44.58489" lon="-0.32089">
        <ele>12.15</ele>
        <time>2014-06-16T06:14:56Z</time>
      </trkpt>
      <trkpt lat="44.58452" lon="-0.32015">
        <ele>10.71</ele>
        <time>2014-06-16T06:15:10Z</time>
      </trkpt>
      <trkpt lat="44.58416" lon="-0.3201">
        <ele>10.71</ele>
        <time>2014-06-16T06:15:19Z</time>
      </trkpt>
      <trkpt lat="44.58345" lon="-0.32053">
        <ele>10.23</ele>
        <time>2014-06-16T06:15:35Z</time>
      </trkpt>
      <trkpt lat="44.58313" lon="-0.32078">
        <ele>11.19</ele>
        <time>2014-06-16T06:15:43Z</time>
      </trkpt>
      <trkpt lat="44.58267" lon="-0.32119">
        <ele>12.15</ele>
        <time>2014-06-16T06:15:57Z</time>
      </trkpt>
      <trkpt lat="44.58255" lon="-0.32125">
        <ele>12.15</ele>
        <time>2014-06-16T06:16:01Z</time>
      </trkpt>
      <trkpt lat="44.58249" lon="-0.32118">
        <ele>11.19</ele>
        <time>2014-06-16T06:16:05Z</time>
      </trkpt>
      <trkpt lat="44.58246" lon="-0.32111">
        <ele>11.19</ele>
        <time>2014-06-16T06:16:09Z</time>
      </trkpt>
      <trkpt lat="44.58239" lon="-0.32096">
        <ele>11.19</ele>
        <time>2014-06-16T06:16:16Z</time>
      </trkpt>
      <trkpt lat="44.58226" lon="-0.32055">
        <ele>11.19</ele>
        <time>2014-06-16T06:16:30Z</time>
      </trkpt>
      <trkpt lat="44.58221" lon="-0.3204">
        <ele>11.19</ele>
        <time>2014-06-16T06:16:35Z</time>
      </trkpt>
      <trkpt lat="44.58234" lon="-0.32029">
        <ele>9.27</ele>
        <time>2014-06-16T06:16:45Z</time>
      </trkpt>
      <trkpt lat="44.58235" lon="-0.32031">
        <ele>10.23</ele>
        <time>2014-06-16T06:16:57Z</time>
      </trkpt>
      <trkpt lat="44.58235" lon="-0.32031">
        <ele>10.23</ele>
        <time>2014-06-16T06:17:23Z</time>
      </trkpt>
      <trkpt lat="44.58235" lon="-0.32031">
        <ele>10.23</ele>
        <time>2014-06-16T06:17:49Z</time>
      </trkpt>
      <trkpt lat="44.58234" lon="-0.32032">
        <ele>10.71</ele>
        <time>2014-06-16T06:18:12Z</time>
      </trkpt>
      <trkpt lat="44.58234" lon="-0.32032">
        <ele>11.19</ele>
        <time>2014-06-16T06:18:44Z</time>
      </trkpt>
      <trkpt lat="44.58235" lon="-0.32031">
        <ele>11.19</ele>
        <time>2014-06-16T06:19:06Z</time>
      </trkpt>
      <trkpt lat="44.58235" lon="-0.32031">
        <ele>11.67</ele>
        <time>2014-06-16T06:19:42Z</time>
      </trkpt>
      <trkpt lat="44.58235" lon="-0.3203">
        <ele>11.67</ele>
        <time>2014-06-16T06:20:08Z</time>
      </trkpt>
      <trkpt lat="44.58236" lon="-0.3203">
        <ele>12.15</ele>
        <time>2014-06-16T06:20:41Z</time>
      </trkpt>
      <trkpt lat="44.58236" lon="-0.3203">
        <ele>12.15</ele>
        <time>2014-06-16T06:21:03Z</time>
      </trkpt>
      <trkpt lat="44.58236" lon="-0.32029">
        <ele>12.63</ele>
        <time>2014-06-16T06:21:17Z</time>
      </trkpt>
      <trkpt lat="44.58244" lon="-0.32022">
        <ele>12.15</ele>
        <time>2014-06-16T06:21:22Z</time>
      </trkpt>
      <trkpt lat="44.58244" lon="-0.31994">
        <ele>10.71</ele>
        <time>2014-06-16T06:21:28Z</time>
      </trkpt>
      <trkpt lat="44.58229" lon="-0.31942">
        <ele>9.75</ele>
        <time>2014-06-16T06:21:37Z</time>
      </trkpt>
      <trkpt lat="44.58228" lon="-0.31893">
        <ele>6.87</ele>
        <time>2014-06-16T06:21:49Z</time>
      </trkpt>
      <trkpt lat="44.5822" lon="-0.31871">
        <ele>4.46</ele>
        <time>2014-06-16T06:22:00Z</time>
      </trkpt>
      <trkpt lat="44.58218" lon="-0.31871">
        <ele>3.98</ele>
        <time>2014-06-16T06:22:08Z</time>
      </trkpt>
      <trkpt lat="44.58205" lon="-0.31875">
        <ele>2.06</ele>
        <time>2014-06-16T06:22:20Z</time>
      </trkpt>
      <trkpt lat="44.58191" lon="-0.31883">
        <ele>3.02</ele>
        <time>2014-06-16T06:22:32Z</time>
      </trkpt>
      <trkpt lat="44.5817" lon="-0.31898">
        <ele>4.46</ele>
        <time>2014-06-16T06:22:40Z</time>
      </trkpt>
      <trkpt lat="44.58152" lon="-0.31925">
        <ele>5.91</ele>
        <time>2014-06-16T06:22:49Z</time>
      </trkpt>
      <trkpt lat="44.58089" lon="-0.31931">
        <ele>7.83</ele>
        <time>2014-06-16T06:23:05Z</time>
      </trkpt>
      <trkpt lat="44.58039" lon="-0.31938">
        <ele>8.31</ele>
        <time>2014-06-16T06:23:17Z</time>
      </trkpt>
      <trkpt lat="44.58018" lon="-0.31943">
        <ele>8.79</ele>
        <time>2014-06-16T06:23:22Z</time>
      </trkpt>
      <trkpt lat="44.57984" lon="-0.3195">
        <ele>9.27</ele>
        <time>2014-06-16T06:23:30Z</time>
      </trkpt>
      <trkpt lat="44.57976" lon="-0.31953">
        <ele>9.27</ele>
        <time>2014-06-16T06:23:32Z</time>
      </trkpt>
      <trkpt lat="44.57964" lon="-0.3196">
        <ele>9.75</ele>
        <time>2014-06-16T06:23:35Z</time>
      </trkpt>
      <trkpt lat="44.57935" lon="-0.31978">
        <ele>9.27</ele>
        <time>2014-06-16T06:23:42Z</time>
      </trkpt>
      <trkpt lat="44.57923" lon="-0.31987">
        <ele>9.75</ele>
        <time>2014-06-16T06:23:45Z</time>
      </trkpt>
      <trkpt lat="44.57882" lon="-0.32036">
        <ele>10.23</ele>
        <time>2014-06-16T06:23:58Z</time>
      </trkpt>
      <trkpt lat="44.57827" lon="-0.32099">
        <ele>10.71</ele>
        <time>2014-06-16T06:24:16Z</time>
      </trkpt>
      <trkpt lat="44.57819" lon="-0.32107">
        <ele>11.67</ele>
        <time>2014-06-16T06:24:20Z</time>
      </trkpt>
      <trkpt lat="44.57821" lon="-0.32123">
        <ele>12.63</ele>
        <time>2014-06-16T06:24:26Z</time>
      </trkpt>
      <trkpt lat="44.57836" lon="-0.32186">
        <ele>16</ele>
        <time>2014-06-16T06:24:41Z</time>
      </trkpt>
      <trkpt lat="44.57804" lon="-0.32226">
        <ele>16</ele>
        <time>2014-06-16T06:24:53Z</time>
      </trkpt>
      <trkpt lat="44.57747" lon="-0.32287">
        <ele>16.48</ele>
        <time>2014-06-16T06:25:11Z</time>
      </trkpt>
      <trkpt lat="44.57706" lon="-0.3233">
        <ele>16.96</ele>
        <time>2014-06-16T06:25:24Z</time>
      </trkpt>
      <trkpt lat="44.57699" lon="-0.32325">
        <ele>16.48</ele>
        <time>2014-06-16T06:25:28Z</time>
      </trkpt>
      <trkpt lat="44.57695" lon="-0.32311">
        <ele>16</ele>
        <time>2014-06-16T06:25:31Z</time>
      </trkpt>
      <trkpt lat="44.57675" lon="-0.32268">
        <ele>13.6</ele>
        <time>2014-06-16T06:25:41Z</time>
      </trkpt>
      <trkpt lat="44.57667" lon="-0.32268">
        <ele>11.67</ele>
        <time>2014-06-16T06:25:52Z</time>
      </trkpt>
      <trkpt lat="44.57661" lon="-0.32274">
        <ele>11.19</ele>
        <time>2014-06-16T06:26:04Z</time>
      </trkpt>
      <trkpt lat="44.57657" lon="-0.32277">
        <ele>11.19</ele>
        <time>2014-06-16T06:26:20Z</time>
      </trkpt>
      <trkpt lat="44.57642" lon="-0.32328">
        <ele>14.56</ele>
        <time>2014-06-16T06:26:35Z</time>
      </trkpt>
      <trkpt lat="44.57635" lon="-0.32342">
        <ele>13.12</ele>
        <time>2014-06-16T06:26:47Z</time>
      </trkpt>
      <trkpt lat="44.57627" lon="-0.3235">
        <ele>12.15</ele>
        <time>2014-06-16T06:26:53Z</time>
      </trkpt>
      <trkpt lat="44.57623" lon="-0.32356">
        <ele>11.19</ele>
        <time>2014-06-16T06:26:58Z</time>
      </trkpt>
      <trkpt lat="44.57615" lon="-0.32365">
        <ele>12.15</ele>
        <time>2014-06-16T06:27:02Z</time>
      </trkpt>
      <trkpt lat="44.57612" lon="-0.32375">
        <ele>13.12</ele>
        <time>2014-06-16T06:27:05Z</time>
      </trkpt>
      <trkpt lat="44.57612" lon="-0.32401">
        <ele>14.08</ele>
        <time>2014-06-16T06:27:14Z</time>
      </trkpt>
      <trkpt lat="44.57609" lon="-0.3241">
        <ele>12.15</ele>
        <time>2014-06-16T06:27:22Z</time>
      </trkpt>
      <trkpt lat="44.57602" lon="-0.32419">
        <ele>13.6</ele>
        <time>2014-06-16T06:27:25Z</time>
      </trkpt>
      <trkpt lat="44.576" lon="-0.32439">
        <ele>13.12</ele>
        <time>2014-06-16T06:27:36Z</time>
      </trkpt>
      <trkpt lat="44.57584" lon="-0.32472">
        <ele>12.63</ele>
        <time>2014-06-16T06:27:46Z</time>
      </trkpt>
      <trkpt lat="44.57578" lon="-0.32496">
        <ele>12.15</ele>
        <time>2014-06-16T06:27:52Z</time>
      </trkpt>
      <trkpt lat="44.57568" lon="-0.32538">
        <ele>10.71</ele>
        <time>2014-06-16T06:28:03Z</time>
      </trkpt>
      <trkpt lat="44.57548" lon="-0.32599">
        <ele>12.15</ele>
        <time>2014-06-16T06:28:16Z</time>
      </trkpt>
      <trkpt lat="44.5753" lon="-0.32653">
        <ele>12.15</ele>
        <time>2014-06-16T06:28:28Z</time>
      </trkpt>
      <trkpt lat="44.57515" lon="-0.32684">
        <ele>11.67</ele>
        <time>2014-06-16T06:28:37Z</time>
      </trkpt>
      <trkpt lat="44.57473" lon="-0.32744">
        <ele>10.71</ele>
        <time>2014-06-16T06:28:51Z</time>
      </trkpt>
      <trkpt lat="44.57467" lon="-0.3276">
        <ele>11.19</ele>
        <time>2014-06-16T06:28:54Z</time>
      </trkpt>
      <trkpt lat="44.57466" lon="-0.32765">
        <ele>11.67</ele>
        <time>2014-06-16T06:28:55Z</time>
      </trkpt>
      <trkpt lat="44.57465" lon="-0.32771">
        <ele>11.67</ele>
        <time>2014-06-16T06:28:56Z</time>
      </trkpt>
      <trkpt lat="44.57463" lon="-0.32776">
        <ele>12.15</ele>
        <time>2014-06-16T06:28:57Z</time>
      </trkpt>
      <trkpt lat="44.57447" lon="-0.32824">
        <ele>13.12</ele>
        <time>2014-06-16T06:29:08Z</time>
      </trkpt>
      <trkpt lat="44.5743" lon="-0.32858">
        <ele>12.63</ele>
        <time>2014-06-16T06:29:16Z</time>
      </trkpt>
      <trkpt lat="44.57408" lon="-0.32908">
        <ele>13.12</ele>
        <time>2014-06-16T06:29:27Z</time>
      </trkpt>
      <trkpt lat="44.57402" lon="-0.32919">
        <ele>13.12</ele>
        <time>2014-06-16T06:29:30Z</time>
      </trkpt>
      <trkpt lat="44.57422" lon="-0.3294">
        <ele>14.56</ele>
        <time>2014-06-16T06:29:40Z</time>
      </trkpt>
      <trkpt lat="44.5747" lon="-0.32987">
        <ele>16.96</ele>
        <time>2014-06-16T06:29:57Z</time>
      </trkpt>
      <trkpt lat="44.57511" lon="-0.33028">
        <ele>16.48</ele>
        <time>2014-06-16T06:30:12Z</time>
      </trkpt>
      <trkpt lat="44.57489" lon="-0.33066">
        <ele>16.96</ele>
        <time>2014-06-16T06:30:23Z</time>
      </trkpt>
      <trkpt lat="44.57448" lon="-0.3313">
        <ele>17.92</ele>
        <time>2014-06-16T06:30:39Z</time>
      </trkpt>
      <trkpt lat="44.5742" lon="-0.33169">
        <ele>17.92</ele>
        <time>2014-06-16T06:30:48Z</time>
      </trkpt>
      <trkpt lat="44.57402" lon="-0.33217">
        <ele>17.44</ele>
        <time>2014-06-16T06:31:00Z</time>
      </trkpt>
      <trkpt lat="44.57395" lon="-0.33217">
        <ele>16.96</ele>
        <time>2014-06-16T06:31:04Z</time>
      </trkpt>
      <trkpt lat="44.57382" lon="-0.33206">
        <ele>16.48</ele>
        <time>2014-06-16T06:31:09Z</time>
      </trkpt>
      <trkpt lat="44.57376" lon="-0.33199">
        <ele>16.48</ele>
        <time>2014-06-16T06:31:11Z</time>
      </trkpt>
      <trkpt lat="44.57326" lon="-0.33149">
        <ele>15.52</ele>
        <time>2014-06-16T06:31:27Z</time>
      </trkpt>
      <trkpt lat="44.57324" lon="-0.33146">
        <ele>15.52</ele>
        <time>2014-06-16T06:31:36Z</time>
      </trkpt>
      <trkpt lat="44.57324" lon="-0.33145">
        <ele>15.04</ele>
        <time>2014-06-16T06:31:53Z</time>
      </trkpt>
      <trkpt lat="44.57323" lon="-0.33145">
        <ele>16.48</ele>
        <time>2014-06-16T06:32:14Z</time>
      </trkpt>
      <trkpt lat="44.57324" lon="-0.33145">
        <ele>16.48</ele>
        <time>2014-06-16T06:32:18Z</time>
      </trkpt>
      <trkpt lat="44.57339" lon="-0.33159">
        <ele>16</ele>
        <time>2014-06-16T06:32:26Z</time>
      </trkpt>
      <trkpt lat="44.57371" lon="-0.3319">
        <ele>17.44</ele>
        <time>2014-06-16T06:32:37Z</time>
      </trkpt>
      <trkpt lat="44.57403" lon="-0.33227">
        <ele>17.44</ele>
        <time>2014-06-16T06:32:49Z</time>
      </trkpt>
      <trkpt lat="44.57391" lon="-0.33261">
        <ele>18.88</ele>
        <time>2014-06-16T06:32:56Z</time>
      </trkpt>
      <trkpt lat="44.57355" lon="-0.33334">
        <ele>17.44</ele>
        <time>2014-06-16T06:33:11Z</time>
      </trkpt>
      <trkpt lat="44.57327" lon="-0.33384">
        <ele>16.48</ele>
        <time>2014-06-16T06:33:23Z</time>
      </trkpt>
      <trkpt lat="44.57303" lon="-0.3345">
        <ele>16.96</ele>
        <time>2014-06-16T06:33:39Z</time>
      </trkpt>
      <trkpt lat="44.57275" lon="-0.33511">
        <ele>16</ele>
        <time>2014-06-16T06:33:52Z</time>
      </trkpt>
      <trkpt lat="44.57226" lon="-0.33594">
        <ele>15.52</ele>
        <time>2014-06-16T06:34:08Z</time>
      </trkpt>
      <trkpt lat="44.57214" lon="-0.33613">
        <ele>15.04</ele>
        <time>2014-06-16T06:34:12Z</time>
      </trkpt>
      <trkpt lat="44.57204" lon="-0.3363">
        <ele>15.04</ele>
        <time>2014-06-16T06:34:16Z</time>
      </trkpt>
      <trkpt lat="44.57172" lon="-0.33703">
        <ele>15.52</ele>
        <time>2014-06-16T06:34:32Z</time>
      </trkpt>
      <trkpt lat="44.57155" lon="-0.33755">
        <ele>14.56</ele>
        <time>2014-06-16T06:34:43Z</time>
      </trkpt>
      <trkpt lat="44.5716" lon="-0.33792">
        <ele>14.56</ele>
        <time>2014-06-16T06:34:52Z</time>
      </trkpt>
      <trkpt lat="44.57154" lon="-0.33818">
        <ele>15.04</ele>
        <time>2014-06-16T06:34:57Z</time>
      </trkpt>
      <trkpt lat="44.57143" lon="-0.33865">
        <ele>15.04</ele>
        <time>2014-06-16T06:35:08Z</time>
      </trkpt>
      <trkpt lat="44.57113" lon="-0.33939">
        <ele>19.36</ele>
        <time>2014-06-16T06:35:21Z</time>
      </trkpt>
      <trkpt lat="44.57099" lon="-0.33962">
        <ele>20.81</ele>
        <time>2014-06-16T06:35:26Z</time>
      </trkpt>
      <trkpt lat="44.57083" lon="-0.34021">
        <ele>18.88</ele>
        <time>2014-06-16T06:35:38Z</time>
      </trkpt>
      <trkpt lat="44.57075" lon="-0.34044">
        <ele>19.84</ele>
        <time>2014-06-16T06:35:44Z</time>
      </trkpt>
      <trkpt lat="44.57062" lon="-0.34079">
        <ele>19.84</ele>
        <time>2014-06-16T06:35:53Z</time>
      </trkpt>
      <trkpt lat="44.57057" lon="-0.34085">
        <ele>19.84</ele>
        <time>2014-06-16T06:35:55Z</time>
      </trkpt>
      <trkpt lat="44.57045" lon="-0.34096">
        <ele>18.4</ele>
        <time>2014-06-16T06:36:07Z</time>
      </trkpt>
      <trkpt lat="44.57043" lon="-0.34099">
        <ele>16.96</ele>
        <time>2014-06-16T06:36:20Z</time>
      </trkpt>
      <trkpt lat="44.57029" lon="-0.34114">
        <ele>12.63</ele>
        <time>2014-06-16T06:36:31Z</time>
      </trkpt>
      <trkpt lat="44.57002" lon="-0.34152">
        <ele>9.27</ele>
        <time>2014-06-16T06:36:42Z</time>
      </trkpt>
      <trkpt lat="44.56974" lon="-0.34192">
        <ele>7.83</ele>
        <time>2014-06-16T06:36:53Z</time>
      </trkpt>
      <trkpt lat="44.56941" lon="-0.34232">
        <ele>9.75</ele>
        <time>2014-06-16T06:37:03Z</time>
      </trkpt>
      <trkpt lat="44.56907" lon="-0.34269">
        <ele>10.71</ele>
        <time>2014-06-16T06:37:15Z</time>
      </trkpt>
      <trkpt lat="44.56884" lon="-0.34294">
        <ele>11.67</ele>
        <time>2014-06-16T06:37:23Z</time>
      </trkpt>
      <trkpt lat="44.56849" lon="-0.34321">
        <ele>14.08</ele>
        <time>2014-06-16T06:37:34Z</time>
      </trkpt>
      <trkpt lat="44.56822" lon="-0.34337">
        <ele>14.08</ele>
        <time>2014-06-16T06:37:43Z</time>
      </trkpt>
      <trkpt lat="44.56797" lon="-0.34351">
        <ele>15.04</ele>
        <time>2014-06-16T06:37:52Z</time>
      </trkpt>
      <trkpt lat="44.56766" lon="-0.34373">
        <ele>16.48</ele>
        <time>2014-06-16T06:38:02Z</time>
      </trkpt>
      <trkpt lat="44.56745" lon="-0.34396">
        <ele>15.04</ele>
        <time>2014-06-16T06:38:14Z</time>
      </trkpt>
      <trkpt lat="44.56734" lon="-0.34416">
        <ele>15.04</ele>
        <time>2014-06-16T06:38:21Z</time>
      </trkpt>
      <trkpt lat="44.56704" lon="-0.34458">
        <ele>14.56</ele>
        <time>2014-06-16T06:38:31Z</time>
      </trkpt>
      <trkpt lat="44.5667" lon="-0.34515">
        <ele>14.56</ele>
        <time>2014-06-16T06:38:45Z</time>
      </trkpt>
      <trkpt lat="44.56649" lon="-0.34541">
        <ele>16.48</ele>
        <time>2014-06-16T06:38:55Z</time>
      </trkpt>
      <trkpt lat="44.56624" lon="-0.34571">
        <ele>16.96</ele>
        <time>2014-06-16T06:39:06Z</time>
      </trkpt>
      <trkpt lat="44.56599" lon="-0.34612">
        <ele>17.44</ele>
        <time>2014-06-16T06:39:17Z</time>
      </trkpt>
      <trkpt lat="44.56583" lon="-0.34664">
        <ele>19.36</ele>
        <time>2014-06-16T06:39:29Z</time>
      </trkpt>
      <trkpt lat="44.5658" lon="-0.34678">
        <ele>19.36</ele>
        <time>2014-06-16T06:39:33Z</time>
      </trkpt>
      <trkpt lat="44.5658" lon="-0.34696">
        <ele>20.81</ele>
        <time>2014-06-16T06:39:38Z</time>
      </trkpt>
      <trkpt lat="44.56581" lon="-0.3475">
        <ele>22.25</ele>
        <time>2014-06-16T06:39:50Z</time>
      </trkpt>
      <trkpt lat="44.56569" lon="-0.34805">
        <ele>19.84</ele>
        <time>2014-06-16T06:40:02Z</time>
      </trkpt>
      <trkpt lat="44.56567" lon="-0.34807">
        <ele>19.84</ele>
        <time>2014-06-16T06:40:14Z</time>
      </trkpt>
      <trkpt lat="44.56558" lon="-0.34826">
        <ele>17.92</ele>
        <time>2014-06-16T06:40:24Z</time>
      </trkpt>
      <trkpt lat="44.56552" lon="-0.34839">
        <ele>17.92</ele>
        <time>2014-06-16T06:40:28Z</time>
      </trkpt>
      <trkpt lat="44.56547" lon="-0.34869">
        <ele>18.88</ele>
        <time>2014-06-16T06:40:36Z</time>
      </trkpt>
      <trkpt lat="44.56529" lon="-0.34907">
        <ele>22.73</ele>
        <time>2014-06-16T06:40:46Z</time>
      </trkpt>
      <trkpt lat="44.56526" lon="-0.34915">
        <ele>24.65</ele>
        <time>2014-06-16T06:41:00Z</time>
      </trkpt>
      <trkpt lat="44.5652" lon="-0.34924">
        <ele>24.17</ele>
        <time>2014-06-16T06:41:11Z</time>
      </trkpt>
      <trkpt lat="44.56507" lon="-0.34949">
        <ele>21.77</ele>
        <time>2014-06-16T06:41:19Z</time>
      </trkpt>
      <trkpt lat="44.56502" lon="-0.34959">
        <ele>20.81</ele>
        <time>2014-06-16T06:41:22Z</time>
      </trkpt>
      <trkpt lat="44.56495" lon="-0.34985">
        <ele>22.73</ele>
        <time>2014-06-16T06:41:33Z</time>
      </trkpt>
      <trkpt lat="44.56493" lon="-0.34992">
        <ele>25.13</ele>
        <time>2014-06-16T06:41:43Z</time>
      </trkpt>
      <trkpt lat="44.56492" lon="-0.34998">
        <ele>24.65</ele>
        <time>2014-06-16T06:41:51Z</time>
      </trkpt>
      <trkpt lat="44.56484" lon="-0.35028">
        <ele>28.02</ele>
        <time>2014-06-16T06:42:01Z</time>
      </trkpt>
      <trkpt lat="44.56478" lon="-0.35059">
        <ele>27.53</ele>
        <time>2014-06-16T06:42:09Z</time>
      </trkpt>
      <trkpt lat="44.56475" lon="-0.35067">
        <ele>25.61</ele>
        <time>2014-06-16T06:42:11Z</time>
      </trkpt>
      <trkpt lat="44.56458" lon="-0.35098">
        <ele>22.25</ele>
        <time>2014-06-16T06:42:19Z</time>
      </trkpt>
      <trkpt lat="44.56448" lon="-0.35119">
        <ele>20.81</ele>
        <time>2014-06-16T06:42:23Z</time>
      </trkpt>
      <trkpt lat="44.56433" lon="-0.35144">
        <ele>18.88</ele>
        <time>2014-06-16T06:42:28Z</time>
      </trkpt>
      <trkpt lat="44.56413" lon="-0.35165">
        <ele>16.96</ele>
        <time>2014-06-16T06:42:33Z</time>
      </trkpt>
      <trkpt lat="44.56398" lon="-0.35186">
        <ele>16</ele>
        <time>2014-06-16T06:42:37Z</time>
      </trkpt>
      <trkpt lat="44.56388" lon="-0.35206">
        <ele>14.56</ele>
        <time>2014-06-16T06:42:40Z</time>
      </trkpt>
      <trkpt lat="44.56372" lon="-0.35236">
        <ele>13.6</ele>
        <time>2014-06-16T06:42:45Z</time>
      </trkpt>
      <trkpt lat="44.56312" lon="-0.35284">
        <ele>13.12</ele>
        <time>2014-06-16T06:43:00Z</time>
      </trkpt>
      <trkpt lat="44.56284" lon="-0.3533">
        <ele>16</ele>
        <time>2014-06-16T06:43:11Z</time>
      </trkpt>
      <trkpt lat="44.56298" lon="-0.3534">
        <ele>16.96</ele>
        <time>2014-06-16T06:43:17Z</time>
      </trkpt>
      <trkpt lat="44.56313" lon="-0.35332">
        <ele>19.36</ele>
        <time>2014-06-16T06:43:28Z</time>
      </trkpt>
      <trkpt lat="44.56315" lon="-0.35332">
        <ele>19.36</ele>
        <time>2014-06-16T06:43:54Z</time>
      </trkpt>
      <trkpt lat="44.56315" lon="-0.35333">
        <ele>22.25</ele>
        <time>2014-06-16T06:44:39Z</time>
      </trkpt>
      <trkpt lat="44.56315" lon="-0.35333">
        <ele>21.29</ele>
        <time>2014-06-16T06:45:21Z</time>
      </trkpt>
      <trkpt lat="44.56315" lon="-0.35334">
        <ele>19.84</ele>
        <time>2014-06-16T06:46:05Z</time>
      </trkpt>
      <trkpt lat="44.56314" lon="-0.35334">
        <ele>18.88</ele>
        <time>2014-06-16T06:46:49Z</time>
      </trkpt>
      <trkpt lat="44.56314" lon="-0.35333">
        <ele>18.88</ele>
        <time>2014-06-16T06:47:00Z</time>
      </trkpt>
      <trkpt lat="44.56311" lon="-0.35335">
        <ele>19.36</ele>
        <time>2014-06-16T06:47:12Z</time>
      </trkpt>
      <trkpt lat="44.5631" lon="-0.35335">
        <ele>19.36</ele>
        <time>2014-06-16T06:47:24Z</time>
      </trkpt>
      <trkpt lat="44.56307" lon="-0.35337">
        <ele>18.88</ele>
        <time>2014-06-16T06:47:27Z</time>
      </trkpt>
      <trkpt lat="44.56275" lon="-0.35358">
        <ele>17.44</ele>
        <time>2014-06-16T06:47:39Z</time>
      </trkpt>
      <trkpt lat="44.5625" lon="-0.35384">
        <ele>16.96</ele>
        <time>2014-06-16T06:47:52Z</time>
      </trkpt>
      <trkpt lat="44.56233" lon="-0.35405">
        <ele>17.44</ele>
        <time>2014-06-16T06:48:03Z</time>
      </trkpt>
      <trkpt lat="44.56193" lon="-0.35444">
        <ele>18.88</ele>
        <time>2014-06-16T06:48:18Z</time>
      </trkpt>
      <trkpt lat="44.56158" lon="-0.35486">
        <ele>18.88</ele>
        <time>2014-06-16T06:48:30Z</time>
      </trkpt>
      <trkpt lat="44.56147" lon="-0.35502">
        <ele>18.4</ele>
        <time>2014-06-16T06:48:34Z</time>
      </trkpt>
      <trkpt lat="44.56089" lon="-0.3558">
        <ele>18.4</ele>
        <time>2014-06-16T06:48:53Z</time>
      </trkpt>
      <trkpt lat="44.56086" lon="-0.35584">
        <ele>18.4</ele>
        <time>2014-06-16T06:48:54Z</time>
      </trkpt>
      <trkpt lat="44.56076" lon="-0.35597">
        <ele>18.4</ele>
        <time>2014-06-16T06:48:57Z</time>
      </trkpt>
      <trkpt lat="44.56045" lon="-0.35636">
        <ele>18.4</ele>
        <time>2014-06-16T06:49:06Z</time>
      </trkpt>
      <trkpt lat="44.56028" lon="-0.35658">
        <ele>17.92</ele>
        <time>2014-06-16T06:49:11Z</time>
      </trkpt>
      <trkpt lat="44.5602" lon="-0.35666">
        <ele>17.92</ele>
        <time>2014-06-16T06:49:13Z</time>
      </trkpt>
      <trkpt lat="44.55999" lon="-0.3569">
        <ele>17.92</ele>
        <time>2014-06-16T06:49:19Z</time>
      </trkpt>
      <trkpt lat="44.55975" lon="-0.35708">
        <ele>17.44</ele>
        <time>2014-06-16T06:49:25Z</time>
      </trkpt>
      <trkpt lat="44.55963" lon="-0.35715">
        <ele>16.96</ele>
        <time>2014-06-16T06:49:28Z</time>
      </trkpt>
      <trkpt lat="44.55923" lon="-0.35735">
        <ele>17.92</ele>
        <time>2014-06-16T06:49:41Z</time>
      </trkpt>
      <trkpt lat="44.55919" lon="-0.35737">
        <ele>17.92</ele>
        <time>2014-06-16T06:49:44Z</time>
      </trkpt>
      <trkpt lat="44.55905" lon="-0.3572">
        <ele>18.4</ele>
        <time>2014-06-16T06:49:52Z</time>
      </trkpt>
      <trkpt lat="44.55877" lon="-0.35643">
        <ele>14.56</ele>
        <time>2014-06-16T06:50:05Z</time>
      </trkpt>
      <trkpt lat="44.55867" lon="-0.35611">
        <ele>16.48</ele>
        <time>2014-06-16T06:50:16Z</time>
      </trkpt>
      <trkpt lat="44.55846" lon="-0.35556">
        <ele>16.48</ele>
        <time>2014-06-16T06:50:29Z</time>
      </trkpt>
      <trkpt lat="44.55823" lon="-0.35493">
        <ele>14.08</ele>
        <time>2014-06-16T06:50:44Z</time>
      </trkpt>
      <trkpt lat="44.55799" lon="-0.35424">
        <ele>13.6</ele>
        <time>2014-06-16T06:51:00Z</time>
      </trkpt>
      <trkpt lat="44.55804" lon="-0.35425">
        <ele>13.6</ele>
        <time>2014-06-16T06:51:05Z</time>
      </trkpt>
      <trkpt lat="44.55827" lon="-0.35487">
        <ele>15.04</ele>
        <time>2014-06-16T06:51:19Z</time>
      </trkpt>
      <trkpt lat="44.55832" lon="-0.35497">
        <ele>14.56</ele>
        <time>2014-06-16T06:51:29Z</time>
      </trkpt>
      <trkpt lat="44.55833" lon="-0.35495">
        <ele>15.04</ele>
        <time>2014-06-16T06:52:11Z</time>
      </trkpt>
      <trkpt lat="44.55833" lon="-0.35497">
        <ele>17.92</ele>
        <time>2014-06-16T06:52:56Z</time>
      </trkpt>
      <trkpt lat="44.55833" lon="-0.35497">
        <ele>16.96</ele>
        <time>2014-06-16T06:53:22Z</time>
      </trkpt>
      <trkpt lat="44.55832" lon="-0.355">
        <ele>16.96</ele>
        <time>2014-06-16T06:53:30Z</time>
      </trkpt>
      <trkpt lat="44.55828" lon="-0.35501">
        <ele>17.44</ele>
        <time>2014-06-16T06:53:33Z</time>
      </trkpt>
      <trkpt lat="44.55817" lon="-0.35477">
        <ele>16.96</ele>
        <time>2014-06-16T06:53:39Z</time>
      </trkpt>
      <trkpt lat="44.55784" lon="-0.35398">
        <ele>17.44</ele>
        <time>2014-06-16T06:53:55Z</time>
      </trkpt>
      <trkpt lat="44.55742" lon="-0.35343">
        <ele>20.81</ele>
        <time>2014-06-16T06:54:12Z</time>
      </trkpt>
      <trkpt lat="44.55714" lon="-0.353">
        <ele>22.73</ele>
        <time>2014-06-16T06:54:24Z</time>
      </trkpt>
      <trkpt lat="44.55706" lon="-0.35288">
        <ele>22.73</ele>
        <time>2014-06-16T06:54:27Z</time>
      </trkpt>
      <trkpt lat="44.55715" lon="-0.35276">
        <ele>21.77</ele>
        <time>2014-06-16T06:54:34Z</time>
      </trkpt>
      <trkpt lat="44.55718" lon="-0.35275">
        <ele>21.77</ele>
        <time>2014-06-16T06:54:35Z</time>
      </trkpt>
      <trkpt lat="44.55781" lon="-0.35234">
        <ele>21.29</ele>
        <time>2014-06-16T06:54:55Z</time>
      </trkpt>
      <trkpt lat="44.55833" lon="-0.35196">
        <ele>20.81</ele>
        <time>2014-06-16T06:55:10Z</time>
      </trkpt>
      <trkpt lat="44.5588" lon="-0.35168">
        <ele>20.81</ele>
        <time>2014-06-16T06:55:24Z</time>
      </trkpt>
      <trkpt lat="44.55902" lon="-0.35152">
        <ele>21.29</ele>
        <time>2014-06-16T06:55:31Z</time>
      </trkpt>
      <trkpt lat="44.55903" lon="-0.35141">
        <ele>20.81</ele>
        <time>2014-06-16T06:55:35Z</time>
      </trkpt>
      <trkpt lat="44.55879" lon="-0.35082">
        <ele>20.81</ele>
        <time>2014-06-16T06:55:51Z</time>
      </trkpt>
      <trkpt lat="44.55861" lon="-0.35035">
        <ele>22.25</ele>
        <time>2014-06-16T06:56:04Z</time>
      </trkpt>
      <trkpt lat="44.55839" lon="-0.34977">
        <ele>22.25</ele>
        <time>2014-06-16T06:56:19Z</time>
      </trkpt>
      <trkpt lat="44.55814" lon="-0.34911">
        <ele>22.25</ele>
        <time>2014-06-16T06:56:35Z</time>
      </trkpt>
      <trkpt lat="44.55791" lon="-0.3485">
        <ele>22.73</ele>
        <time>2014-06-16T06:56:49Z</time>
      </trkpt>
      <trkpt lat="44.55788" lon="-0.34839">
        <ele>23.21</ele>
        <time>2014-06-16T06:56:52Z</time>
      </trkpt>
      <trkpt lat="44.55803" lon="-0.34807">
        <ele>23.21</ele>
        <time>2014-06-16T06:57:02Z</time>
      </trkpt>
      <trkpt lat="44.5584" lon="-0.34767">
        <ele>23.21</ele>
        <time>2014-06-16T06:57:14Z</time>
      </trkpt>
      <trkpt lat="44.55858" lon="-0.34753">
        <ele>23.21</ele>
        <time>2014-06-16T06:57:19Z</time>
      </trkpt>
      <trkpt lat="44.55921" lon="-0.34705">
        <ele>22.25</ele>
        <time>2014-06-16T06:57:35Z</time>
      </trkpt>
      <trkpt lat="44.55992" lon="-0.34653">
        <ele>21.29</ele>
        <time>2014-06-16T06:57:52Z</time>
      </trkpt>
      <trkpt lat="44.56068" lon="-0.34599">
        <ele>20.81</ele>
        <time>2014-06-16T06:58:10Z</time>
      </trkpt>
      <trkpt lat="44.56102" lon="-0.34574">
        <ele>20.32</ele>
        <time>2014-06-16T06:58:18Z</time>
      </trkpt>
      <trkpt lat="44.56123" lon="-0.34559">
        <ele>20.81</ele>
        <time>2014-06-16T06:58:23Z</time>
      </trkpt>
      <trkpt lat="44.56169" lon="-0.34484">
        <ele>19.84</ele>
        <time>2014-06-16T06:58:38Z</time>
      </trkpt>
      <trkpt lat="44.56186" lon="-0.34455">
        <ele>19.84</ele>
        <time>2014-06-16T06:58:44Z</time>
      </trkpt>
      <trkpt lat="44.56194" lon="-0.34441">
        <ele>19.84</ele>
        <time>2014-06-16T06:58:47Z</time>
      </trkpt>
      <trkpt lat="44.56211" lon="-0.34446">
        <ele>19.84</ele>
        <time>2014-06-16T06:58:52Z</time>
      </trkpt>
      <trkpt lat="44.56252" lon="-0.34493">
        <ele>19.36</ele>
        <time>2014-06-16T06:59:05Z</time>
      </trkpt>
      <trkpt lat="44.56275" lon="-0.34515">
        <ele>20.32</ele>
        <time>2014-06-16T06:59:12Z</time>
      </trkpt>
      <trkpt lat="44.56285" lon="-0.34526">
        <ele>20.32</ele>
        <time>2014-06-16T06:59:15Z</time>
      </trkpt>
      <trkpt lat="44.56299" lon="-0.3454">
        <ele>19.84</ele>
        <time>2014-06-16T06:59:19Z</time>
      </trkpt>
      <trkpt lat="44.56335" lon="-0.34571">
        <ele>18.88</ele>
        <time>2014-06-16T06:59:29Z</time>
      </trkpt>
      <trkpt lat="44.56349" lon="-0.34585">
        <ele>18.4</ele>
        <time>2014-06-16T06:59:33Z</time>
      </trkpt>
      <trkpt lat="44.56367" lon="-0.34579">
        <ele>17.92</ele>
        <time>2014-06-16T06:59:38Z</time>
      </trkpt>
      <trkpt lat="44.56374" lon="-0.34564">
        <ele>17.92</ele>
        <time>2014-06-16T06:59:41Z</time>
      </trkpt>
      <trkpt lat="44.56405" lon="-0.34564">
        <ele>19.84</ele>
        <time>2014-06-16T06:59:49Z</time>
      </trkpt>
      <trkpt lat="44.56444" lon="-0.34551">
        <ele>19.84</ele>
        <time>2014-06-16T06:59:57Z</time>
      </trkpt>
      <trkpt lat="44.56453" lon="-0.3454">
        <ele>19.36</ele>
        <time>2014-06-16T06:59:59Z</time>
      </trkpt>
      <trkpt lat="44.56488" lon="-0.34488">
        <ele>17.44</ele>
        <time>2014-06-16T07:00:08Z</time>
      </trkpt>
      <trkpt lat="44.56495" lon="-0.34477">
        <ele>17.44</ele>
        <time>2014-06-16T07:00:10Z</time>
      </trkpt>
      <trkpt lat="44.56541" lon="-0.34395">
        <ele>14.56</ele>
        <time>2014-06-16T07:00:27Z</time>
      </trkpt>
      <trkpt lat="44.56548" lon="-0.34379">
        <ele>14.08</ele>
        <time>2014-06-16T07:00:30Z</time>
      </trkpt>
      <trkpt lat="44.56596" lon="-0.3427">
        <ele>12.63</ele>
        <time>2014-06-16T07:00:50Z</time>
      </trkpt>
      <trkpt lat="44.56601" lon="-0.34253">
        <ele>12.63</ele>
        <time>2014-06-16T07:00:53Z</time>
      </trkpt>
      <trkpt lat="44.56632" lon="-0.34187">
        <ele>15.52</ele>
        <time>2014-06-16T07:01:08Z</time>
      </trkpt>
      <trkpt lat="44.56666" lon="-0.34134">
        <ele>16.96</ele>
        <time>2014-06-16T07:01:21Z</time>
      </trkpt>
      <trkpt lat="44.5668" lon="-0.34113">
        <ele>16.48</ele>
        <time>2014-06-16T07:01:26Z</time>
      </trkpt>
      <trkpt lat="44.56694" lon="-0.3409">
        <ele>16.96</ele>
        <time>2014-06-16T07:01:31Z</time>
      </trkpt>
      <trkpt lat="44.56705" lon="-0.34074">
        <ele>17.44</ele>
        <time>2014-06-16T07:01:35Z</time>
      </trkpt>
      <trkpt lat="44.56715" lon="-0.34062">
        <ele>17.92</ele>
        <time>2014-06-16T07:01:38Z</time>
      </trkpt>
      <trkpt lat="44.56753" lon="-0.34038">
        <ele>18.4</ele>
        <time>2014-06-16T07:01:48Z</time>
      </trkpt>
      <trkpt lat="44.56761" lon="-0.34034">
        <ele>17.92</ele>
        <time>2014-06-16T07:01:50Z</time>
      </trkpt>
      <trkpt lat="44.56791" lon="-0.34022">
        <ele>18.4</ele>
        <time>2014-06-16T07:01:57Z</time>
      </trkpt>
      <trkpt lat="44.5681" lon="-0.3399">
        <ele>17.92</ele>
        <time>2014-06-16T07:02:05Z</time>
      </trkpt>
      <trkpt lat="44.56808" lon="-0.33978">
        <ele>17.44</ele>
        <time>2014-06-16T07:02:07Z</time>
      </trkpt>
      <trkpt lat="44.5679" lon="-0.3388">
        <ele>15.52</ele>
        <time>2014-06-16T07:02:22Z</time>
      </trkpt>
      <trkpt lat="44.5678" lon="-0.33826">
        <ele>14.56</ele>
        <time>2014-06-16T07:02:30Z</time>
      </trkpt>
      <trkpt lat="44.56779" lon="-0.33783">
        <ele>14.56</ele>
        <time>2014-06-16T07:02:38Z</time>
      </trkpt>
      <trkpt lat="44.56792" lon="-0.33766">
        <ele>14.56</ele>
        <time>2014-06-16T07:02:42Z</time>
      </trkpt>
      <trkpt lat="44.56806" lon="-0.33751">
        <ele>14.08</ele>
        <time>2014-06-16T07:02:46Z</time>
      </trkpt>
      <trkpt lat="44.5681" lon="-0.33711">
        <ele>14.08</ele>
        <time>2014-06-16T07:02:54Z</time>
      </trkpt>
      <trkpt lat="44.56806" lon="-0.33705">
        <ele>14.08</ele>
        <time>2014-06-16T07:02:56Z</time>
      </trkpt>
      <trkpt lat="44.56796" lon="-0.33683">
        <ele>14.56</ele>
        <time>2014-06-16T07:03:03Z</time>
      </trkpt>
      <trkpt lat="44.56795" lon="-0.33674">
        <ele>15.04</ele>
        <time>2014-06-16T07:03:14Z</time>
      </trkpt>
      <trkpt lat="44.56795" lon="-0.33674">
        <ele>16.96</ele>
        <time>2014-06-16T07:03:47Z</time>
      </trkpt>
      <trkpt lat="44.56796" lon="-0.33673">
        <ele>18.4</ele>
        <time>2014-06-16T07:04:23Z</time>
      </trkpt>
      <trkpt lat="44.56795" lon="-0.33674">
        <ele>15.52</ele>
        <time>2014-06-16T07:05:05Z</time>
      </trkpt>
      <trkpt lat="44.56796" lon="-0.33674">
        <ele>14.56</ele>
        <time>2014-06-16T07:05:28Z</time>
      </trkpt>
      <trkpt lat="44.56817" lon="-0.33639">
        <ele>13.6</ele>
        <time>2014-06-16T07:05:40Z</time>
      </trkpt>
      <trkpt lat="44.5685" lon="-0.33581">
        <ele>12.15</ele>
        <time>2014-06-16T07:05:53Z</time>
      </trkpt>
      <trkpt lat="44.56848" lon="-0.33579">
        <ele>14.08</ele>
        <time>2014-06-16T07:06:15Z</time>
      </trkpt>
      <trkpt lat="44.56848" lon="-0.3358">
        <ele>14.56</ele>
        <time>2014-06-16T07:06:34Z</time>
      </trkpt>
      <trkpt lat="44.56853" lon="-0.33574">
        <ele>14.08</ele>
        <time>2014-06-16T07:06:50Z</time>
      </trkpt>
      <trkpt lat="44.56853" lon="-0.33572">
        <ele>13.6</ele>
        <time>2014-06-16T07:07:18Z</time>
      </trkpt>
      <trkpt lat="44.56856" lon="-0.33565">
        <ele>14.08</ele>
        <time>2014-06-16T07:07:32Z</time>
      </trkpt>
      <trkpt lat="44.56858" lon="-0.33562">
        <ele>13.12</ele>
        <time>2014-06-16T07:07:36Z</time>
      </trkpt>
      <trkpt lat="44.56867" lon="-0.3354">
        <ele>12.15</ele>
        <time>2014-06-16T07:07:45Z</time>
      </trkpt>
      <trkpt lat="44.56874" lon="-0.33471">
        <ele>11.19</ele>
        <time>2014-06-16T07:08:00Z</time>
      </trkpt>
      <trkpt lat="44.56891" lon="-0.33408">
        <ele>8.79</ele>
        <time>2014-06-16T07:08:12Z</time>
      </trkpt>
      <trkpt lat="44.5691" lon="-0.33372">
        <ele>7.83</ele>
        <time>2014-06-16T07:08:21Z</time>
      </trkpt>
      <trkpt lat="44.56924" lon="-0.33353">
        <ele>7.35</ele>
        <time>2014-06-16T07:08:32Z</time>
      </trkpt>
      <trkpt lat="44.56933" lon="-0.33331">
        <ele>7.83</ele>
        <time>2014-06-16T07:08:38Z</time>
      </trkpt>
      <trkpt lat="44.56946" lon="-0.33281">
        <ele>7.83</ele>
        <time>2014-06-16T07:08:50Z</time>
      </trkpt>
      <trkpt lat="44.56961" lon="-0.33213">
        <ele>10.71</ele>
        <time>2014-06-16T07:09:02Z</time>
      </trkpt>
      <trkpt lat="44.56966" lon="-0.33195">
        <ele>11.19</ele>
        <time>2014-06-16T07:09:05Z</time>
      </trkpt>
      <trkpt lat="44.56974" lon="-0.33129">
        <ele>10.23</ele>
        <time>2014-06-16T07:09:16Z</time>
      </trkpt>
      <trkpt lat="44.56975" lon="-0.33079">
        <ele>9.27</ele>
        <time>2014-06-16T07:09:24Z</time>
      </trkpt>
      <trkpt lat="44.56978" lon="-0.33042">
        <ele>8.79</ele>
        <time>2014-06-16T07:09:30Z</time>
      </trkpt>
      <trkpt lat="44.56981" lon="-0.33012">
        <ele>9.27</ele>
        <time>2014-06-16T07:09:35Z</time>
      </trkpt>
      <trkpt lat="44.56994" lon="-0.32928">
        <ele>9.75</ele>
        <time>2014-06-16T07:09:48Z</time>
      </trkpt>
      <trkpt lat="44.57001" lon="-0.32887">
        <ele>9.75</ele>
        <time>2014-06-16T07:09:55Z</time>
      </trkpt>
      <trkpt lat="44.5701" lon="-0.32841">
        <ele>10.71</ele>
        <time>2014-06-16T07:10:05Z</time>
      </trkpt>
      <trkpt lat="44.57012" lon="-0.3284">
        <ele>10.71</ele>
        <time>2014-06-16T07:10:30Z</time>
      </trkpt>
      <trkpt lat="44.57012" lon="-0.32841">
        <ele>9.75</ele>
        <time>2014-06-16T07:11:07Z</time>
      </trkpt>
      <trkpt lat="44.57012" lon="-0.32839">
        <ele>10.23</ele>
        <time>2014-06-16T07:11:42Z</time>
      </trkpt>
      <trkpt lat="44.57012" lon="-0.32839">
        <ele>10.23</ele>
        <time>2014-06-16T07:11:46Z</time>
      </trkpt>
      <trkpt lat="44.57015" lon="-0.32822">
        <ele>10.71</ele>
        <time>2014-06-16T07:11:52Z</time>
      </trkpt>
      <trkpt lat="44.57027" lon="-0.32757">
        <ele>9.75</ele>
        <time>2014-06-16T07:12:04Z</time>
      </trkpt>
      <trkpt lat="44.5704" lon="-0.32687">
        <ele>8.31</ele>
        <time>2014-06-16T07:12:16Z</time>
      </trkpt>
      <trkpt lat="44.57046" lon="-0.32661">
        <ele>9.75</ele>
        <time>2014-06-16T07:12:21Z</time>
      </trkpt>
      <trkpt lat="44.57071" lon="-0.32575">
        <ele>10.71</ele>
        <time>2014-06-16T07:12:34Z</time>
      </trkpt>
      <trkpt lat="44.57091" lon="-0.32514">
        <ele>9.27</ele>
        <time>2014-06-16T07:12:45Z</time>
      </trkpt>
      <trkpt lat="44.57098" lon="-0.32494">
        <ele>8.31</ele>
        <time>2014-06-16T07:12:49Z</time>
      </trkpt>
      <trkpt lat="44.57091" lon="-0.3248">
        <ele>8.31</ele>
        <time>2014-06-16T07:12:53Z</time>
      </trkpt>
      <trkpt lat="44.57083" lon="-0.32476">
        <ele>8.31</ele>
        <time>2014-06-16T07:12:56Z</time>
      </trkpt>
      <trkpt lat="44.57097" lon="-0.32441">
        <ele>9.27</ele>
        <time>2014-06-16T07:13:07Z</time>
      </trkpt>
      <trkpt lat="44.57104" lon="-0.32431">
        <ele>9.75</ele>
        <time>2014-06-16T07:13:11Z</time>
      </trkpt>
      <trkpt lat="44.57106" lon="-0.3243">
        <ele>10.71</ele>
        <time>2014-06-16T07:13:24Z</time>
      </trkpt>
      <trkpt lat="44.57106" lon="-0.32428">
        <ele>10.71</ele>
        <time>2014-06-16T07:13:28Z</time>
      </trkpt>
      <trkpt lat="44.57103" lon="-0.32417">
        <ele>10.71</ele>
        <time>2014-06-16T07:13:33Z</time>
      </trkpt>
      <trkpt lat="44.57099" lon="-0.32406">
        <ele>11.19</ele>
        <time>2014-06-16T07:13:43Z</time>
      </trkpt>
      <trkpt lat="44.571" lon="-0.32405">
        <ele>10.23</ele>
        <time>2014-06-16T07:14:09Z</time>
      </trkpt>
      <trkpt lat="44.57099" lon="-0.32406">
        <ele>11.19</ele>
        <time>2014-06-16T07:14:39Z</time>
      </trkpt>
      <trkpt lat="44.571" lon="-0.32408">
        <ele>11.19</ele>
        <time>2014-06-16T07:14:44Z</time>
      </trkpt>
      <trkpt lat="44.57102" lon="-0.32424">
        <ele>9.27</ele>
        <time>2014-06-16T07:14:52Z</time>
      </trkpt>
      <trkpt lat="44.57101" lon="-0.3243">
        <ele>9.75</ele>
        <time>2014-06-16T07:15:05Z</time>
      </trkpt>
      <trkpt lat="44.57102" lon="-0.32431">
        <ele>9.75</ele>
        <time>2014-06-16T07:15:33Z</time>
      </trkpt>
      <trkpt lat="44.57101" lon="-0.32432">
        <ele>8.79</ele>
        <time>2014-06-16T07:15:52Z</time>
      </trkpt>
      <trkpt lat="44.57102" lon="-0.32431">
        <ele>8.79</ele>
        <time>2014-06-16T07:16:11Z</time>
      </trkpt>
      <trkpt lat="44.57102" lon="-0.3243">
        <ele>8.79</ele>
        <time>2014-06-16T07:16:17Z</time>
      </trkpt>
      <trkpt lat="44.57102" lon="-0.32427">
        <ele>9.27</ele>
        <time>2014-06-16T07:16:20Z</time>
      </trkpt>
      <trkpt lat="44.57113" lon="-0.3242">
        <ele>10.23</ele>
        <time>2014-06-16T07:16:26Z</time>
      </trkpt>
      <trkpt lat="44.57126" lon="-0.32421">
        <ele>9.75</ele>
        <time>2014-06-16T07:16:29Z</time>
      </trkpt>
      <trkpt lat="44.57135" lon="-0.32419">
        <ele>9.75</ele>
        <time>2014-06-16T07:16:31Z</time>
      </trkpt>
      <trkpt lat="44.57139" lon="-0.32418">
        <ele>9.75</ele>
        <time>2014-06-16T07:16:32Z</time>
      </trkpt>
      <trkpt lat="44.57158" lon="-0.32398">
        <ele>9.75</ele>
        <time>2014-06-16T07:16:39Z</time>
      </trkpt>
      <trkpt lat="44.57182" lon="-0.32358">
        <ele>10.71</ele>
        <time>2014-06-16T07:16:50Z</time>
      </trkpt>
      <trkpt lat="44.57213" lon="-0.32316">
        <ele>12.15</ele>
        <time>2014-06-16T07:17:02Z</time>
      </trkpt>
      <trkpt lat="44.57259" lon="-0.32275">
        <ele>9.75</ele>
        <time>2014-06-16T07:17:16Z</time>
      </trkpt>
      <trkpt lat="44.57293" lon="-0.32251">
        <ele>9.75</ele>
        <time>2014-06-16T07:17:26Z</time>
      </trkpt>
      <trkpt lat="44.57305" lon="-0.32246">
        <ele>9.75</ele>
        <time>2014-06-16T07:17:29Z</time>
      </trkpt>
      <trkpt lat="44.57315" lon="-0.32245">
        <ele>9.75</ele>
        <time>2014-06-16T07:17:31Z</time>
      </trkpt>
      <trkpt lat="44.5732" lon="-0.32243">
        <ele>9.75</ele>
        <time>2014-06-16T07:17:32Z</time>
      </trkpt>
      <trkpt lat="44.57325" lon="-0.32241">
        <ele>9.27</ele>
        <time>2014-06-16T07:17:33Z</time>
      </trkpt>
      <trkpt lat="44.5733" lon="-0.32238">
        <ele>8.79</ele>
        <time>2014-06-16T07:17:34Z</time>
      </trkpt>
      <trkpt lat="44.57358" lon="-0.32222">
        <ele>7.35</ele>
        <time>2014-06-16T07:17:40Z</time>
      </trkpt>
      <trkpt lat="44.57367" lon="-0.32218">
        <ele>7.35</ele>
        <time>2014-06-16T07:17:42Z</time>
      </trkpt>
      <trkpt lat="44.574" lon="-0.32204">
        <ele>6.39</ele>
        <time>2014-06-16T07:17:50Z</time>
      </trkpt>
      <trkpt lat="44.57408" lon="-0.32197">
        <ele>6.87</ele>
        <time>2014-06-16T07:17:52Z</time>
      </trkpt>
      <trkpt lat="44.57419" lon="-0.3218">
        <ele>6.39</ele>
        <time>2014-06-16T07:17:56Z</time>
      </trkpt>
      <trkpt lat="44.57424" lon="-0.32169">
        <ele>6.39</ele>
        <time>2014-06-16T07:18:06Z</time>
      </trkpt>
      <trkpt lat="44.57424" lon="-0.32169">
        <ele>6.39</ele>
        <time>2014-06-16T07:18:09Z</time>
      </trkpt>
      <trkpt lat="44.57421" lon="-0.32161">
        <ele>6.87</ele>
        <time>2014-06-16T07:18:20Z</time>
      </trkpt>
      <trkpt lat="44.57421" lon="-0.32162">
        <ele>8.31</ele>
        <time>2014-06-16T07:18:49Z</time>
      </trkpt>
      <trkpt lat="44.57422" lon="-0.32162">
        <ele>9.75</ele>
        <time>2014-06-16T07:19:04Z</time>
      </trkpt>
      <trkpt lat="44.57424" lon="-0.32169">
        <ele>9.27</ele>
        <time>2014-06-16T07:19:08Z</time>
      </trkpt>
      <trkpt lat="44.57421" lon="-0.32178">
        <ele>9.75</ele>
        <time>2014-06-16T07:19:22Z</time>
      </trkpt>
      <trkpt lat="44.57421" lon="-0.32158">
        <ele>10.23</ele>
        <time>2014-06-16T07:19:32Z</time>
      </trkpt>
      <trkpt lat="44.57418" lon="-0.32154">
        <ele>9.75</ele>
        <time>2014-06-16T07:19:34Z</time>
      </trkpt>
      <trkpt lat="44.57397" lon="-0.32128">
        <ele>9.75</ele>
        <time>2014-06-16T07:19:45Z</time>
      </trkpt>
      <trkpt lat="44.57362" lon="-0.32074">
        <ele>13.12</ele>
        <time>2014-06-16T07:20:02Z</time>
      </trkpt>
      <trkpt lat="44.57356" lon="-0.32052">
        <ele>15.04</ele>
        <time>2014-06-16T07:20:09Z</time>
      </trkpt>
      <trkpt lat="44.57389" lon="-0.32011">
        <ele>14.56</ele>
        <time>2014-06-16T07:20:22Z</time>
      </trkpt>
      <trkpt lat="44.57412" lon="-0.31953">
        <ele>14.08</ele>
        <time>2014-06-16T07:20:36Z</time>
      </trkpt>
      <trkpt lat="44.57418" lon="-0.31905">
        <ele>14.56</ele>
        <time>2014-06-16T07:20:48Z</time>
      </trkpt>
      <trkpt lat="44.57416" lon="-0.31905">
        <ele>16</ele>
        <time>2014-06-16T07:21:19Z</time>
      </trkpt>
      <trkpt lat="44.57416" lon="-0.31905">
        <ele>16</ele>
        <time>2014-06-16T07:21:21Z</time>
      </trkpt>
      <trkpt lat="44.57423" lon="-0.31865">
        <ele>15.52</ele>
        <time>2014-06-16T07:21:33Z</time>
      </trkpt>
      <trkpt lat="44.57426" lon="-0.3184">
        <ele>15.04</ele>
        <time>2014-06-16T07:21:38Z</time>
      </trkpt>
      <trkpt lat="44.57429" lon="-0.31817">
        <ele>14.56</ele>
        <time>2014-06-16T07:21:42Z</time>
      </trkpt>
      <trkpt lat="44.57429" lon="-0.31804">
        <ele>14.56</ele>
        <time>2014-06-16T07:21:44Z</time>
      </trkpt>
      <trkpt lat="44.57402" lon="-0.31716">
        <ele>14.08</ele>
        <time>2014-06-16T07:21:59Z</time>
      </trkpt>
      <trkpt lat="44.57397" lon="-0.31704">
        <ele>13.6</ele>
        <time>2014-06-16T07:22:01Z</time>
      </trkpt>
      <trkpt lat="44.57381" lon="-0.3167">
        <ele>13.12</ele>
        <time>2014-06-16T07:22:07Z</time>
      </trkpt>
      <trkpt lat="44.57358" lon="-0.31669">
        <ele>13.12</ele>
        <time>2014-06-16T07:22:13Z</time>
      </trkpt>
      <trkpt lat="44.57303" lon="-0.31714">
        <ele>12.63</ele>
        <time>2014-06-16T07:22:28Z</time>
      </trkpt>
      <trkpt lat="44.57282" lon="-0.31722">
        <ele>13.12</ele>
        <time>2014-06-16T07:22:34Z</time>
      </trkpt>
      <trkpt lat="44.57284" lon="-0.31698">
        <ele>13.12</ele>
        <time>2014-06-16T07:22:43Z</time>
      </trkpt>
      <trkpt lat="44.57287" lon="-0.31696">
        <ele>13.12</ele>
        <time>2014-06-16T07:22:44Z</time>
      </trkpt>
      <trkpt lat="44.57334" lon="-0.31658">
        <ele>14.56</ele>
        <time>2014-06-16T07:23:01Z</time>
      </trkpt>
      <trkpt lat="44.57368" lon="-0.31613">
        <ele>16.48</ele>
        <time>2014-06-16T07:23:15Z</time>
      </trkpt>
      <trkpt lat="44.57401" lon="-0.31565">
        <ele>16.96</ele>
        <time>2014-06-16T07:23:28Z</time>
      </trkpt>
      <trkpt lat="44.57435" lon="-0.31514">
        <ele>15.52</ele>
        <time>2014-06-16T07:23:41Z</time>
      </trkpt>
      <trkpt lat="44.57459" lon="-0.31478">
        <ele>15.04</ele>
        <time>2014-06-16T07:23:49Z</time>
      </trkpt>
      <trkpt lat="44.57519" lon="-0.31378">
        <ele>9.75</ele>
        <time>2014-06-16T07:24:06Z</time>
      </trkpt>
      <trkpt lat="44.57531" lon="-0.31351">
        <ele>9.75</ele>
        <time>2014-06-16T07:24:16Z</time>
      </trkpt>
      <trkpt lat="44.57532" lon="-0.31351">
        <ele>8.31</ele>
        <time>2014-06-16T07:24:42Z</time>
      </trkpt>
      <trkpt lat="44.57532" lon="-0.3135">
        <ele>8.31</ele>
        <time>2014-06-16T07:24:57Z</time>
      </trkpt>
      <trkpt lat="44.57535" lon="-0.31341">
        <ele>7.83</ele>
        <time>2014-06-16T07:25:10Z</time>
      </trkpt>
      <trkpt lat="44.57534" lon="-0.31341">
        <ele>9.27</ele>
        <time>2014-06-16T07:25:34Z</time>
      </trkpt>
      <trkpt lat="44.57534" lon="-0.3134">
        <ele>9.75</ele>
        <time>2014-06-16T07:26:04Z</time>
      </trkpt>
      <trkpt lat="44.57535" lon="-0.31341">
        <ele>10.23</ele>
        <time>2014-06-16T07:26:14Z</time>
      </trkpt>
      <trkpt lat="44.5754" lon="-0.31356">
        <ele>9.75</ele>
        <time>2014-06-16T07:26:22Z</time>
      </trkpt>
      <trkpt lat="44.57537" lon="-0.31371">
        <ele>9.75</ele>
        <time>2014-06-16T07:26:25Z</time>
      </trkpt>
      <trkpt lat="44.57533" lon="-0.31388">
        <ele>9.27</ele>
        <time>2014-06-16T07:26:28Z</time>
      </trkpt>
      <trkpt lat="44.57527" lon="-0.31406">
        <ele>9.27</ele>
        <time>2014-06-16T07:26:31Z</time>
      </trkpt>
      <trkpt lat="44.57514" lon="-0.31432">
        <ele>9.27</ele>
        <time>2014-06-16T07:26:36Z</time>
      </trkpt>
      <trkpt lat="44.57507" lon="-0.31441">
        <ele>9.27</ele>
        <time>2014-06-16T07:26:38Z</time>
      </trkpt>
      <trkpt lat="44.57496" lon="-0.31458">
        <ele>9.75</ele>
        <time>2014-06-16T07:26:42Z</time>
      </trkpt>
      <trkpt lat="44.5749" lon="-0.31488">
        <ele>9.75</ele>
        <time>2014-06-16T07:26:48Z</time>
      </trkpt>
      <trkpt lat="44.57495" lon="-0.31499">
        <ele>9.75</ele>
        <time>2014-06-16T07:26:50Z</time>
      </trkpt>
      <trkpt lat="44.5753" lon="-0.3157">
        <ele>9.75</ele>
        <time>2014-06-16T07:27:03Z</time>
      </trkpt>
      <trkpt lat="44.5754" lon="-0.31593">
        <ele>10.23</ele>
        <time>2014-06-16T07:27:07Z</time>
      </trkpt>
      <trkpt lat="44.5757" lon="-0.3171">
        <ele>9.75</ele>
        <time>2014-06-16T07:27:26Z</time>
      </trkpt>
      <trkpt lat="44.57589" lon="-0.31768">
        <ele>10.23</ele>
        <time>2014-06-16T07:27:38Z</time>
      </trkpt>
      <trkpt lat="44.57618" lon="-0.31842">
        <ele>9.27</ele>
        <time>2014-06-16T07:27:53Z</time>
      </trkpt>
      <trkpt lat="44.57619" lon="-0.31845">
        <ele>9.27</ele>
        <time>2014-06-16T07:27:54Z</time>
      </trkpt>
      <trkpt lat="44.57623" lon="-0.3185">
        <ele>9.75</ele>
        <time>2014-06-16T07:28:00Z</time>
      </trkpt>
      <trkpt lat="44.5763" lon="-0.31866">
        <ele>10.23</ele>
        <time>2014-06-16T07:28:07Z</time>
      </trkpt>
      <trkpt lat="44.57632" lon="-0.31873">
        <ele>10.71</ele>
        <time>2014-06-16T07:28:17Z</time>
      </trkpt>
      <trkpt lat="44.57646" lon="-0.31842">
        <ele>9.75</ele>
        <time>2014-06-16T07:28:27Z</time>
      </trkpt>
      <trkpt lat="44.57655" lon="-0.31825">
        <ele>7.83</ele>
        <time>2014-06-16T07:28:31Z</time>
      </trkpt>
      <trkpt lat="44.57694" lon="-0.31771">
        <ele>3.5</ele>
        <time>2014-06-16T07:28:44Z</time>
      </trkpt>
      <trkpt lat="44.57711" lon="-0.31736">
        <ele>1.58</ele>
        <time>2014-06-16T07:28:53Z</time>
      </trkpt>
      <trkpt lat="44.57741" lon="-0.31677">
        <ele>0.14</ele>
        <time>2014-06-16T07:29:05Z</time>
      </trkpt>
      <trkpt lat="44.57772" lon="-0.31639">
        <ele>1.1</ele>
        <time>2014-06-16T07:29:16Z</time>
      </trkpt>
      <trkpt lat="44.578" lon="-0.31613">
        <ele>0.62</ele>
        <time>2014-06-16T07:29:26Z</time>
      </trkpt>
      <trkpt lat="44.57811" lon="-0.31606">
        <ele>1.58</ele>
        <time>2014-06-16T07:29:29Z</time>
      </trkpt>
      <trkpt lat="44.57859" lon="-0.31581">
        <ele>2.06</ele>
        <time>2014-06-16T07:29:41Z</time>
      </trkpt>
      <trkpt lat="44.57894" lon="-0.31556">
        <ele>3.98</ele>
        <time>2014-06-16T07:29:49Z</time>
      </trkpt>
      <trkpt lat="44.57952" lon="-0.31513">
        <ele>6.87</ele>
        <time>2014-06-16T07:30:03Z</time>
      </trkpt>
      <trkpt lat="44.5798" lon="-0.31484">
        <ele>5.42</ele>
        <time>2014-06-16T07:30:13Z</time>
      </trkpt>
      <trkpt lat="44.58013" lon="-0.31448">
        <ele>5.42</ele>
        <time>2014-06-16T07:30:24Z</time>
      </trkpt>
      <trkpt lat="44.5804" lon="-0.31404">
        <ele>3.5</ele>
        <time>2014-06-16T07:30:36Z</time>
      </trkpt>
      <trkpt lat="44.58061" lon="-0.31367">
        <ele>3.5</ele>
        <time>2014-06-16T07:30:46Z</time>
      </trkpt>
      <trkpt lat="44.58091" lon="-0.31335">
        <ele>-1.3</ele>
        <time>2014-06-16T07:30:57Z</time>
      </trkpt>
      <trkpt lat="44.58094" lon="-0.31332">
        <ele>-1.79</ele>
        <time>2014-06-16T07:30:58Z</time>
      </trkpt>
      <trkpt lat="44.58102" lon="-0.31318">
        <ele>-3.71</ele>
        <time>2014-06-16T07:31:02Z</time>
      </trkpt>
      <trkpt lat="44.58108" lon="-0.3131">
        <ele>-5.63</ele>
        <time>2014-06-16T07:31:05Z</time>
      </trkpt>
      <trkpt lat="44.58118" lon="-0.31294">
        <ele>-7.55</ele>
        <time>2014-06-16T07:31:10Z</time>
      </trkpt>
      <trkpt lat="44.58153" lon="-0.31264">
        <ele>-14.76</ele>
        <time>2014-06-16T07:31:21Z</time>
      </trkpt>
      <trkpt lat="44.58195" lon="-0.31232">
        <ele>-9.96</ele>
        <time>2014-06-16T07:31:34Z</time>
      </trkpt>
      <trkpt lat="44.582" lon="-0.31226">
        <ele>-8.51</ele>
        <time>2014-06-16T07:31:36Z</time>
      </trkpt>
      <trkpt lat="44.58224" lon="-0.31175">
        <ele>0.14</ele>
        <time>2014-06-16T07:31:49Z</time>
      </trkpt>
      <trkpt lat="44.5823" lon="-0.31163">
        <ele>1.1</ele>
        <time>2014-06-16T07:31:53Z</time>
      </trkpt>
      <trkpt lat="44.58238" lon="-0.31153">
        <ele>2.54</ele>
        <time>2014-06-16T07:31:58Z</time>
      </trkpt>
      <trkpt lat="44.58245" lon="-0.31135">
        <ele>3.5</ele>
        <time>2014-06-16T07:32:04Z</time>
      </trkpt>
      <trkpt lat="44.58263" lon="-0.31139">
        <ele>4.46</ele>
        <time>2014-06-16T07:32:16Z</time>
      </trkpt>
      <trkpt lat="44.58262" lon="-0.31138">
        <ele>2.54</ele>
        <time>2014-06-16T07:32:28Z</time>
      </trkpt>
      <trkpt lat="44.58263" lon="-0.31142">
        <ele>3.98</ele>
        <time>2014-06-16T07:33:01Z</time>
      </trkpt>
      <trkpt lat="44.58263" lon="-0.31141">
        <ele>2.06</ele>
        <time>2014-06-16T07:33:36Z</time>
      </trkpt>
      <trkpt lat="44.58263" lon="-0.31144">
        <ele>4.94</ele>
        <time>2014-06-16T07:34:06Z</time>
      </trkpt>
      <trkpt lat="44.58263" lon="-0.31143">
        <ele>5.42</ele>
        <time>2014-06-16T07:34:31Z</time>
      </trkpt>
      <trkpt lat="44.5826" lon="-0.31135">
        <ele>4.46</ele>
        <time>2014-06-16T07:34:36Z</time>
      </trkpt>
      <trkpt lat="44.58259" lon="-0.31118">
        <ele>4.46</ele>
        <time>2014-06-16T07:34:41Z</time>
      </trkpt>
      <trkpt lat="44.58266" lon="-0.31104">
        <ele>3.02</ele>
        <time>2014-06-16T07:34:51Z</time>
      </trkpt>
      <trkpt lat="44.58272" lon="-0.31097">
        <ele>3.02</ele>
        <time>2014-06-16T07:35:09Z</time>
      </trkpt>
      <trkpt lat="44.58281" lon="-0.31089">
        <ele>3.5</ele>
        <time>2014-06-16T07:35:20Z</time>
      </trkpt>
      <trkpt lat="44.58282" lon="-0.31087">
        <ele>3.5</ele>
        <time>2014-06-16T07:35:26Z</time>
      </trkpt>
      <trkpt lat="44.58281" lon="-0.31084">
        <ele>3.02</ele>
        <time>2014-06-16T07:35:29Z</time>
      </trkpt>
      <trkpt lat="44.58275" lon="-0.31063">
        <ele>2.06</ele>
        <time>2014-06-16T07:35:39Z</time>
      </trkpt>
      <trkpt lat="44.58275" lon="-0.3106">
        <ele>2.54</ele>
        <time>2014-06-16T07:35:59Z</time>
      </trkpt>
      <trkpt lat="44.58275" lon="-0.31059">
        <ele>3.02</ele>
        <time>2014-06-16T07:36:20Z</time>
      </trkpt>
      <trkpt lat="44.58275" lon="-0.31059">
        <ele>2.54</ele>
        <time>2014-06-16T07:36:45Z</time>
      </trkpt>
      <trkpt lat="44.58275" lon="-0.31058">
        <ele>3.02</ele>
        <time>2014-06-16T07:37:13Z</time>
      </trkpt>
      <trkpt lat="44.58276" lon="-0.31059">
        <ele>3.98</ele>
        <time>2014-06-16T07:37:37Z</time>
      </trkpt>
      <trkpt lat="44.58276" lon="-0.31059">
        <ele>3.98</ele>
        <time>2014-06-16T07:37:56Z</time>
      </trkpt>
      <trkpt lat="44.58277" lon="-0.3106">
        <ele>4.46</ele>
        <time>2014-06-16T07:38:12Z</time>
      </trkpt>
      <trkpt lat="44.58275" lon="-0.31057">
        <ele>3.98</ele>
        <time>2014-06-16T07:38:14Z</time>
      </trkpt>
      <trkpt lat="44.58274" lon="-0.3103">
        <ele>3.5</ele>
        <time>2014-06-16T07:38:21Z</time>
      </trkpt>
      <trkpt lat="44.58279" lon="-0.31012">
        <ele>3.02</ele>
        <time>2014-06-16T07:38:26Z</time>
      </trkpt>
      <trkpt lat="44.58323" lon="-0.30985">
        <ele>2.06</ele>
        <time>2014-06-16T07:38:38Z</time>
      </trkpt>
      <trkpt lat="44.58334" lon="-0.30977">
        <ele>2.06</ele>
        <time>2014-06-16T07:38:41Z</time>
      </trkpt>
      <trkpt lat="44.58355" lon="-0.30967">
        <ele>2.06</ele>
        <time>2014-06-16T07:38:46Z</time>
      </trkpt>
      <trkpt lat="44.58367" lon="-0.30959">
        <ele>2.54</ele>
        <time>2014-06-16T07:38:49Z</time>
      </trkpt>
      <trkpt lat="44.5838" lon="-0.30952">
        <ele>2.54</ele>
        <time>2014-06-16T07:38:52Z</time>
      </trkpt>
      <trkpt lat="44.58408" lon="-0.30935">
        <ele>3.5</ele>
        <time>2014-06-16T07:38:59Z</time>
      </trkpt>
      <trkpt lat="44.58446" lon="-0.30913">
        <ele>3.98</ele>
        <time>2014-06-16T07:39:08Z</time>
      </trkpt>
      <trkpt lat="44.5847" lon="-0.30895">
        <ele>3.98</ele>
        <time>2014-06-16T07:39:14Z</time>
      </trkpt>
      <trkpt lat="44.58503" lon="-0.3087">
        <ele>3.98</ele>
        <time>2014-06-16T07:39:22Z</time>
      </trkpt>
      <trkpt lat="44.58527" lon="-0.30849">
        <ele>3.98</ele>
        <time>2014-06-16T07:39:28Z</time>
      </trkpt>
      <trkpt lat="44.58553" lon="-0.30823">
        <ele>4.94</ele>
        <time>2014-06-16T07:39:35Z</time>
      </trkpt>
      <trkpt lat="44.58562" lon="-0.30809">
        <ele>4.94</ele>
        <time>2014-06-16T07:39:38Z</time>
      </trkpt>
      <trkpt lat="44.58567" lon="-0.30799">
        <ele>4.94</ele>
        <time>2014-06-16T07:39:40Z</time>
      </trkpt>
      <trkpt lat="44.58577" lon="-0.30777">
        <ele>4.94</ele>
        <time>2014-06-16T07:39:44Z</time>
      </trkpt>
      <trkpt lat="44.58585" lon="-0.3075">
        <ele>5.42</ele>
        <time>2014-06-16T07:39:49Z</time>
      </trkpt>
      <trkpt lat="44.58607" lon="-0.30738">
        <ele>4.94</ele>
        <time>2014-06-16T07:39:55Z</time>
      </trkpt>
      <trkpt lat="44.58641" lon="-0.30749">
        <ele>4.94</ele>
        <time>2014-06-16T07:40:03Z</time>
      </trkpt>
      <trkpt lat="44.58689" lon="-0.30749">
        <ele>7.35</ele>
        <time>2014-06-16T07:40:16Z</time>
      </trkpt>
      <trkpt lat="44.58745" lon="-0.30756">
        <ele>6.87</ele>
        <time>2014-06-16T07:40:29Z</time>
      </trkpt>
      <trkpt lat="44.58757" lon="-0.30755">
        <ele>6.39</ele>
        <time>2014-06-16T07:40:32Z</time>
      </trkpt>
      <trkpt lat="44.58812" lon="-0.30741">
        <ele>8.31</ele>
        <time>2014-06-16T07:40:47Z</time>
      </trkpt>
      <trkpt lat="44.58871" lon="-0.30728">
        <ele>9.75</ele>
        <time>2014-06-16T07:41:03Z</time>
      </trkpt>
      <trkpt lat="44.58924" lon="-0.30749">
        <ele>8.79</ele>
        <time>2014-06-16T07:41:17Z</time>
      </trkpt>
      <trkpt lat="44.58941" lon="-0.30755">
        <ele>8.79</ele>
        <time>2014-06-16T07:41:21Z</time>
      </trkpt>
      <trkpt lat="44.58965" lon="-0.30721">
        <ele>8.79</ele>
        <time>2014-06-16T07:41:31Z</time>
      </trkpt>
      <trkpt lat="44.58967" lon="-0.30712">
        <ele>9.27</ele>
        <time>2014-06-16T07:41:33Z</time>
      </trkpt>
      <trkpt lat="44.58995" lon="-0.30658">
        <ele>9.27</ele>
        <time>2014-06-16T07:41:47Z</time>
      </trkpt>
      <trkpt lat="44.59006" lon="-0.30652">
        <ele>9.75</ele>
        <time>2014-06-16T07:41:50Z</time>
      </trkpt>
      <trkpt lat="44.59037" lon="-0.30638">
        <ele>9.27</ele>
        <time>2014-06-16T07:41:58Z</time>
      </trkpt>
      <trkpt lat="44.59048" lon="-0.30632">
        <ele>9.27</ele>
        <time>2014-06-16T07:42:01Z</time>
      </trkpt>
      <trkpt lat="44.59109" lon="-0.30589">
        <ele>7.83</ele>
        <time>2014-06-16T07:42:17Z</time>
      </trkpt>
      <trkpt lat="44.59112" lon="-0.30586">
        <ele>7.83</ele>
        <time>2014-06-16T07:42:18Z</time>
      </trkpt>
      <trkpt lat="44.59143" lon="-0.30553">
        <ele>7.83</ele>
        <time>2014-06-16T07:42:27Z</time>
      </trkpt>
      <trkpt lat="44.5919" lon="-0.30498">
        <ele>7.83</ele>
        <time>2014-06-16T07:42:41Z</time>
      </trkpt>
      <trkpt lat="44.59193" lon="-0.30495">
        <ele>7.83</ele>
        <time>2014-06-16T07:42:42Z</time>
      </trkpt>
      <trkpt lat="44.59201" lon="-0.30489">
        <ele>7.83</ele>
        <time>2014-06-16T07:42:44Z</time>
      </trkpt>
      <trkpt lat="44.59204" lon="-0.30485">
        <ele>7.83</ele>
        <time>2014-06-16T07:42:45Z</time>
      </trkpt>
      <trkpt lat="44.59212" lon="-0.30478">
        <ele>7.35</ele>
        <time>2014-06-16T07:42:47Z</time>
      </trkpt>
      <trkpt lat="44.59222" lon="-0.30465">
        <ele>7.83</ele>
        <time>2014-06-16T07:42:50Z</time>
      </trkpt>
      <trkpt lat="44.59256" lon="-0.30419">
        <ele>8.79</ele>
        <time>2014-06-16T07:43:00Z</time>
      </trkpt>
      <trkpt lat="44.59282" lon="-0.30372">
        <ele>7.83</ele>
        <time>2014-06-16T07:43:09Z</time>
      </trkpt>
      <trkpt lat="44.59298" lon="-0.30345">
        <ele>7.83</ele>
        <time>2014-06-16T07:43:14Z</time>
      </trkpt>
      <trkpt lat="44.59337" lon="-0.30279">
        <ele>8.31</ele>
        <time>2014-06-16T07:43:29Z</time>
      </trkpt>
      <trkpt lat="44.59346" lon="-0.30273">
        <ele>8.79</ele>
        <time>2014-06-16T07:43:34Z</time>
      </trkpt>
      <trkpt lat="44.59407" lon="-0.30277">
        <ele>7.83</ele>
        <time>2014-06-16T07:43:49Z</time>
      </trkpt>
      <trkpt lat="44.59438" lon="-0.30279">
        <ele>7.35</ele>
        <time>2014-06-16T07:43:56Z</time>
      </trkpt>
      <trkpt lat="44.59486" lon="-0.30306">
        <ele>6.87</ele>
        <time>2014-06-16T07:44:07Z</time>
      </trkpt>
      <trkpt lat="44.59533" lon="-0.30339">
        <ele>5.91</ele>
        <time>2014-06-16T07:44:18Z</time>
      </trkpt>
      <trkpt lat="44.59555" lon="-0.30354">
        <ele>6.39</ele>
        <time>2014-06-16T07:44:24Z</time>
      </trkpt>
      <trkpt lat="44.59614" lon="-0.30395">
        <ele>6.87</ele>
        <time>2014-06-16T07:44:39Z</time>
      </trkpt>
      <trkpt lat="44.59646" lon="-0.30416">
        <ele>6.87</ele>
        <time>2014-06-16T07:44:47Z</time>
      </trkpt>
      <trkpt lat="44.59654" lon="-0.30421">
        <ele>7.35</ele>
        <time>2014-06-16T07:44:49Z</time>
      </trkpt>
      <trkpt lat="44.59666" lon="-0.30429">
        <ele>6.87</ele>
        <time>2014-06-16T07:44:52Z</time>
      </trkpt>
      <trkpt lat="44.59681" lon="-0.30439">
        <ele>6.39</ele>
        <time>2014-06-16T07:44:56Z</time>
      </trkpt>
      <trkpt lat="44.59729" lon="-0.30479">
        <ele>5.91</ele>
        <time>2014-06-16T07:45:08Z</time>
      </trkpt>
      <trkpt lat="44.5976" lon="-0.30463">
        <ele>4.94</ele>
        <time>2014-06-16T07:45:16Z</time>
      </trkpt>
      <trkpt lat="44.59774" lon="-0.30439">
        <ele>4.94</ele>
        <time>2014-06-16T07:45:21Z</time>
      </trkpt>
      <trkpt lat="44.59783" lon="-0.30418">
        <ele>4.94</ele>
        <time>2014-06-16T07:45:25Z</time>
      </trkpt>
      <trkpt lat="44.59795" lon="-0.30398">
        <ele>5.42</ele>
        <time>2014-06-16T07:45:29Z</time>
      </trkpt>
      <trkpt lat="44.598" lon="-0.30388">
        <ele>5.42</ele>
        <time>2014-06-16T07:45:31Z</time>
      </trkpt>
      <trkpt lat="44.59835" lon="-0.30321">
        <ele>6.39</ele>
        <time>2014-06-16T07:45:45Z</time>
      </trkpt>
      <trkpt lat="44.59837" lon="-0.30316">
        <ele>6.39</ele>
        <time>2014-06-16T07:45:46Z</time>
      </trkpt>
      <trkpt lat="44.59845" lon="-0.30302">
        <ele>6.39</ele>
        <time>2014-06-16T07:45:49Z</time>
      </trkpt>
      <trkpt lat="44.59892" lon="-0.30206">
        <ele>6.87</ele>
        <time>2014-06-16T07:46:08Z</time>
      </trkpt>
      <trkpt lat="44.59926" lon="-0.30131">
        <ele>6.87</ele>
        <time>2014-06-16T07:46:22Z</time>
      </trkpt>
      <trkpt lat="44.59943" lon="-0.30097">
        <ele>6.87</ele>
        <time>2014-06-16T07:46:29Z</time>
      </trkpt>
      <trkpt lat="44.59956" lon="-0.30071">
        <ele>6.87</ele>
        <time>2014-06-16T07:46:35Z</time>
      </trkpt>
      <trkpt lat="44.59971" lon="-0.3007">
        <ele>6.39</ele>
        <time>2014-06-16T07:46:39Z</time>
      </trkpt>
      <trkpt lat="44.59999" lon="-0.30095">
        <ele>5.91</ele>
        <time>2014-06-16T07:46:47Z</time>
      </trkpt>
      <trkpt lat="44.60007" lon="-0.30102">
        <ele>5.91</ele>
        <time>2014-06-16T07:46:49Z</time>
      </trkpt>
      <trkpt lat="44.60022" lon="-0.30115">
        <ele>5.91</ele>
        <time>2014-06-16T07:46:53Z</time>
      </trkpt>
      <trkpt lat="44.60037" lon="-0.30129">
        <ele>4.46</ele>
        <time>2014-06-16T07:46:57Z</time>
      </trkpt>
      <trkpt lat="44.60059" lon="-0.30153">
        <ele>1.58</ele>
        <time>2014-06-16T07:47:04Z</time>
      </trkpt>
      <trkpt lat="44.60069" lon="-0.30174">
        <ele>0.14</ele>
        <time>2014-06-16T07:47:10Z</time>
      </trkpt>
      <trkpt lat="44.60076" lon="-0.30182">
        <ele>-0.34</ele>
        <time>2014-06-16T07:47:14Z</time>
      </trkpt>
      <trkpt lat="44.60088" lon="-0.30207">
        <ele>0.14</ele>
        <time>2014-06-16T07:47:21Z</time>
      </trkpt>
      <trkpt lat="44.60111" lon="-0.30199">
        <ele>-0.34</ele>
        <time>2014-06-16T07:47:29Z</time>
      </trkpt>
      <trkpt lat="44.60149" lon="-0.30231">
        <ele>1.1</ele>
        <time>2014-06-16T07:47:41Z</time>
      </trkpt>
      <trkpt lat="44.60172" lon="-0.30255">
        <ele>2.06</ele>
        <time>2014-06-16T07:47:48Z</time>
      </trkpt>
      <trkpt lat="44.60212" lon="-0.303">
        <ele>1.1</ele>
        <time>2014-06-16T07:48:01Z</time>
      </trkpt>
      <trkpt lat="44.60218" lon="-0.30307">
        <ele>0.62</ele>
        <time>2014-06-16T07:48:03Z</time>
      </trkpt>
      <trkpt lat="44.60238" lon="-0.30327">
        <ele>0.14</ele>
        <time>2014-06-16T07:48:09Z</time>
      </trkpt>
      <trkpt lat="44.60238" lon="-0.30359">
        <ele>3.98</ele>
        <time>2014-06-16T07:48:16Z</time>
      </trkpt>
      <trkpt lat="44.60241" lon="-0.30419">
        <ele>6.87</ele>
        <time>2014-06-16T07:48:29Z</time>
      </trkpt>
      <trkpt lat="44.60221" lon="-0.30486">
        <ele>5.42</ele>
        <time>2014-06-16T07:48:41Z</time>
      </trkpt>
      <trkpt lat="44.60219" lon="-0.30493">
        <ele>5.42</ele>
        <time>2014-06-16T07:48:42Z</time>
      </trkpt>
      <trkpt lat="44.60198" lon="-0.30565">
        <ele>5.42</ele>
        <time>2014-06-16T07:48:56Z</time>
      </trkpt>
      <trkpt lat="44.60195" lon="-0.30577">
        <ele>5.42</ele>
        <time>2014-06-16T07:49:00Z</time>
      </trkpt>
      <trkpt lat="44.60191" lon="-0.30574">
        <ele>5.42</ele>
        <time>2014-06-16T07:49:04Z</time>
      </trkpt>
      <trkpt lat="44.60205" lon="-0.30532">
        <ele>6.39</ele>
        <time>2014-06-16T07:49:15Z</time>
      </trkpt>
      <trkpt lat="44.60206" lon="-0.30526">
        <ele>6.39</ele>
        <time>2014-06-16T07:49:16Z</time>
      </trkpt>
      <trkpt lat="44.60209" lon="-0.30515">
        <ele>6.39</ele>
        <time>2014-06-16T07:49:18Z</time>
      </trkpt>
      <trkpt lat="44.60238" lon="-0.30433">
        <ele>6.87</ele>
        <time>2014-06-16T07:49:34Z</time>
      </trkpt>
      <trkpt lat="44.60254" lon="-0.30387">
        <ele>6.87</ele>
        <time>2014-06-16T07:49:46Z</time>
      </trkpt>
      <trkpt lat="44.60261" lon="-0.30357">
        <ele>4.94</ele>
        <time>2014-06-16T07:49:52Z</time>
      </trkpt>
      <trkpt lat="44.60273" lon="-0.30354">
        <ele>4.46</ele>
        <time>2014-06-16T07:49:56Z</time>
      </trkpt>
      <trkpt lat="44.60294" lon="-0.30372">
        <ele>3.98</ele>
        <time>2014-06-16T07:50:03Z</time>
      </trkpt>
      <trkpt lat="44.60339" lon="-0.30397">
        <ele>3.02</ele>
        <time>2014-06-16T07:50:16Z</time>
      </trkpt>
      <trkpt lat="44.60368" lon="-0.30419">
        <ele>3.98</ele>
        <time>2014-06-16T07:50:27Z</time>
      </trkpt>
      <trkpt lat="44.60408" lon="-0.30445">
        <ele>3.02</ele>
        <time>2014-06-16T07:50:39Z</time>
      </trkpt>
      <trkpt lat="44.60423" lon="-0.30465">
        <ele>4.46</ele>
        <time>2014-06-16T07:50:46Z</time>
      </trkpt>
      <trkpt lat="44.60468" lon="-0.30476">
        <ele>5.91</ele>
        <time>2014-06-16T07:50:59Z</time>
      </trkpt>
      <trkpt lat="44.60519" lon="-0.30488">
        <ele>5.42</ele>
        <time>2014-06-16T07:51:12Z</time>
      </trkpt>
      <trkpt lat="44.60563" lon="-0.305">
        <ele>6.39</ele>
        <time>2014-06-16T07:51:25Z</time>
      </trkpt>
      <trkpt lat="44.60617" lon="-0.3051">
        <ele>6.87</ele>
        <time>2014-06-16T07:51:40Z</time>
      </trkpt>
      <trkpt lat="44.60667" lon="-0.30522">
        <ele>8.31</ele>
        <time>2014-06-16T07:51:54Z</time>
      </trkpt>
      <trkpt lat="44.60702" lon="-0.30526">
        <ele>8.79</ele>
        <time>2014-06-16T07:52:04Z</time>
      </trkpt>
      <trkpt lat="44.60744" lon="-0.30527">
        <ele>8.31</ele>
        <time>2014-06-16T07:52:18Z</time>
      </trkpt>
      <trkpt lat="44.60792" lon="-0.30531">
        <ele>9.75</ele>
        <time>2014-06-16T07:52:32Z</time>
      </trkpt>
      <trkpt lat="44.60828" lon="-0.30532">
        <ele>12.15</ele>
        <time>2014-06-16T07:52:44Z</time>
      </trkpt>
      <trkpt lat="44.60874" lon="-0.30524">
        <ele>14.56</ele>
        <time>2014-06-16T07:52:56Z</time>
      </trkpt>
      <trkpt lat="44.60911" lon="-0.30511">
        <ele>16</ele>
        <time>2014-06-16T07:53:08Z</time>
      </trkpt>
      <trkpt lat="44.60951" lon="-0.30491">
        <ele>15.52</ele>
        <time>2014-06-16T07:53:21Z</time>
      </trkpt>
      <trkpt lat="44.61001" lon="-0.30469">
        <ele>11.67</ele>
        <time>2014-06-16T07:53:36Z</time>
      </trkpt>
      <trkpt lat="44.61044" lon="-0.30455">
        <ele>10.71</ele>
        <time>2014-06-16T07:53:48Z</time>
      </trkpt>
      <trkpt lat="44.61087" lon="-0.30438">
        <ele>9.75</ele>
        <time>2014-06-16T07:54:01Z</time>
      </trkpt>
      <trkpt lat="44.61094" lon="-0.30434">
        <ele>9.75</ele>
        <time>2014-06-16T07:54:04Z</time>
      </trkpt>
      <trkpt lat="44.61097" lon="-0.30445">
        <ele>9.75</ele>
        <time>2014-06-16T07:54:10Z</time>
      </trkpt>
      <trkpt lat="44.61091" lon="-0.30449">
        <ele>9.75</ele>
        <time>2014-06-16T07:54:13Z</time>
      </trkpt>
      <trkpt lat="44.61082" lon="-0.30488">
        <ele>6.87</ele>
        <time>2014-06-16T07:54:21Z</time>
      </trkpt>
      <trkpt lat="44.61073" lon="-0.30518">
        <ele>6.87</ele>
        <time>2014-06-16T07:54:26Z</time>
      </trkpt>
      <trkpt lat="44.6107" lon="-0.30536">
        <ele>6.39</ele>
        <time>2014-06-16T07:54:29Z</time>
      </trkpt>
      <trkpt lat="44.61063" lon="-0.3056">
        <ele>6.39</ele>
        <time>2014-06-16T07:54:33Z</time>
      </trkpt>
      <trkpt lat="44.61053" lon="-0.30607">
        <ele>6.39</ele>
        <time>2014-06-16T07:54:41Z</time>
      </trkpt>
      <trkpt lat="44.61043" lon="-0.30649">
        <ele>6.39</ele>
        <time>2014-06-16T07:54:48Z</time>
      </trkpt>
      <trkpt lat="44.6103" lon="-0.30706">
        <ele>5.91</ele>
        <time>2014-06-16T07:54:57Z</time>
      </trkpt>
      <trkpt lat="44.61006" lon="-0.30822">
        <ele>6.87</ele>
        <time>2014-06-16T07:55:15Z</time>
      </trkpt>
      <trkpt lat="44.61001" lon="-0.30842">
        <ele>6.39</ele>
        <time>2014-06-16T07:55:18Z</time>
      </trkpt>
      <trkpt lat="44.60987" lon="-0.30863">
        <ele>6.39</ele>
        <time>2014-06-16T07:55:22Z</time>
      </trkpt>
      <trkpt lat="44.60974" lon="-0.30872">
        <ele>6.39</ele>
        <time>2014-06-16T07:55:25Z</time>
      </trkpt>
      <trkpt lat="44.60956" lon="-0.30878">
        <ele>5.42</ele>
        <time>2014-06-16T07:55:29Z</time>
      </trkpt>
      <trkpt lat="44.60908" lon="-0.30889">
        <ele>4.94</ele>
        <time>2014-06-16T07:55:39Z</time>
      </trkpt>
      <trkpt lat="44.60884" lon="-0.30912">
        <ele>4.94</ele>
        <time>2014-06-16T07:55:45Z</time>
      </trkpt>
      <trkpt lat="44.60872" lon="-0.3095">
        <ele>5.42</ele>
        <time>2014-06-16T07:55:51Z</time>
      </trkpt>
      <trkpt lat="44.60857" lon="-0.3099">
        <ele>4.94</ele>
        <time>2014-06-16T07:55:58Z</time>
      </trkpt>
      <trkpt lat="44.60846" lon="-0.31013">
        <ele>3.98</ele>
        <time>2014-06-16T07:56:02Z</time>
      </trkpt>
      <trkpt lat="44.60836" lon="-0.31029">
        <ele>3.5</ele>
        <time>2014-06-16T07:56:05Z</time>
      </trkpt>
      <trkpt lat="44.60817" lon="-0.31061">
        <ele>2.54</ele>
        <time>2014-06-16T07:56:11Z</time>
      </trkpt>
      <trkpt lat="44.60807" lon="-0.31084">
        <ele>2.06</ele>
        <time>2014-06-16T07:56:15Z</time>
      </trkpt>
      <trkpt lat="44.60798" lon="-0.31135">
        <ele>2.06</ele>
        <time>2014-06-16T07:56:23Z</time>
      </trkpt>
      <trkpt lat="44.60789" lon="-0.31206">
        <ele>4.46</ele>
        <time>2014-06-16T07:56:37Z</time>
      </trkpt>
      <trkpt lat="44.60784" lon="-0.31226">
        <ele>5.42</ele>
        <time>2014-06-16T07:56:49Z</time>
      </trkpt>
      <trkpt lat="44.60776" lon="-0.31245">
        <ele>6.87</ele>
        <time>2014-06-16T07:57:04Z</time>
      </trkpt>
      <trkpt lat="44.60749" lon="-0.31299">
        <ele>6.39</ele>
        <time>2014-06-16T07:57:16Z</time>
      </trkpt>
      <trkpt lat="44.60719" lon="-0.3135">
        <ele>6.87</ele>
        <time>2014-06-16T07:57:27Z</time>
      </trkpt>
      <trkpt lat="44.60711" lon="-0.31377">
        <ele>7.35</ele>
        <time>2014-06-16T07:57:32Z</time>
      </trkpt>
      <trkpt lat="44.6069" lon="-0.31448">
        <ele>6.87</ele>
        <time>2014-06-16T07:57:46Z</time>
      </trkpt>
      <trkpt lat="44.60683" lon="-0.31474">
        <ele>7.35</ele>
        <time>2014-06-16T07:57:51Z</time>
      </trkpt>
      <trkpt lat="44.60671" lon="-0.31517">
        <ele>7.35</ele>
        <time>2014-06-16T07:57:59Z</time>
      </trkpt>
      <trkpt lat="44.6065" lon="-0.31598">
        <ele>7.35</ele>
        <time>2014-06-16T07:58:15Z</time>
      </trkpt>
      <trkpt lat="44.60628" lon="-0.31646">
        <ele>7.35</ele>
        <time>2014-06-16T07:58:26Z</time>
      </trkpt>
      <trkpt lat="44.60609" lon="-0.31689">
        <ele>7.83</ele>
        <time>2014-06-16T07:58:35Z</time>
      </trkpt>
      <trkpt lat="44.60604" lon="-0.31699">
        <ele>7.83</ele>
        <time>2014-06-16T07:58:37Z</time>
      </trkpt>
      <trkpt lat="44.6057" lon="-0.31771">
        <ele>8.31</ele>
        <time>2014-06-16T07:58:52Z</time>
      </trkpt>
      <trkpt lat="44.6055" lon="-0.31817">
        <ele>8.79</ele>
        <time>2014-06-16T07:59:01Z</time>
      </trkpt>
      <trkpt lat="44.60535" lon="-0.31862">
        <ele>8.79</ele>
        <time>2014-06-16T07:59:09Z</time>
      </trkpt>
      <trkpt lat="44.60546" lon="-0.31904">
        <ele>9.27</ele>
        <time>2014-06-16T07:59:17Z</time>
      </trkpt>
      <trkpt lat="44.60574" lon="-0.31912">
        <ele>8.79</ele>
        <time>2014-06-16T07:59:25Z</time>
      </trkpt>
      <trkpt lat="44.6057" lon="-0.31927">
        <ele>7.83</ele>
        <time>2014-06-16T07:59:32Z</time>
      </trkpt>
      <trkpt lat="44.6057" lon="-0.31933">
        <ele>7.83</ele>
        <time>2014-06-16T07:59:34Z</time>
      </trkpt>
      <trkpt lat="44.60565" lon="-0.31943">
        <ele>8.31</ele>
        <time>2014-06-16T07:59:43Z</time>
      </trkpt>
      <trkpt lat="44.60565" lon="-0.31943">
        <ele>9.27</ele>
        <time>2014-06-16T08:00:06Z</time>
      </trkpt>
      <trkpt lat="44.60566" lon="-0.31944">
        <ele>9.27</ele>
        <time>2014-06-16T08:00:37Z</time>
      </trkpt>
      <trkpt lat="44.60565" lon="-0.31945">
        <ele>8.31</ele>
        <time>2014-06-16T08:01:01Z</time>
      </trkpt>
      <trkpt lat="44.60565" lon="-0.31945">
        <ele>7.83</ele>
        <time>2014-06-16T08:01:02Z</time>
      </trkpt>
      <trkpt lat="44.60787" lon="-0.31348">
        <ele>0.62</ele>
        <time>2014-06-25T05:28:34Z</time>
      </trkpt>
      <trkpt lat="44.60773" lon="-0.31347">
        <ele>22.73</ele>
        <time>2014-06-25T05:28:52Z</time>
      </trkpt>
      <trkpt lat="44.60777" lon="-0.31348">
        <ele>13.6</ele>
        <time>2014-06-25T05:29:14Z</time>
      </trkpt>
      <trkpt lat="44.60778" lon="-0.31343">
        <ele>8.31</ele>
        <time>2014-06-25T05:29:47Z</time>
      </trkpt>
      <trkpt lat="44.60779" lon="-0.31341">
        <ele>8.31</ele>
        <time>2014-06-25T05:30:09Z</time>
      </trkpt>
      <trkpt lat="44.60779" lon="-0.31341">
        <ele>8.31</ele>
        <time>2014-06-25T05:30:11Z</time>
      </trkpt>
      <trkpt lat="44.60778" lon="-0.31344">
        <ele>8.31</ele>
        <time>2014-06-25T05:30:39Z</time>
      </trkpt>
      <trkpt lat="44.60778" lon="-0.31344">
        <ele>8.31</ele>
        <time>2014-06-25T05:31:07Z</time>
      </trkpt>
      <trkpt lat="44.60778" lon="-0.31344">
        <ele>8.31</ele>
        <time>2014-06-25T05:31:13Z</time>
      </trkpt>
      <trkpt lat="44.60777" lon="-0.31344">
        <ele>8.31</ele>
        <time>2014-06-25T05:31:29Z</time>
      </trkpt>
      <trkpt lat="44.60776" lon="-0.31342">
        <ele>8.31</ele>
        <time>2014-06-25T05:31:32Z</time>
      </trkpt>
      <trkpt lat="44.60773" lon="-0.31341">
        <ele>8.31</ele>
        <time>2014-06-25T05:31:34Z</time>
      </trkpt>
      <trkpt lat="44.60778" lon="-0.31342">
        <ele>8.79</ele>
        <time>2014-06-25T05:31:42Z</time>
      </trkpt>
      <trkpt lat="44.60778" lon="-0.31344">
        <ele>9.27</ele>
        <time>2014-06-25T05:31:54Z</time>
      </trkpt>
      <trkpt lat="44.60779" lon="-0.31345">
        <ele>9.75</ele>
        <time>2014-06-25T05:32:26Z</time>
      </trkpt>
      <trkpt lat="44.60779" lon="-0.31344">
        <ele>8.79</ele>
        <time>2014-06-25T05:32:55Z</time>
      </trkpt>
      <trkpt lat="44.60778" lon="-0.31341">
        <ele>9.27</ele>
        <time>2014-06-25T05:33:04Z</time>
      </trkpt>
      <trkpt lat="44.60773" lon="-0.31336">
        <ele>9.27</ele>
        <time>2014-06-25T05:33:08Z</time>
      </trkpt>
      <trkpt lat="44.60743" lon="-0.31315">
        <ele>8.31</ele>
        <time>2014-06-25T05:33:21Z</time>
      </trkpt>
      <trkpt lat="44.60719" lon="-0.31359">
        <ele>8.31</ele>
        <time>2014-06-25T05:33:33Z</time>
      </trkpt>
      <trkpt lat="44.60698" lon="-0.31426">
        <ele>11.19</ele>
        <time>2014-06-25T05:33:48Z</time>
      </trkpt>
      <trkpt lat="44.60683" lon="-0.31479">
        <ele>12.15</ele>
        <time>2014-06-25T05:34:00Z</time>
      </trkpt>
      <trkpt lat="44.60663" lon="-0.3155">
        <ele>12.15</ele>
        <time>2014-06-25T05:34:14Z</time>
      </trkpt>
      <trkpt lat="44.60643" lon="-0.31619">
        <ele>10.71</ele>
        <time>2014-06-25T05:34:29Z</time>
      </trkpt>
      <trkpt lat="44.60605" lon="-0.317">
        <ele>11.19</ele>
        <time>2014-06-25T05:34:47Z</time>
      </trkpt>
      <trkpt lat="44.60574" lon="-0.31768">
        <ele>11.67</ele>
        <time>2014-06-25T05:35:02Z</time>
      </trkpt>
      <trkpt lat="44.60547" lon="-0.31831">
        <ele>11.19</ele>
        <time>2014-06-25T05:35:15Z</time>
      </trkpt>
      <trkpt lat="44.60542" lon="-0.31841">
        <ele>11.19</ele>
        <time>2014-06-25T05:35:17Z</time>
      </trkpt>
      <trkpt lat="44.60531" lon="-0.3189">
        <ele>11.19</ele>
        <time>2014-06-25T05:35:26Z</time>
      </trkpt>
      <trkpt lat="44.60522" lon="-0.31908">
        <ele>11.19</ele>
        <time>2014-06-25T05:35:30Z</time>
      </trkpt>
      <trkpt lat="44.60508" lon="-0.31923">
        <ele>11.67</ele>
        <time>2014-06-25T05:35:34Z</time>
      </trkpt>
      <trkpt lat="44.6048" lon="-0.31937">
        <ele>12.15</ele>
        <time>2014-06-25T05:35:41Z</time>
      </trkpt>
      <trkpt lat="44.60419" lon="-0.31949">
        <ele>11.67</ele>
        <time>2014-06-25T05:35:56Z</time>
      </trkpt>
      <trkpt lat="44.60411" lon="-0.31948">
        <ele>11.19</ele>
        <time>2014-06-25T05:35:58Z</time>
      </trkpt>
      <trkpt lat="44.60394" lon="-0.31943">
        <ele>11.67</ele>
        <time>2014-06-25T05:36:02Z</time>
      </trkpt>
      <trkpt lat="44.60379" lon="-0.31934">
        <ele>12.15</ele>
        <time>2014-06-25T05:36:06Z</time>
      </trkpt>
      <trkpt lat="44.60335" lon="-0.31898">
        <ele>11.67</ele>
        <time>2014-06-25T05:36:18Z</time>
      </trkpt>
      <trkpt lat="44.60323" lon="-0.31893">
        <ele>11.67</ele>
        <time>2014-06-25T05:36:21Z</time>
      </trkpt>
      <trkpt lat="44.60281" lon="-0.31884">
        <ele>11.19</ele>
        <time>2014-06-25T05:36:31Z</time>
      </trkpt>
      <trkpt lat="44.60265" lon="-0.31877">
        <ele>10.71</ele>
        <time>2014-06-25T05:36:35Z</time>
      </trkpt>
      <trkpt lat="44.6025" lon="-0.31869">
        <ele>10.71</ele>
        <time>2014-06-25T05:36:39Z</time>
      </trkpt>
      <trkpt lat="44.60215" lon="-0.31848">
        <ele>10.23</ele>
        <time>2014-06-25T05:36:48Z</time>
      </trkpt>
      <trkpt lat="44.60186" lon="-0.31828">
        <ele>10.71</ele>
        <time>2014-06-25T05:36:57Z</time>
      </trkpt>
      <trkpt lat="44.60175" lon="-0.31818">
        <ele>12.15</ele>
        <time>2014-06-25T05:37:02Z</time>
      </trkpt>
      <trkpt lat="44.60148" lon="-0.318">
        <ele>11.67</ele>
        <time>2014-06-25T05:37:10Z</time>
      </trkpt>
      <trkpt lat="44.60094" lon="-0.31771">
        <ele>9.27</ele>
        <time>2014-06-25T05:37:24Z</time>
      </trkpt>
      <trkpt lat="44.60077" lon="-0.31764">
        <ele>9.27</ele>
        <time>2014-06-25T05:37:28Z</time>
      </trkpt>
      <trkpt lat="44.60069" lon="-0.31759">
        <ele>9.27</ele>
        <time>2014-06-25T05:37:30Z</time>
      </trkpt>
      <trkpt lat="44.60048" lon="-0.31729">
        <ele>10.71</ele>
        <time>2014-06-25T05:37:37Z</time>
      </trkpt>
      <trkpt lat="44.59999" lon="-0.31659">
        <ele>10.23</ele>
        <time>2014-06-25T05:37:53Z</time>
      </trkpt>
      <trkpt lat="44.59987" lon="-0.31641">
        <ele>10.71</ele>
        <time>2014-06-25T05:37:57Z</time>
      </trkpt>
      <trkpt lat="44.59948" lon="-0.3155">
        <ele>9.75</ele>
        <time>2014-06-25T05:38:14Z</time>
      </trkpt>
      <trkpt lat="44.59913" lon="-0.31507">
        <ele>10.23</ele>
        <time>2014-06-25T05:38:24Z</time>
      </trkpt>
      <trkpt lat="44.59898" lon="-0.31491">
        <ele>10.23</ele>
        <time>2014-06-25T05:38:28Z</time>
      </trkpt>
      <trkpt lat="44.59891" lon="-0.31483">
        <ele>10.23</ele>
        <time>2014-06-25T05:38:30Z</time>
      </trkpt>
      <trkpt lat="44.5985" lon="-0.31438">
        <ele>9.75</ele>
        <time>2014-06-25T05:38:43Z</time>
      </trkpt>
      <trkpt lat="44.59821" lon="-0.31464">
        <ele>9.75</ele>
        <time>2014-06-25T05:38:53Z</time>
      </trkpt>
      <trkpt lat="44.59781" lon="-0.315">
        <ele>8.79</ele>
        <time>2014-06-25T05:39:03Z</time>
      </trkpt>
      <trkpt lat="44.5975" lon="-0.31533">
        <ele>7.35</ele>
        <time>2014-06-25T05:39:11Z</time>
      </trkpt>
      <trkpt lat="44.59732" lon="-0.31566">
        <ele>7.83</ele>
        <time>2014-06-25T05:39:17Z</time>
      </trkpt>
      <trkpt lat="44.59721" lon="-0.31596">
        <ele>8.31</ele>
        <time>2014-06-25T05:39:22Z</time>
      </trkpt>
      <trkpt lat="44.59706" lon="-0.31602">
        <ele>8.79</ele>
        <time>2014-06-25T05:39:28Z</time>
      </trkpt>
      <trkpt lat="44.59694" lon="-0.31582">
        <ele>8.31</ele>
        <time>2014-06-25T05:39:34Z</time>
      </trkpt>
      <trkpt lat="44.59684" lon="-0.31571">
        <ele>7.83</ele>
        <time>2014-06-25T05:39:37Z</time>
      </trkpt>
      <trkpt lat="44.59664" lon="-0.31555">
        <ele>7.83</ele>
        <time>2014-06-25T05:39:42Z</time>
      </trkpt>
      <trkpt lat="44.59616" lon="-0.31539">
        <ele>6.39</ele>
        <time>2014-06-25T05:39:55Z</time>
      </trkpt>
      <trkpt lat="44.59581" lon="-0.31552">
        <ele>5.42</ele>
        <time>2014-06-25T05:40:06Z</time>
      </trkpt>
      <trkpt lat="44.59533" lon="-0.31572">
        <ele>6.39</ele>
        <time>2014-06-25T05:40:21Z</time>
      </trkpt>
      <trkpt lat="44.59494" lon="-0.31588">
        <ele>7.35</ele>
        <time>2014-06-25T05:40:34Z</time>
      </trkpt>
      <trkpt lat="44.59486" lon="-0.31597">
        <ele>7.35</ele>
        <time>2014-06-25T05:40:44Z</time>
      </trkpt>
      <trkpt lat="44.59483" lon="-0.31597">
        <ele>7.83</ele>
        <time>2014-06-25T05:40:52Z</time>
      </trkpt>
      <trkpt lat="44.59466" lon="-0.31591">
        <ele>7.83</ele>
        <time>2014-06-25T05:41:02Z</time>
      </trkpt>
      <trkpt lat="44.59416" lon="-0.31578">
        <ele>8.79</ele>
        <time>2014-06-25T05:41:17Z</time>
      </trkpt>
      <trkpt lat="44.59369" lon="-0.31574">
        <ele>9.27</ele>
        <time>2014-06-25T05:41:30Z</time>
      </trkpt>
      <trkpt lat="44.59317" lon="-0.31576">
        <ele>7.83</ele>
        <time>2014-06-25T05:41:44Z</time>
      </trkpt>
      <trkpt lat="44.59266" lon="-0.31579">
        <ele>8.31</ele>
        <time>2014-06-25T05:41:58Z</time>
      </trkpt>
      <trkpt lat="44.59209" lon="-0.3159">
        <ele>8.31</ele>
        <time>2014-06-25T05:42:13Z</time>
      </trkpt>
      <trkpt lat="44.59172" lon="-0.31605">
        <ele>9.27</ele>
        <time>2014-06-25T05:42:24Z</time>
      </trkpt>
      <trkpt lat="44.59177" lon="-0.31635">
        <ele>8.31</ele>
        <time>2014-06-25T05:42:32Z</time>
      </trkpt>
      <trkpt lat="44.59182" lon="-0.31653">
        <ele>8.79</ele>
        <time>2014-06-25T05:42:36Z</time>
      </trkpt>
      <trkpt lat="44.5918" lon="-0.31662">
        <ele>9.27</ele>
        <time>2014-06-25T05:42:39Z</time>
      </trkpt>
      <trkpt lat="44.59182" lon="-0.31685">
        <ele>10.23</ele>
        <time>2014-06-25T05:42:45Z</time>
      </trkpt>
      <trkpt lat="44.59196" lon="-0.31761">
        <ele>11.19</ele>
        <time>2014-06-25T05:43:01Z</time>
      </trkpt>
      <trkpt lat="44.59198" lon="-0.31766">
        <ele>11.19</ele>
        <time>2014-06-25T05:43:02Z</time>
      </trkpt>
      <trkpt lat="44.59205" lon="-0.31782">
        <ele>11.67</ele>
        <time>2014-06-25T05:43:06Z</time>
      </trkpt>
      <trkpt lat="44.59221" lon="-0.31823">
        <ele>12.63</ele>
        <time>2014-06-25T05:43:16Z</time>
      </trkpt>
      <trkpt lat="44.59214" lon="-0.31833">
        <ele>12.63</ele>
        <time>2014-06-25T05:43:20Z</time>
      </trkpt>
      <trkpt lat="44.59173" lon="-0.31852">
        <ele>12.15</ele>
        <time>2014-06-25T05:43:34Z</time>
      </trkpt>
      <trkpt lat="44.5916" lon="-0.31863">
        <ele>12.15</ele>
        <time>2014-06-25T05:43:39Z</time>
      </trkpt>
      <trkpt lat="44.59157" lon="-0.3187">
        <ele>11.67</ele>
        <time>2014-06-25T05:43:51Z</time>
      </trkpt>
      <trkpt lat="44.59156" lon="-0.31876">
        <ele>12.15</ele>
        <time>2014-06-25T05:43:59Z</time>
      </trkpt>
      <trkpt lat="44.59131" lon="-0.31893">
        <ele>12.15</ele>
        <time>2014-06-25T05:44:08Z</time>
      </trkpt>
      <trkpt lat="44.59116" lon="-0.31905">
        <ele>11.19</ele>
        <time>2014-06-25T05:44:12Z</time>
      </trkpt>
      <trkpt lat="44.59087" lon="-0.31931">
        <ele>10.71</ele>
        <time>2014-06-25T05:44:20Z</time>
      </trkpt>
      <trkpt lat="44.59022" lon="-0.31965">
        <ele>10.23</ele>
        <time>2014-06-25T05:44:35Z</time>
      </trkpt>
      <trkpt lat="44.58944" lon="-0.32">
        <ele>11.67</ele>
        <time>2014-06-25T05:44:53Z</time>
      </trkpt>
      <trkpt lat="44.58869" lon="-0.32064">
        <ele>12.15</ele>
        <time>2014-06-25T05:45:12Z</time>
      </trkpt>
      <trkpt lat="44.58809" lon="-0.32109">
        <ele>13.12</ele>
        <time>2014-06-25T05:45:27Z</time>
      </trkpt>
      <trkpt lat="44.58805" lon="-0.32111">
        <ele>13.12</ele>
        <time>2014-06-25T05:45:28Z</time>
      </trkpt>
      <trkpt lat="44.58763" lon="-0.32133">
        <ele>13.6</ele>
        <time>2014-06-25T05:45:38Z</time>
      </trkpt>
      <trkpt lat="44.58687" lon="-0.32168">
        <ele>14.56</ele>
        <time>2014-06-25T05:45:55Z</time>
      </trkpt>
      <trkpt lat="44.58634" lon="-0.32183">
        <ele>13.6</ele>
        <time>2014-06-25T05:46:07Z</time>
      </trkpt>
      <trkpt lat="44.58569" lon="-0.32224">
        <ele>13.6</ele>
        <time>2014-06-25T05:46:23Z</time>
      </trkpt>
      <trkpt lat="44.58553" lon="-0.32213">
        <ele>12.63</ele>
        <time>2014-06-25T05:46:29Z</time>
      </trkpt>
      <trkpt lat="44.58531" lon="-0.32171">
        <ele>11.67</ele>
        <time>2014-06-25T05:46:42Z</time>
      </trkpt>
      <trkpt lat="44.58509" lon="-0.32129">
        <ele>11.67</ele>
        <time>2014-06-25T05:46:54Z</time>
      </trkpt>
      <trkpt lat="44.58485" lon="-0.32082">
        <ele>12.63</ele>
        <time>2014-06-25T05:47:05Z</time>
      </trkpt>
      <trkpt lat="44.58465" lon="-0.32044">
        <ele>12.15</ele>
        <time>2014-06-25T05:47:13Z</time>
      </trkpt>
      <trkpt lat="44.58447" lon="-0.3201">
        <ele>12.15</ele>
        <time>2014-06-25T05:47:20Z</time>
      </trkpt>
      <trkpt lat="44.58427" lon="-0.32003">
        <ele>11.67</ele>
        <time>2014-06-25T05:47:25Z</time>
      </trkpt>
      <trkpt lat="44.58419" lon="-0.32009">
        <ele>11.19</ele>
        <time>2014-06-25T05:47:27Z</time>
      </trkpt>
      <trkpt lat="44.58407" lon="-0.32019">
        <ele>10.23</ele>
        <time>2014-06-25T05:47:30Z</time>
      </trkpt>
      <trkpt lat="44.58333" lon="-0.32063">
        <ele>10.71</ele>
        <time>2014-06-25T05:47:47Z</time>
      </trkpt>
      <trkpt lat="44.58329" lon="-0.32065">
        <ele>10.23</ele>
        <time>2014-06-25T05:47:48Z</time>
      </trkpt>
      <trkpt lat="44.58285" lon="-0.32105">
        <ele>12.15</ele>
        <time>2014-06-25T05:48:01Z</time>
      </trkpt>
      <trkpt lat="44.58261" lon="-0.32128">
        <ele>12.15</ele>
        <time>2014-06-25T05:48:09Z</time>
      </trkpt>
      <trkpt lat="44.5825" lon="-0.32122">
        <ele>12.15</ele>
        <time>2014-06-25T05:48:13Z</time>
      </trkpt>
      <trkpt lat="44.58222" lon="-0.32047">
        <ele>11.19</ele>
        <time>2014-06-25T05:48:29Z</time>
      </trkpt>
      <trkpt lat="44.58221" lon="-0.32042">
        <ele>11.19</ele>
        <time>2014-06-25T05:48:30Z</time>
      </trkpt>
      <trkpt lat="44.58243" lon="-0.32023">
        <ele>10.71</ele>
        <time>2014-06-25T05:48:40Z</time>
      </trkpt>
      <trkpt lat="44.58246" lon="-0.32021">
        <ele>10.71</ele>
        <time>2014-06-25T05:48:41Z</time>
      </trkpt>
      <trkpt lat="44.58246" lon="-0.32005">
        <ele>10.23</ele>
        <time>2014-06-25T05:48:45Z</time>
      </trkpt>
      <trkpt lat="44.58223" lon="-0.31929">
        <ele>8.31</ele>
        <time>2014-06-25T05:49:00Z</time>
      </trkpt>
      <trkpt lat="44.58211" lon="-0.31923">
        <ele>9.27</ele>
        <time>2014-06-25T05:49:04Z</time>
      </trkpt>
      <trkpt lat="44.58154" lon="-0.31929">
        <ele>9.27</ele>
        <time>2014-06-25T05:49:20Z</time>
      </trkpt>
      <trkpt lat="44.58099" lon="-0.31932">
        <ele>10.23</ele>
        <time>2014-06-25T05:49:35Z</time>
      </trkpt>
      <trkpt lat="44.58045" lon="-0.31937">
        <ele>9.75</ele>
        <time>2014-06-25T05:49:49Z</time>
      </trkpt>
      <trkpt lat="44.58005" lon="-0.31946">
        <ele>10.71</ele>
        <time>2014-06-25T05:50:00Z</time>
      </trkpt>
      <trkpt lat="44.57968" lon="-0.31961">
        <ele>11.19</ele>
        <time>2014-06-25T05:50:10Z</time>
      </trkpt>
      <trkpt lat="44.57919" lon="-0.31993">
        <ele>10.71</ele>
        <time>2014-06-25T05:50:24Z</time>
      </trkpt>
      <trkpt lat="44.57882" lon="-0.32038">
        <ele>12.15</ele>
        <time>2014-06-25T05:50:37Z</time>
      </trkpt>
      <trkpt lat="44.57844" lon="-0.32082">
        <ele>12.63</ele>
        <time>2014-06-25T05:50:50Z</time>
      </trkpt>
      <trkpt lat="44.57819" lon="-0.32112">
        <ele>13.12</ele>
        <time>2014-06-25T05:51:00Z</time>
      </trkpt>
      <trkpt lat="44.57833" lon="-0.32163">
        <ele>14.56</ele>
        <time>2014-06-25T05:51:12Z</time>
      </trkpt>
      <trkpt lat="44.57839" lon="-0.3218">
        <ele>14.56</ele>
        <time>2014-06-25T05:51:16Z</time>
      </trkpt>
      <trkpt lat="44.57817" lon="-0.32215">
        <ele>15.52</ele>
        <time>2014-06-25T05:51:26Z</time>
      </trkpt>
      <trkpt lat="44.57773" lon="-0.32262">
        <ele>16</ele>
        <time>2014-06-25T05:51:41Z</time>
      </trkpt>
      <trkpt lat="44.57742" lon="-0.32293">
        <ele>16</ele>
        <time>2014-06-25T05:51:51Z</time>
      </trkpt>
      <trkpt lat="44.57707" lon="-0.32331">
        <ele>16</ele>
        <time>2014-06-25T05:52:03Z</time>
      </trkpt>
      <trkpt lat="44.57696" lon="-0.32317">
        <ele>16</ele>
        <time>2014-06-25T05:52:08Z</time>
      </trkpt>
      <trkpt lat="44.57692" lon="-0.32307">
        <ele>15.52</ele>
        <time>2014-06-25T05:52:10Z</time>
      </trkpt>
      <trkpt lat="44.57682" lon="-0.3228">
        <ele>13.6</ele>
        <time>2014-06-25T05:52:15Z</time>
      </trkpt>
      <trkpt lat="44.57677" lon="-0.32268">
        <ele>12.63</ele>
        <time>2014-06-25T05:52:18Z</time>
      </trkpt>
      <trkpt lat="44.57666" lon="-0.32273">
        <ele>11.67</ele>
        <time>2014-06-25T05:52:25Z</time>
      </trkpt>
      <trkpt lat="44.57647" lon="-0.32322">
        <ele>13.12</ele>
        <time>2014-06-25T05:52:38Z</time>
      </trkpt>
      <trkpt lat="44.57645" lon="-0.32325">
        <ele>14.08</ele>
        <time>2014-06-25T05:52:43Z</time>
      </trkpt>
      <trkpt lat="44.57643" lon="-0.32329">
        <ele>17.44</ele>
        <time>2014-06-25T05:52:55Z</time>
      </trkpt>
      <trkpt lat="44.57641" lon="-0.32331">
        <ele>17.44</ele>
        <time>2014-06-25T05:52:59Z</time>
      </trkpt>
      <trkpt lat="44.57637" lon="-0.32339">
        <ele>16.48</ele>
        <time>2014-06-25T05:53:03Z</time>
      </trkpt>
      <trkpt lat="44.5763" lon="-0.32351">
        <ele>16.48</ele>
        <time>2014-06-25T05:53:10Z</time>
      </trkpt>
      <trkpt lat="44.57623" lon="-0.32358">
        <ele>16.48</ele>
        <time>2014-06-25T05:53:14Z</time>
      </trkpt>
      <trkpt lat="44.57611" lon="-0.32378">
        <ele>15.52</ele>
        <time>2014-06-25T05:53:25Z</time>
      </trkpt>
      <trkpt lat="44.5761" lon="-0.32379">
        <ele>15.52</ele>
        <time>2014-06-25T05:53:28Z</time>
      </trkpt>
      <trkpt lat="44.57611" lon="-0.32393">
        <ele>15.04</ele>
        <time>2014-06-25T05:53:34Z</time>
      </trkpt>
      <trkpt lat="44.57606" lon="-0.32409">
        <ele>14.56</ele>
        <time>2014-06-25T05:53:42Z</time>
      </trkpt>
      <trkpt lat="44.57606" lon="-0.32431">
        <ele>12.15</ele>
        <time>2014-06-25T05:53:53Z</time>
      </trkpt>
      <trkpt lat="44.57604" lon="-0.32437">
        <ele>12.15</ele>
        <time>2014-06-25T05:53:55Z</time>
      </trkpt>
      <trkpt lat="44.57596" lon="-0.32451">
        <ele>13.12</ele>
        <time>2014-06-25T05:54:01Z</time>
      </trkpt>
      <trkpt lat="44.57578" lon="-0.32505">
        <ele>12.63</ele>
        <time>2014-06-25T05:54:13Z</time>
      </trkpt>
      <trkpt lat="44.57563" lon="-0.32552">
        <ele>14.56</ele>
        <time>2014-06-25T05:54:24Z</time>
      </trkpt>
      <trkpt lat="44.57558" lon="-0.32566">
        <ele>14.08</ele>
        <time>2014-06-25T05:54:27Z</time>
      </trkpt>
      <trkpt lat="44.57538" lon="-0.32629">
        <ele>13.6</ele>
        <time>2014-06-25T05:54:40Z</time>
      </trkpt>
      <trkpt lat="44.57525" lon="-0.32669">
        <ele>12.63</ele>
        <time>2014-06-25T05:54:50Z</time>
      </trkpt>
      <trkpt lat="44.57503" lon="-0.32701">
        <ele>13.12</ele>
        <time>2014-06-25T05:54:59Z</time>
      </trkpt>
      <trkpt lat="44.57477" lon="-0.32741">
        <ele>12.63</ele>
        <time>2014-06-25T05:55:08Z</time>
      </trkpt>
      <trkpt lat="44.57461" lon="-0.32785">
        <ele>13.12</ele>
        <time>2014-06-25T05:55:16Z</time>
      </trkpt>
      <trkpt lat="44.57436" lon="-0.32851">
        <ele>13.6</ele>
        <time>2014-06-25T05:55:29Z</time>
      </trkpt>
      <trkpt lat="44.57433" lon="-0.32856">
        <ele>13.6</ele>
        <time>2014-06-25T05:55:30Z</time>
      </trkpt>
      <trkpt lat="44.57422" lon="-0.32873">
        <ele>14.08</ele>
        <time>2014-06-25T05:55:34Z</time>
      </trkpt>
      <trkpt lat="44.57406" lon="-0.32919">
        <ele>14.08</ele>
        <time>2014-06-25T05:55:43Z</time>
      </trkpt>
      <trkpt lat="44.57408" lon="-0.32928">
        <ele>14.56</ele>
        <time>2014-06-25T05:55:47Z</time>
      </trkpt>
      <trkpt lat="44.57439" lon="-0.32958">
        <ele>15.52</ele>
        <time>2014-06-25T05:55:59Z</time>
      </trkpt>
      <trkpt lat="44.57489" lon="-0.33007">
        <ele>16.96</ele>
        <time>2014-06-25T05:56:16Z</time>
      </trkpt>
      <trkpt lat="44.57509" lon="-0.33027">
        <ele>16.96</ele>
        <time>2014-06-25T05:56:23Z</time>
      </trkpt>
      <trkpt lat="44.57508" lon="-0.3304">
        <ele>17.44</ele>
        <time>2014-06-25T05:56:27Z</time>
      </trkpt>
      <trkpt lat="44.5748" lon="-0.33083">
        <ele>17.92</ele>
        <time>2014-06-25T05:56:38Z</time>
      </trkpt>
      <trkpt lat="44.57471" lon="-0.331">
        <ele>17.44</ele>
        <time>2014-06-25T05:56:42Z</time>
      </trkpt>
      <trkpt lat="44.57457" lon="-0.3312">
        <ele>17.44</ele>
        <time>2014-06-25T05:56:47Z</time>
      </trkpt>
      <trkpt lat="44.57437" lon="-0.3315">
        <ele>16.96</ele>
        <time>2014-06-25T05:56:54Z</time>
      </trkpt>
      <trkpt lat="44.57421" lon="-0.3317">
        <ele>16.96</ele>
        <time>2014-06-25T05:56:59Z</time>
      </trkpt>
      <trkpt lat="44.57404" lon="-0.33219">
        <ele>15.52</ele>
        <time>2014-06-25T05:57:11Z</time>
      </trkpt>
      <trkpt lat="44.57403" lon="-0.33221">
        <ele>16</ele>
        <time>2014-06-25T05:57:16Z</time>
      </trkpt>
      <trkpt lat="44.57404" lon="-0.33234">
        <ele>17.44</ele>
        <time>2014-06-25T05:57:22Z</time>
      </trkpt>
      <trkpt lat="44.57375" lon="-0.33297">
        <ele>20.81</ele>
        <time>2014-06-25T05:57:36Z</time>
      </trkpt>
      <trkpt lat="44.57354" lon="-0.33338">
        <ele>19.36</ele>
        <time>2014-06-25T05:57:44Z</time>
      </trkpt>
      <trkpt lat="44.57341" lon="-0.33363">
        <ele>18.4</ele>
        <time>2014-06-25T05:57:49Z</time>
      </trkpt>
      <trkpt lat="44.57327" lon="-0.33389">
        <ele>18.4</ele>
        <time>2014-06-25T05:57:54Z</time>
      </trkpt>
      <trkpt lat="44.57291" lon="-0.33482">
        <ele>17.44</ele>
        <time>2014-06-25T05:58:11Z</time>
      </trkpt>
      <trkpt lat="44.57284" lon="-0.33498">
        <ele>17.44</ele>
        <time>2014-06-25T05:58:14Z</time>
      </trkpt>
      <trkpt lat="44.57226" lon="-0.33595">
        <ele>15.52</ele>
        <time>2014-06-25T05:58:33Z</time>
      </trkpt>
      <trkpt lat="44.57223" lon="-0.336">
        <ele>15.52</ele>
        <time>2014-06-25T05:58:34Z</time>
      </trkpt>
      <trkpt lat="44.57207" lon="-0.33628">
        <ele>16</ele>
        <time>2014-06-25T05:58:40Z</time>
      </trkpt>
      <trkpt lat="44.57194" lon="-0.33655">
        <ele>15.52</ele>
        <time>2014-06-25T05:58:46Z</time>
      </trkpt>
      <trkpt lat="44.57163" lon="-0.33735">
        <ele>16.96</ele>
        <time>2014-06-25T05:59:03Z</time>
      </trkpt>
      <trkpt lat="44.57156" lon="-0.33778">
        <ele>18.4</ele>
        <time>2014-06-25T05:59:13Z</time>
      </trkpt>
      <trkpt lat="44.57149" lon="-0.33824">
        <ele>24.65</ele>
        <time>2014-06-25T05:59:23Z</time>
      </trkpt>
      <trkpt lat="44.57146" lon="-0.33834">
        <ele>26.57</ele>
        <time>2014-06-25T05:59:25Z</time>
      </trkpt>
      <trkpt lat="44.57147" lon="-0.33846">
        <ele>30.42</ele>
        <time>2014-06-25T05:59:29Z</time>
      </trkpt>
      <trkpt lat="44.57126" lon="-0.33902">
        <ele>37.15</ele>
        <time>2014-06-25T05:59:40Z</time>
      </trkpt>
      <trkpt lat="44.57101" lon="-0.33956">
        <ele>35.23</ele>
        <time>2014-06-25T05:59:52Z</time>
      </trkpt>
      <trkpt lat="44.57088" lon="-0.33986">
        <ele>31.38</ele>
        <time>2014-06-25T05:59:58Z</time>
      </trkpt>
      <trkpt lat="44.57083" lon="-0.3402">
        <ele>28.98</ele>
        <time>2014-06-25T06:00:03Z</time>
      </trkpt>
      <trkpt lat="44.57077" lon="-0.34039">
        <ele>28.5</ele>
        <time>2014-06-25T06:00:07Z</time>
      </trkpt>
      <trkpt lat="44.57074" lon="-0.34045">
        <ele>28.02</ele>
        <time>2014-06-25T06:00:09Z</time>
      </trkpt>
      <trkpt lat="44.57055" lon="-0.34088">
        <ele>24.17</ele>
        <time>2014-06-25T06:00:20Z</time>
      </trkpt>
      <trkpt lat="44.57046" lon="-0.34098">
        <ele>22.25</ele>
        <time>2014-06-25T06:00:29Z</time>
      </trkpt>
      <trkpt lat="44.57041" lon="-0.34102">
        <ele>19.84</ele>
        <time>2014-06-25T06:00:42Z</time>
      </trkpt>
      <trkpt lat="44.5703" lon="-0.34114">
        <ele>19.36</ele>
        <time>2014-06-25T06:00:59Z</time>
      </trkpt>
      <trkpt lat="44.5701" lon="-0.3414">
        <ele>17.44</ele>
        <time>2014-06-25T06:01:08Z</time>
      </trkpt>
      <trkpt lat="44.56983" lon="-0.3418">
        <ele>17.44</ele>
        <time>2014-06-25T06:01:19Z</time>
      </trkpt>
      <trkpt lat="44.56947" lon="-0.34224">
        <ele>16.48</ele>
        <time>2014-06-25T06:01:30Z</time>
      </trkpt>
      <trkpt lat="44.56907" lon="-0.34272">
        <ele>16.96</ele>
        <time>2014-06-25T06:01:43Z</time>
      </trkpt>
      <trkpt lat="44.56884" lon="-0.34295">
        <ele>17.92</ele>
        <time>2014-06-25T06:01:52Z</time>
      </trkpt>
      <trkpt lat="44.56845" lon="-0.34326">
        <ele>20.32</ele>
        <time>2014-06-25T06:02:03Z</time>
      </trkpt>
      <trkpt lat="44.56808" lon="-0.34341">
        <ele>20.32</ele>
        <time>2014-06-25T06:02:14Z</time>
      </trkpt>
      <trkpt lat="44.56791" lon="-0.34352">
        <ele>19.84</ele>
        <time>2014-06-25T06:02:20Z</time>
      </trkpt>
      <trkpt lat="44.56752" lon="-0.34389">
        <ele>16.48</ele>
        <time>2014-06-25T06:02:32Z</time>
      </trkpt>
      <trkpt lat="44.56728" lon="-0.34421">
        <ele>12.63</ele>
        <time>2014-06-25T06:02:42Z</time>
      </trkpt>
      <trkpt lat="44.56704" lon="-0.3446">
        <ele>12.15</ele>
        <time>2014-06-25T06:02:52Z</time>
      </trkpt>
      <trkpt lat="44.56677" lon="-0.34507">
        <ele>14.08</ele>
        <time>2014-06-25T06:03:03Z</time>
      </trkpt>
      <trkpt lat="44.56653" lon="-0.34536">
        <ele>15.04</ele>
        <time>2014-06-25T06:03:13Z</time>
      </trkpt>
      <trkpt lat="44.56629" lon="-0.34564">
        <ele>16</ele>
        <time>2014-06-25T06:03:23Z</time>
      </trkpt>
      <trkpt lat="44.56605" lon="-0.34604">
        <ele>16</ele>
        <time>2014-06-25T06:03:34Z</time>
      </trkpt>
      <trkpt lat="44.56586" lon="-0.34657">
        <ele>17.92</ele>
        <time>2014-06-25T06:03:46Z</time>
      </trkpt>
      <trkpt lat="44.5658" lon="-0.34694">
        <ele>19.84</ele>
        <time>2014-06-25T06:03:55Z</time>
      </trkpt>
      <trkpt lat="44.56581" lon="-0.34725">
        <ele>21.77</ele>
        <time>2014-06-25T06:04:03Z</time>
      </trkpt>
      <trkpt lat="44.56581" lon="-0.34742">
        <ele>20.81</ele>
        <time>2014-06-25T06:04:07Z</time>
      </trkpt>
      <trkpt lat="44.56575" lon="-0.34799">
        <ele>17.92</ele>
        <time>2014-06-25T06:04:19Z</time>
      </trkpt>
      <trkpt lat="44.56561" lon="-0.3482">
        <ele>17.44</ele>
        <time>2014-06-25T06:04:27Z</time>
      </trkpt>
      <trkpt lat="44.56548" lon="-0.34862">
        <ele>18.88</ele>
        <time>2014-06-25T06:04:39Z</time>
      </trkpt>
      <trkpt lat="44.56533" lon="-0.34906">
        <ele>21.77</ele>
        <time>2014-06-25T06:04:50Z</time>
      </trkpt>
      <trkpt lat="44.56527" lon="-0.34916">
        <ele>26.09</ele>
        <time>2014-06-25T06:05:02Z</time>
      </trkpt>
      <trkpt lat="44.56522" lon="-0.34929">
        <ele>25.61</ele>
        <time>2014-06-25T06:05:16Z</time>
      </trkpt>
      <trkpt lat="44.56516" lon="-0.34939">
        <ele>24.17</ele>
        <time>2014-06-25T06:05:29Z</time>
      </trkpt>
      <trkpt lat="44.56508" lon="-0.34953">
        <ele>23.21</ele>
        <time>2014-06-25T06:05:39Z</time>
      </trkpt>
      <trkpt lat="44.56503" lon="-0.34963">
        <ele>22.73</ele>
        <time>2014-06-25T06:05:49Z</time>
      </trkpt>
      <trkpt lat="44.56498" lon="-0.34984">
        <ele>26.57</ele>
        <time>2014-06-25T06:05:57Z</time>
      </trkpt>
      <trkpt lat="44.56495" lon="-0.34993">
        <ele>27.53</ele>
        <time>2014-06-25T06:06:04Z</time>
      </trkpt>
      <trkpt lat="44.56493" lon="-0.35002">
        <ele>26.57</ele>
        <time>2014-06-25T06:06:16Z</time>
      </trkpt>
      <trkpt lat="44.56488" lon="-0.35015">
        <ele>26.09</ele>
        <time>2014-06-25T06:06:21Z</time>
      </trkpt>
      <trkpt lat="44.56488" lon="-0.35026">
        <ele>27.53</ele>
        <time>2014-06-25T06:06:24Z</time>
      </trkpt>
      <trkpt lat="44.56482" lon="-0.35062">
        <ele>26.57</ele>
        <time>2014-06-25T06:06:33Z</time>
      </trkpt>
      <trkpt lat="44.56478" lon="-0.35069">
        <ele>25.61</ele>
        <time>2014-06-25T06:06:35Z</time>
      </trkpt>
      <trkpt lat="44.56459" lon="-0.351">
        <ele>21.77</ele>
        <time>2014-06-25T06:06:43Z</time>
      </trkpt>
      <trkpt lat="44.56441" lon="-0.35136">
        <ele>19.84</ele>
        <time>2014-06-25T06:06:50Z</time>
      </trkpt>
      <trkpt lat="44.56432" lon="-0.3515">
        <ele>18.88</ele>
        <time>2014-06-25T06:06:53Z</time>
      </trkpt>
      <trkpt lat="44.56409" lon="-0.35174">
        <ele>18.88</ele>
        <time>2014-06-25T06:06:59Z</time>
      </trkpt>
      <trkpt lat="44.5639" lon="-0.35206">
        <ele>18.4</ele>
        <time>2014-06-25T06:07:05Z</time>
      </trkpt>
      <trkpt lat="44.56373" lon="-0.35239">
        <ele>17.92</ele>
        <time>2014-06-25T06:07:11Z</time>
      </trkpt>
      <trkpt lat="44.56345" lon="-0.35264">
        <ele>16.48</ele>
        <time>2014-06-25T06:07:18Z</time>
      </trkpt>
      <trkpt lat="44.56315" lon="-0.35284">
        <ele>16.48</ele>
        <time>2014-06-25T06:07:25Z</time>
      </trkpt>
      <trkpt lat="44.56297" lon="-0.35304">
        <ele>17.44</ele>
        <time>2014-06-25T06:07:30Z</time>
      </trkpt>
      <trkpt lat="44.56274" lon="-0.35353">
        <ele>20.81</ele>
        <time>2014-06-25T06:07:42Z</time>
      </trkpt>
      <trkpt lat="44.56248" lon="-0.35386">
        <ele>21.77</ele>
        <time>2014-06-25T06:07:53Z</time>
      </trkpt>
      <trkpt lat="44.56221" lon="-0.35417">
        <ele>22.25</ele>
        <time>2014-06-25T06:08:02Z</time>
      </trkpt>
      <trkpt lat="44.56169" lon="-0.35475">
        <ele>22.73</ele>
        <time>2014-06-25T06:08:18Z</time>
      </trkpt>
      <trkpt lat="44.56146" lon="-0.35505">
        <ele>21.77</ele>
        <time>2014-06-25T06:08:25Z</time>
      </trkpt>
      <trkpt lat="44.56082" lon="-0.35591">
        <ele>20.81</ele>
        <time>2014-06-25T06:08:44Z</time>
      </trkpt>
      <trkpt lat="44.56075" lon="-0.356">
        <ele>20.32</ele>
        <time>2014-06-25T06:08:46Z</time>
      </trkpt>
      <trkpt lat="44.56061" lon="-0.3562">
        <ele>20.32</ele>
        <time>2014-06-25T06:08:50Z</time>
      </trkpt>
      <trkpt lat="44.56049" lon="-0.35633">
        <ele>20.32</ele>
        <time>2014-06-25T06:08:53Z</time>
      </trkpt>
      <trkpt lat="44.56017" lon="-0.35672">
        <ele>19.84</ele>
        <time>2014-06-25T06:09:02Z</time>
      </trkpt>
      <trkpt lat="44.55994" lon="-0.35695">
        <ele>20.32</ele>
        <time>2014-06-25T06:09:08Z</time>
      </trkpt>
      <trkpt lat="44.55982" lon="-0.35704">
        <ele>20.32</ele>
        <time>2014-06-25T06:09:11Z</time>
      </trkpt>
      <trkpt lat="44.55953" lon="-0.35722">
        <ele>20.81</ele>
        <time>2014-06-25T06:09:18Z</time>
      </trkpt>
      <trkpt lat="44.5592" lon="-0.35739">
        <ele>21.29</ele>
        <time>2014-06-25T06:09:29Z</time>
      </trkpt>
      <trkpt lat="44.55916" lon="-0.35741">
        <ele>21.29</ele>
        <time>2014-06-25T06:09:40Z</time>
      </trkpt>
      <trkpt lat="44.55906" lon="-0.35727">
        <ele>21.77</ele>
        <time>2014-06-25T06:09:46Z</time>
      </trkpt>
      <trkpt lat="44.55903" lon="-0.35716">
        <ele>20.81</ele>
        <time>2014-06-25T06:09:48Z</time>
      </trkpt>
      <trkpt lat="44.55897" lon="-0.35696">
        <ele>19.84</ele>
        <time>2014-06-25T06:09:51Z</time>
      </trkpt>
      <trkpt lat="44.55892" lon="-0.35682">
        <ele>19.36</ele>
        <time>2014-06-25T06:09:53Z</time>
      </trkpt>
      <trkpt lat="44.55872" lon="-0.3563">
        <ele>18.4</ele>
        <time>2014-06-25T06:10:01Z</time>
      </trkpt>
      <trkpt lat="44.55866" lon="-0.35614">
        <ele>17.92</ele>
        <time>2014-06-25T06:10:04Z</time>
      </trkpt>
      <trkpt lat="44.5584" lon="-0.35538">
        <ele>18.88</ele>
        <time>2014-06-25T06:10:19Z</time>
      </trkpt>
      <trkpt lat="44.55833" lon="-0.3552">
        <ele>18.88</ele>
        <time>2014-06-25T06:10:23Z</time>
      </trkpt>
      <trkpt lat="44.55835" lon="-0.35508">
        <ele>18.4</ele>
        <time>2014-06-25T06:10:27Z</time>
      </trkpt>
      <trkpt lat="44.55839" lon="-0.35506">
        <ele>17.44</ele>
        <time>2014-06-25T06:10:39Z</time>
      </trkpt>
      <trkpt lat="44.55838" lon="-0.35509">
        <ele>17.44</ele>
        <time>2014-06-25T06:11:00Z</time>
      </trkpt>
      <trkpt lat="44.55838" lon="-0.35508">
        <ele>15.52</ele>
        <time>2014-06-25T06:11:36Z</time>
      </trkpt>
      <trkpt lat="44.5584" lon="-0.35507">
        <ele>16</ele>
        <time>2014-06-25T06:12:04Z</time>
      </trkpt>
      <trkpt lat="44.55837" lon="-0.35509">
        <ele>17.44</ele>
        <time>2014-06-25T06:12:31Z</time>
      </trkpt>
      <trkpt lat="44.55836" lon="-0.35508">
        <ele>18.88</ele>
        <time>2014-06-25T06:12:44Z</time>
      </trkpt>
      <trkpt lat="44.55836" lon="-0.35508">
        <ele>18.88</ele>
        <time>2014-06-25T06:12:45Z</time>
      </trkpt>
      <trkpt lat="44.55827" lon="-0.35504">
        <ele>19.36</ele>
        <time>2014-06-25T06:12:51Z</time>
      </trkpt>
      <trkpt lat="44.55805" lon="-0.35444">
        <ele>18.4</ele>
        <time>2014-06-25T06:13:05Z</time>
      </trkpt>
      <trkpt lat="44.55773" lon="-0.35383">
        <ele>20.32</ele>
        <time>2014-06-25T06:13:20Z</time>
      </trkpt>
      <trkpt lat="44.55743" lon="-0.35345">
        <ele>23.69</ele>
        <time>2014-06-25T06:13:33Z</time>
      </trkpt>
      <trkpt lat="44.55707" lon="-0.35303">
        <ele>25.13</ele>
        <time>2014-06-25T06:13:48Z</time>
      </trkpt>
      <trkpt lat="44.55705" lon="-0.35301">
        <ele>24.65</ele>
        <time>2014-06-25T06:13:49Z</time>
      </trkpt>
      <trkpt lat="44.55705" lon="-0.3528">
        <ele>24.17</ele>
        <time>2014-06-25T06:13:58Z</time>
      </trkpt>
      <trkpt lat="44.55704" lon="-0.35277">
        <ele>24.17</ele>
        <time>2014-06-25T06:14:13Z</time>
      </trkpt>
      <trkpt lat="44.55706" lon="-0.35275">
        <ele>25.13</ele>
        <time>2014-06-25T06:14:23Z</time>
      </trkpt>
      <trkpt lat="44.55707" lon="-0.35276">
        <ele>25.13</ele>
        <time>2014-06-25T06:14:25Z</time>
      </trkpt>
      <trkpt lat="44.55708" lon="-0.35279">
        <ele>24.65</ele>
        <time>2014-06-25T06:14:28Z</time>
      </trkpt>
      <trkpt lat="44.55726" lon="-0.35274">
        <ele>24.17</ele>
        <time>2014-06-25T06:14:36Z</time>
      </trkpt>
      <trkpt lat="44.55782" lon="-0.35235">
        <ele>25.13</ele>
        <time>2014-06-25T06:14:52Z</time>
      </trkpt>
      <trkpt lat="44.55798" lon="-0.35223">
        <ele>24.17</ele>
        <time>2014-06-25T06:14:56Z</time>
      </trkpt>
      <trkpt lat="44.55824" lon="-0.35206">
        <ele>23.69</ele>
        <time>2014-06-25T06:15:02Z</time>
      </trkpt>
      <trkpt lat="44.55859" lon="-0.35182">
        <ele>22.73</ele>
        <time>2014-06-25T06:15:12Z</time>
      </trkpt>
      <trkpt lat="44.55901" lon="-0.35154">
        <ele>23.69</ele>
        <time>2014-06-25T06:15:24Z</time>
      </trkpt>
      <trkpt lat="44.55898" lon="-0.3513">
        <ele>23.69</ele>
        <time>2014-06-25T06:15:30Z</time>
      </trkpt>
      <trkpt lat="44.55873" lon="-0.35066">
        <ele>24.17</ele>
        <time>2014-06-25T06:15:45Z</time>
      </trkpt>
      <trkpt lat="44.55852" lon="-0.35011">
        <ele>24.65</ele>
        <time>2014-06-25T06:15:58Z</time>
      </trkpt>
      <trkpt lat="44.55822" lon="-0.34934">
        <ele>25.61</ele>
        <time>2014-06-25T06:16:15Z</time>
      </trkpt>
      <trkpt lat="44.55796" lon="-0.34865">
        <ele>25.61</ele>
        <time>2014-06-25T06:16:30Z</time>
      </trkpt>
      <trkpt lat="44.55787" lon="-0.34838">
        <ele>26.57</ele>
        <time>2014-06-25T06:16:40Z</time>
      </trkpt>
      <trkpt lat="44.55799" lon="-0.34813">
        <ele>26.09</ele>
        <time>2014-06-25T06:16:49Z</time>
      </trkpt>
      <trkpt lat="44.55811" lon="-0.34799">
        <ele>25.61</ele>
        <time>2014-06-25T06:16:53Z</time>
      </trkpt>
      <trkpt lat="44.55821" lon="-0.34788">
        <ele>25.61</ele>
        <time>2014-06-25T06:16:56Z</time>
      </trkpt>
      <trkpt lat="44.55887" lon="-0.34732">
        <ele>23.69</ele>
        <time>2014-06-25T06:17:13Z</time>
      </trkpt>
      <trkpt lat="44.55966" lon="-0.34675">
        <ele>23.21</ele>
        <time>2014-06-25T06:17:31Z</time>
      </trkpt>
      <trkpt lat="44.56053" lon="-0.34611">
        <ele>22.25</ele>
        <time>2014-06-25T06:17:50Z</time>
      </trkpt>
      <trkpt lat="44.56115" lon="-0.34566">
        <ele>22.25</ele>
        <time>2014-06-25T06:18:04Z</time>
      </trkpt>
      <trkpt lat="44.56123" lon="-0.34559">
        <ele>22.25</ele>
        <time>2014-06-25T06:18:06Z</time>
      </trkpt>
      <trkpt lat="44.56141" lon="-0.34535">
        <ele>21.77</ele>
        <time>2014-06-25T06:18:12Z</time>
      </trkpt>
      <trkpt lat="44.56148" lon="-0.34538">
        <ele>22.25</ele>
        <time>2014-06-25T06:18:20Z</time>
      </trkpt>
      <trkpt lat="44.56154" lon="-0.34547">
        <ele>21.77</ele>
        <time>2014-06-25T06:18:33Z</time>
      </trkpt>
      <trkpt lat="44.56184" lon="-0.34576">
        <ele>21.29</ele>
        <time>2014-06-25T06:18:45Z</time>
      </trkpt>
      <trkpt lat="44.56187" lon="-0.34576">
        <ele>20.81</ele>
        <time>2014-06-25T06:18:48Z</time>
      </trkpt>
      <trkpt lat="44.56208" lon="-0.34539">
        <ele>21.29</ele>
        <time>2014-06-25T06:19:00Z</time>
      </trkpt>
      <trkpt lat="44.56236" lon="-0.34488">
        <ele>20.81</ele>
        <time>2014-06-25T06:19:14Z</time>
      </trkpt>
      <trkpt lat="44.56241" lon="-0.34483">
        <ele>20.32</ele>
        <time>2014-06-25T06:19:17Z</time>
      </trkpt>
      <trkpt lat="44.56253" lon="-0.34493">
        <ele>21.29</ele>
        <time>2014-06-25T06:19:22Z</time>
      </trkpt>
      <trkpt lat="44.56291" lon="-0.34532">
        <ele>21.29</ele>
        <time>2014-06-25T06:19:35Z</time>
      </trkpt>
      <trkpt lat="44.56298" lon="-0.34538">
        <ele>21.29</ele>
        <time>2014-06-25T06:19:37Z</time>
      </trkpt>
      <trkpt lat="44.56346" lon="-0.34582">
        <ele>21.29</ele>
        <time>2014-06-25T06:19:52Z</time>
      </trkpt>
      <trkpt lat="44.56355" lon="-0.34589">
        <ele>21.77</ele>
        <time>2014-06-25T06:19:55Z</time>
      </trkpt>
      <trkpt lat="44.5638" lon="-0.34559">
        <ele>20.32</ele>
        <time>2014-06-25T06:20:05Z</time>
      </trkpt>
      <trkpt lat="44.56394" lon="-0.34558">
        <ele>21.29</ele>
        <time>2014-06-25T06:20:09Z</time>
      </trkpt>
      <trkpt lat="44.56427" lon="-0.3456">
        <ele>21.29</ele>
        <time>2014-06-25T06:20:19Z</time>
      </trkpt>
      <trkpt lat="44.56451" lon="-0.34546">
        <ele>19.36</ele>
        <time>2014-06-25T06:20:30Z</time>
      </trkpt>
      <trkpt lat="44.56468" lon="-0.34519">
        <ele>16.96</ele>
        <time>2014-06-25T06:20:39Z</time>
      </trkpt>
      <trkpt lat="44.56477" lon="-0.34507">
        <ele>16.96</ele>
        <time>2014-06-25T06:20:42Z</time>
      </trkpt>
      <trkpt lat="44.56504" lon="-0.34466">
        <ele>15.52</ele>
        <time>2014-06-25T06:20:51Z</time>
      </trkpt>
      <trkpt lat="44.56525" lon="-0.34426">
        <ele>15.04</ele>
        <time>2014-06-25T06:20:59Z</time>
      </trkpt>
      <trkpt lat="44.56566" lon="-0.3434">
        <ele>14.08</ele>
        <time>2014-06-25T06:21:18Z</time>
      </trkpt>
      <trkpt lat="44.56587" lon="-0.34294">
        <ele>14.08</ele>
        <time>2014-06-25T06:21:32Z</time>
      </trkpt>
      <trkpt lat="44.56608" lon="-0.34237">
        <ele>16</ele>
        <time>2014-06-25T06:21:46Z</time>
      </trkpt>
      <trkpt lat="44.56637" lon="-0.34181">
        <ele>18.4</ele>
        <time>2014-06-25T06:22:01Z</time>
      </trkpt>
      <trkpt lat="44.56669" lon="-0.34129">
        <ele>19.36</ele>
        <time>2014-06-25T06:22:15Z</time>
      </trkpt>
      <trkpt lat="44.56705" lon="-0.34073">
        <ele>18.88</ele>
        <time>2014-06-25T06:22:29Z</time>
      </trkpt>
      <trkpt lat="44.56751" lon="-0.3404">
        <ele>19.36</ele>
        <time>2014-06-25T06:22:42Z</time>
      </trkpt>
      <trkpt lat="44.56755" lon="-0.34038">
        <ele>19.36</ele>
        <time>2014-06-25T06:22:43Z</time>
      </trkpt>
      <trkpt lat="44.56801" lon="-0.34019">
        <ele>19.36</ele>
        <time>2014-06-25T06:22:54Z</time>
      </trkpt>
      <trkpt lat="44.56809" lon="-0.33982">
        <ele>19.84</ele>
        <time>2014-06-25T06:23:01Z</time>
      </trkpt>
      <trkpt lat="44.56805" lon="-0.33964">
        <ele>19.84</ele>
        <time>2014-06-25T06:23:04Z</time>
      </trkpt>
      <trkpt lat="44.56786" lon="-0.33855">
        <ele>16.96</ele>
        <time>2014-06-25T06:23:21Z</time>
      </trkpt>
      <trkpt lat="44.56775" lon="-0.33815">
        <ele>16.96</ele>
        <time>2014-06-25T06:23:28Z</time>
      </trkpt>
      <trkpt lat="44.56774" lon="-0.33792">
        <ele>16.96</ele>
        <time>2014-06-25T06:23:32Z</time>
      </trkpt>
      <trkpt lat="44.56784" lon="-0.33774">
        <ele>16.48</ele>
        <time>2014-06-25T06:23:36Z</time>
      </trkpt>
      <trkpt lat="44.56803" lon="-0.33755">
        <ele>16.96</ele>
        <time>2014-06-25T06:23:41Z</time>
      </trkpt>
      <trkpt lat="44.56811" lon="-0.33713">
        <ele>16.96</ele>
        <time>2014-06-25T06:23:49Z</time>
      </trkpt>
      <trkpt lat="44.56782" lon="-0.33661">
        <ele>17.92</ele>
        <time>2014-06-25T06:24:04Z</time>
      </trkpt>
      <trkpt lat="44.56751" lon="-0.33612">
        <ele>19.36</ele>
        <time>2014-06-25T06:24:18Z</time>
      </trkpt>
      <trkpt lat="44.56772" lon="-0.33556">
        <ele>18.88</ele>
        <time>2014-06-25T06:24:30Z</time>
      </trkpt>
      <trkpt lat="44.56778" lon="-0.33547">
        <ele>18.88</ele>
        <time>2014-06-25T06:24:32Z</time>
      </trkpt>
      <trkpt lat="44.56809" lon="-0.33476">
        <ele>18.4</ele>
        <time>2014-06-25T06:24:47Z</time>
      </trkpt>
      <trkpt lat="44.56822" lon="-0.33427">
        <ele>18.88</ele>
        <time>2014-06-25T06:24:58Z</time>
      </trkpt>
      <trkpt lat="44.5684" lon="-0.33375">
        <ele>18.88</ele>
        <time>2014-06-25T06:25:11Z</time>
      </trkpt>
      <trkpt lat="44.56847" lon="-0.33345">
        <ele>19.84</ele>
        <time>2014-06-25T06:25:19Z</time>
      </trkpt>
      <trkpt lat="44.56866" lon="-0.3335">
        <ele>18.4</ele>
        <time>2014-06-25T06:25:28Z</time>
      </trkpt>
      <trkpt lat="44.56903" lon="-0.33365">
        <ele>16</ele>
        <time>2014-06-25T06:25:41Z</time>
      </trkpt>
      <trkpt lat="44.56923" lon="-0.33354">
        <ele>12.15</ele>
        <time>2014-06-25T06:25:51Z</time>
      </trkpt>
      <trkpt lat="44.56932" lon="-0.33334">
        <ele>11.19</ele>
        <time>2014-06-25T06:25:59Z</time>
      </trkpt>
      <trkpt lat="44.56935" lon="-0.33329">
        <ele>11.67</ele>
        <time>2014-06-25T06:26:01Z</time>
      </trkpt>
      <trkpt lat="44.56939" lon="-0.33309">
        <ele>13.12</ele>
        <time>2014-06-25T06:26:07Z</time>
      </trkpt>
      <trkpt lat="44.56953" lon="-0.33255">
        <ele>16.48</ele>
        <time>2014-06-25T06:26:19Z</time>
      </trkpt>
      <trkpt lat="44.56967" lon="-0.33198">
        <ele>18.88</ele>
        <time>2014-06-25T06:26:31Z</time>
      </trkpt>
      <trkpt lat="44.56973" lon="-0.33147">
        <ele>17.92</ele>
        <time>2014-06-25T06:26:41Z</time>
      </trkpt>
      <trkpt lat="44.56973" lon="-0.33095">
        <ele>20.81</ele>
        <time>2014-06-25T06:26:51Z</time>
      </trkpt>
      <trkpt lat="44.5698" lon="-0.3302">
        <ele>25.61</ele>
        <time>2014-06-25T06:27:03Z</time>
      </trkpt>
      <trkpt lat="44.56988" lon="-0.32942">
        <ele>31.38</ele>
        <time>2014-06-25T06:27:16Z</time>
      </trkpt>
      <trkpt lat="44.5699" lon="-0.32918">
        <ele>32.82</ele>
        <time>2014-06-25T06:27:20Z</time>
      </trkpt>
      <trkpt lat="44.56995" lon="-0.32895">
        <ele>33.3</ele>
        <time>2014-06-25T06:27:24Z</time>
      </trkpt>
      <trkpt lat="44.56996" lon="-0.32873">
        <ele>34.74</ele>
        <time>2014-06-25T06:27:28Z</time>
      </trkpt>
      <trkpt lat="44.57013" lon="-0.32817">
        <ele>36.67</ele>
        <time>2014-06-25T06:27:38Z</time>
      </trkpt>
      <trkpt lat="44.57016" lon="-0.328">
        <ele>36.67</ele>
        <time>2014-06-25T06:27:41Z</time>
      </trkpt>
      <trkpt lat="44.57019" lon="-0.32775">
        <ele>37.63</ele>
        <time>2014-06-25T06:27:45Z</time>
      </trkpt>
      <trkpt lat="44.57028" lon="-0.32722">
        <ele>38.11</ele>
        <time>2014-06-25T06:27:54Z</time>
      </trkpt>
      <trkpt lat="44.57041" lon="-0.32662">
        <ele>38.11</ele>
        <time>2014-06-25T06:28:05Z</time>
      </trkpt>
      <trkpt lat="44.57044" lon="-0.32648">
        <ele>38.59</ele>
        <time>2014-06-25T06:28:07Z</time>
      </trkpt>
      <trkpt lat="44.57075" lon="-0.32554">
        <ele>27.53</ele>
        <time>2014-06-25T06:28:22Z</time>
      </trkpt>
      <trkpt lat="44.5708" lon="-0.32547">
        <ele>26.57</ele>
        <time>2014-06-25T06:28:24Z</time>
      </trkpt>
      <trkpt lat="44.57087" lon="-0.32526">
        <ele>24.65</ele>
        <time>2014-06-25T06:28:28Z</time>
      </trkpt>
      <trkpt lat="44.57097" lon="-0.32492">
        <ele>21.29</ele>
        <time>2014-06-25T06:28:34Z</time>
      </trkpt>
      <trkpt lat="44.57081" lon="-0.32473">
        <ele>18.4</ele>
        <time>2014-06-25T06:28:42Z</time>
      </trkpt>
      <trkpt lat="44.57082" lon="-0.3247">
        <ele>18.4</ele>
        <time>2014-06-25T06:28:43Z</time>
      </trkpt>
      <trkpt lat="44.57104" lon="-0.32428">
        <ele>18.4</ele>
        <time>2014-06-25T06:28:56Z</time>
      </trkpt>
      <trkpt lat="44.57104" lon="-0.32423">
        <ele>19.84</ele>
        <time>2014-06-25T06:29:08Z</time>
      </trkpt>
      <trkpt lat="44.57121" lon="-0.32417">
        <ele>21.77</ele>
        <time>2014-06-25T06:29:20Z</time>
      </trkpt>
      <trkpt lat="44.57155" lon="-0.32401">
        <ele>21.29</ele>
        <time>2014-06-25T06:29:31Z</time>
      </trkpt>
      <trkpt lat="44.57179" lon="-0.32371">
        <ele>19.36</ele>
        <time>2014-06-25T06:29:41Z</time>
      </trkpt>
      <trkpt lat="44.57197" lon="-0.32337">
        <ele>17.92</ele>
        <time>2014-06-25T06:29:51Z</time>
      </trkpt>
      <trkpt lat="44.57207" lon="-0.32323">
        <ele>18.4</ele>
        <time>2014-06-25T06:29:55Z</time>
      </trkpt>
      <trkpt lat="44.57227" lon="-0.32304">
        <ele>18.88</ele>
        <time>2014-06-25T06:30:01Z</time>
      </trkpt>
      <trkpt lat="44.57234" lon="-0.32297">
        <ele>18.88</ele>
        <time>2014-06-25T06:30:03Z</time>
      </trkpt>
      <trkpt lat="44.57241" lon="-0.3229">
        <ele>19.36</ele>
        <time>2014-06-25T06:30:05Z</time>
      </trkpt>
      <trkpt lat="44.57293" lon="-0.3225">
        <ele>21.77</ele>
        <time>2014-06-25T06:30:20Z</time>
      </trkpt>
      <trkpt lat="44.57305" lon="-0.32246">
        <ele>22.25</ele>
        <time>2014-06-25T06:30:23Z</time>
      </trkpt>
      <trkpt lat="44.57319" lon="-0.32243">
        <ele>22.25</ele>
        <time>2014-06-25T06:30:26Z</time>
      </trkpt>
      <trkpt lat="44.57324" lon="-0.32241">
        <ele>22.25</ele>
        <time>2014-06-25T06:30:27Z</time>
      </trkpt>
      <trkpt lat="44.57333" lon="-0.32236">
        <ele>21.77</ele>
        <time>2014-06-25T06:30:29Z</time>
      </trkpt>
      <trkpt lat="44.57341" lon="-0.32231">
        <ele>21.77</ele>
        <time>2014-06-25T06:30:31Z</time>
      </trkpt>
      <trkpt lat="44.57358" lon="-0.3222">
        <ele>21.29</ele>
        <time>2014-06-25T06:30:35Z</time>
      </trkpt>
      <trkpt lat="44.5738" lon="-0.32212">
        <ele>19.84</ele>
        <time>2014-06-25T06:30:40Z</time>
      </trkpt>
      <trkpt lat="44.57415" lon="-0.32197">
        <ele>19.84</ele>
        <time>2014-06-25T06:30:53Z</time>
      </trkpt>
      <trkpt lat="44.57417" lon="-0.32197">
        <ele>18.88</ele>
        <time>2014-06-25T06:31:06Z</time>
      </trkpt>
      <trkpt lat="44.5742" lon="-0.32187">
        <ele>19.84</ele>
        <time>2014-06-25T06:31:11Z</time>
      </trkpt>
      <trkpt lat="44.57426" lon="-0.32159">
        <ele>22.25</ele>
        <time>2014-06-25T06:31:22Z</time>
      </trkpt>
      <trkpt lat="44.57427" lon="-0.32159">
        <ele>21.29</ele>
        <time>2014-06-25T06:31:26Z</time>
      </trkpt>
      <trkpt lat="44.57434" lon="-0.32148">
        <ele>16.96</ele>
        <time>2014-06-25T06:31:33Z</time>
      </trkpt>
      <trkpt lat="44.57448" lon="-0.32147">
        <ele>15.04</ele>
        <time>2014-06-25T06:31:38Z</time>
      </trkpt>
      <trkpt lat="44.57463" lon="-0.32135">
        <ele>13.6</ele>
        <time>2014-06-25T06:31:43Z</time>
      </trkpt>
      <trkpt lat="44.57469" lon="-0.32127">
        <ele>13.6</ele>
        <time>2014-06-25T06:31:45Z</time>
      </trkpt>
      <trkpt lat="44.5748" lon="-0.32107">
        <ele>13.6</ele>
        <time>2014-06-25T06:31:49Z</time>
      </trkpt>
      <trkpt lat="44.57487" lon="-0.32092">
        <ele>13.6</ele>
        <time>2014-06-25T06:31:52Z</time>
      </trkpt>
      <trkpt lat="44.57502" lon="-0.32064">
        <ele>14.56</ele>
        <time>2014-06-25T06:31:58Z</time>
      </trkpt>
      <trkpt lat="44.57516" lon="-0.32041">
        <ele>15.04</ele>
        <time>2014-06-25T06:32:04Z</time>
      </trkpt>
      <trkpt lat="44.5754" lon="-0.32028">
        <ele>16</ele>
        <time>2014-06-25T06:32:16Z</time>
      </trkpt>
      <trkpt lat="44.57556" lon="-0.32015">
        <ele>16</ele>
        <time>2014-06-25T06:32:25Z</time>
      </trkpt>
      <trkpt lat="44.57571" lon="-0.31978">
        <ele>16</ele>
        <time>2014-06-25T06:32:33Z</time>
      </trkpt>
      <trkpt lat="44.57603" lon="-0.31928">
        <ele>16.96</ele>
        <time>2014-06-25T06:32:46Z</time>
      </trkpt>
      <trkpt lat="44.57607" lon="-0.31921">
        <ele>17.44</ele>
        <time>2014-06-25T06:32:49Z</time>
      </trkpt>
      <trkpt lat="44.57621" lon="-0.31893">
        <ele>18.4</ele>
        <time>2014-06-25T06:32:58Z</time>
      </trkpt>
      <trkpt lat="44.57646" lon="-0.31847">
        <ele>18.4</ele>
        <time>2014-06-25T06:33:09Z</time>
      </trkpt>
      <trkpt lat="44.57654" lon="-0.31833">
        <ele>16.96</ele>
        <time>2014-06-25T06:33:12Z</time>
      </trkpt>
      <trkpt lat="44.57664" lon="-0.31818">
        <ele>14.56</ele>
        <time>2014-06-25T06:33:15Z</time>
      </trkpt>
      <trkpt lat="44.57684" lon="-0.31792">
        <ele>14.08</ele>
        <time>2014-06-25T06:33:21Z</time>
      </trkpt>
      <trkpt lat="44.57699" lon="-0.31769">
        <ele>13.12</ele>
        <time>2014-06-25T06:33:26Z</time>
      </trkpt>
      <trkpt lat="44.57715" lon="-0.31741">
        <ele>13.12</ele>
        <time>2014-06-25T06:33:32Z</time>
      </trkpt>
      <trkpt lat="44.57727" lon="-0.31709">
        <ele>12.15</ele>
        <time>2014-06-25T06:33:39Z</time>
      </trkpt>
      <trkpt lat="44.57732" lon="-0.31686">
        <ele>12.15</ele>
        <time>2014-06-25T06:33:43Z</time>
      </trkpt>
      <trkpt lat="44.57739" lon="-0.31672">
        <ele>12.15</ele>
        <time>2014-06-25T06:33:46Z</time>
      </trkpt>
      <trkpt lat="44.57757" lon="-0.3165">
        <ele>11.67</ele>
        <time>2014-06-25T06:33:51Z</time>
      </trkpt>
      <trkpt lat="44.57773" lon="-0.31634">
        <ele>12.15</ele>
        <time>2014-06-25T06:33:55Z</time>
      </trkpt>
      <trkpt lat="44.57821" lon="-0.31603">
        <ele>14.08</ele>
        <time>2014-06-25T06:34:07Z</time>
      </trkpt>
      <trkpt lat="44.5783" lon="-0.316">
        <ele>14.56</ele>
        <time>2014-06-25T06:34:09Z</time>
      </trkpt>
      <trkpt lat="44.57879" lon="-0.31569">
        <ele>17.92</ele>
        <time>2014-06-25T06:34:21Z</time>
      </trkpt>
      <trkpt lat="44.57888" lon="-0.31563">
        <ele>17.44</ele>
        <time>2014-06-25T06:34:23Z</time>
      </trkpt>
      <trkpt lat="44.57898" lon="-0.31552">
        <ele>17.44</ele>
        <time>2014-06-25T06:34:26Z</time>
      </trkpt>
      <trkpt lat="44.57906" lon="-0.31545">
        <ele>17.44</ele>
        <time>2014-06-25T06:34:28Z</time>
      </trkpt>
      <trkpt lat="44.5792" lon="-0.3153">
        <ele>17.44</ele>
        <time>2014-06-25T06:34:32Z</time>
      </trkpt>
      <trkpt lat="44.57969" lon="-0.31489">
        <ele>18.88</ele>
        <time>2014-06-25T06:34:47Z</time>
      </trkpt>
      <trkpt lat="44.58004" lon="-0.3146">
        <ele>19.36</ele>
        <time>2014-06-25T06:34:58Z</time>
      </trkpt>
      <trkpt lat="44.58035" lon="-0.31412">
        <ele>18.4</ele>
        <time>2014-06-25T06:35:10Z</time>
      </trkpt>
      <trkpt lat="44.58056" lon="-0.31376">
        <ele>16.96</ele>
        <time>2014-06-25T06:35:20Z</time>
      </trkpt>
      <trkpt lat="44.58088" lon="-0.31335">
        <ele>15.04</ele>
        <time>2014-06-25T06:35:31Z</time>
      </trkpt>
      <trkpt lat="44.58118" lon="-0.313">
        <ele>14.08</ele>
        <time>2014-06-25T06:35:42Z</time>
      </trkpt>
      <trkpt lat="44.58143" lon="-0.31265">
        <ele>13.6</ele>
        <time>2014-06-25T06:35:52Z</time>
      </trkpt>
      <trkpt lat="44.58176" lon="-0.3124">
        <ele>12.15</ele>
        <time>2014-06-25T06:36:02Z</time>
      </trkpt>
      <trkpt lat="44.58208" lon="-0.31214">
        <ele>12.15</ele>
        <time>2014-06-25T06:36:13Z</time>
      </trkpt>
      <trkpt lat="44.58231" lon="-0.31162">
        <ele>11.19</ele>
        <time>2014-06-25T06:36:26Z</time>
      </trkpt>
      <trkpt lat="44.58247" lon="-0.31123">
        <ele>10.71</ele>
        <time>2014-06-25T06:36:36Z</time>
      </trkpt>
      <trkpt lat="44.58267" lon="-0.31099">
        <ele>10.71</ele>
        <time>2014-06-25T06:36:46Z</time>
      </trkpt>
      <trkpt lat="44.5828" lon="-0.31094">
        <ele>12.63</ele>
        <time>2014-06-25T06:36:52Z</time>
      </trkpt>
      <trkpt lat="44.58283" lon="-0.31097">
        <ele>10.71</ele>
        <time>2014-06-25T06:37:06Z</time>
      </trkpt>
      <trkpt lat="44.58283" lon="-0.31098">
        <ele>9.75</ele>
        <time>2014-06-25T06:37:25Z</time>
      </trkpt>
      <trkpt lat="44.58296" lon="-0.31088">
        <ele>9.75</ele>
        <time>2014-06-25T06:37:33Z</time>
      </trkpt>
      <trkpt lat="44.58308" lon="-0.31098">
        <ele>11.19</ele>
        <time>2014-06-25T06:37:42Z</time>
      </trkpt>
      <trkpt lat="44.58332" lon="-0.31088">
        <ele>14.56</ele>
        <time>2014-06-25T06:37:51Z</time>
      </trkpt>
      <trkpt lat="44.58344" lon="-0.31092">
        <ele>16.48</ele>
        <time>2014-06-25T06:37:56Z</time>
      </trkpt>
      <trkpt lat="44.58366" lon="-0.3108">
        <ele>17.92</ele>
        <time>2014-06-25T06:38:05Z</time>
      </trkpt>
      <trkpt lat="44.58384" lon="-0.31081">
        <ele>18.4</ele>
        <time>2014-06-25T06:38:11Z</time>
      </trkpt>
      <trkpt lat="44.58429" lon="-0.31089">
        <ele>16.48</ele>
        <time>2014-06-25T06:38:24Z</time>
      </trkpt>
      <trkpt lat="44.58465" lon="-0.31081">
        <ele>16</ele>
        <time>2014-06-25T06:38:35Z</time>
      </trkpt>
      <trkpt lat="44.58483" lon="-0.31074">
        <ele>14.56</ele>
        <time>2014-06-25T06:38:43Z</time>
      </trkpt>
      <trkpt lat="44.58497" lon="-0.31073">
        <ele>14.56</ele>
        <time>2014-06-25T06:38:48Z</time>
      </trkpt>
      <trkpt lat="44.58531" lon="-0.31089">
        <ele>16.48</ele>
        <time>2014-06-25T06:38:59Z</time>
      </trkpt>
      <trkpt lat="44.58556" lon="-0.31083">
        <ele>16.96</ele>
        <time>2014-06-25T06:39:07Z</time>
      </trkpt>
      <trkpt lat="44.58585" lon="-0.31088">
        <ele>16.96</ele>
        <time>2014-06-25T06:39:17Z</time>
      </trkpt>
      <trkpt lat="44.58616" lon="-0.31104">
        <ele>16.48</ele>
        <time>2014-06-25T06:39:28Z</time>
      </trkpt>
      <trkpt lat="44.58648" lon="-0.31115">
        <ele>16.96</ele>
        <time>2014-06-25T06:39:39Z</time>
      </trkpt>
      <trkpt lat="44.58678" lon="-0.31125">
        <ele>14.08</ele>
        <time>2014-06-25T06:39:48Z</time>
      </trkpt>
      <trkpt lat="44.58717" lon="-0.3114">
        <ele>11.67</ele>
        <time>2014-06-25T06:39:59Z</time>
      </trkpt>
      <trkpt lat="44.58726" lon="-0.31145">
        <ele>11.67</ele>
        <time>2014-06-25T06:40:02Z</time>
      </trkpt>
      <trkpt lat="44.58735" lon="-0.31151">
        <ele>11.67</ele>
        <time>2014-06-25T06:40:06Z</time>
      </trkpt>
      <trkpt lat="44.58775" lon="-0.31167">
        <ele>13.12</ele>
        <time>2014-06-25T06:40:19Z</time>
      </trkpt>
      <trkpt lat="44.58817" lon="-0.31182">
        <ele>16.96</ele>
        <time>2014-06-25T06:40:31Z</time>
      </trkpt>
      <trkpt lat="44.58846" lon="-0.31187">
        <ele>19.36</ele>
        <time>2014-06-25T06:40:39Z</time>
      </trkpt>
      <trkpt lat="44.58873" lon="-0.31202">
        <ele>23.69</ele>
        <time>2014-06-25T06:40:49Z</time>
      </trkpt>
      <trkpt lat="44.58882" lon="-0.31205">
        <ele>25.13</ele>
        <time>2014-06-25T06:40:53Z</time>
      </trkpt>
      <trkpt lat="44.58894" lon="-0.31211">
        <ele>27.05</ele>
        <time>2014-06-25T06:40:59Z</time>
      </trkpt>
      <trkpt lat="44.58897" lon="-0.31216">
        <ele>26.57</ele>
        <time>2014-06-25T06:41:01Z</time>
      </trkpt>
      <trkpt lat="44.58936" lon="-0.31236">
        <ele>23.21</ele>
        <time>2014-06-25T06:41:14Z</time>
      </trkpt>
      <trkpt lat="44.58974" lon="-0.31253">
        <ele>17.92</ele>
        <time>2014-06-25T06:41:25Z</time>
      </trkpt>
      <trkpt lat="44.59016" lon="-0.31271">
        <ele>15.04</ele>
        <time>2014-06-25T06:41:37Z</time>
      </trkpt>
      <trkpt lat="44.59046" lon="-0.31285">
        <ele>14.56</ele>
        <time>2014-06-25T06:41:47Z</time>
      </trkpt>
      <trkpt lat="44.59061" lon="-0.31293">
        <ele>15.52</ele>
        <time>2014-06-25T06:41:51Z</time>
      </trkpt>
      <trkpt lat="44.59087" lon="-0.31299">
        <ele>18.4</ele>
        <time>2014-06-25T06:42:02Z</time>
      </trkpt>
      <trkpt lat="44.59092" lon="-0.313">
        <ele>19.36</ele>
        <time>2014-06-25T06:42:04Z</time>
      </trkpt>
      <trkpt lat="44.59134" lon="-0.31316">
        <ele>22.25</ele>
        <time>2014-06-25T06:42:16Z</time>
      </trkpt>
      <trkpt lat="44.5917" lon="-0.31332">
        <ele>25.13</ele>
        <time>2014-06-25T06:42:27Z</time>
      </trkpt>
      <trkpt lat="44.59198" lon="-0.31343">
        <ele>31.38</ele>
        <time>2014-06-25T06:42:38Z</time>
      </trkpt>
      <trkpt lat="44.59219" lon="-0.31354">
        <ele>33.78</ele>
        <time>2014-06-25T06:42:45Z</time>
      </trkpt>
      <trkpt lat="44.59224" lon="-0.31353">
        <ele>35.71</ele>
        <time>2014-06-25T06:42:48Z</time>
      </trkpt>
      <trkpt lat="44.59243" lon="-0.31357">
        <ele>32.82</ele>
        <time>2014-06-25T06:42:55Z</time>
      </trkpt>
      <trkpt lat="44.59261" lon="-0.31363">
        <ele>26.57</ele>
        <time>2014-06-25T06:43:08Z</time>
      </trkpt>
      <trkpt lat="44.59269" lon="-0.31361">
        <ele>24.17</ele>
        <time>2014-06-25T06:43:16Z</time>
      </trkpt>
      <trkpt lat="44.59283" lon="-0.31348">
        <ele>19.84</ele>
        <time>2014-06-25T06:43:27Z</time>
      </trkpt>
      <trkpt lat="44.59289" lon="-0.31345">
        <ele>17.44</ele>
        <time>2014-06-25T06:43:38Z</time>
      </trkpt>
      <trkpt lat="44.59292" lon="-0.31339">
        <ele>16.48</ele>
        <time>2014-06-25T06:43:45Z</time>
      </trkpt>
      <trkpt lat="44.59298" lon="-0.31318">
        <ele>15.04</ele>
        <time>2014-06-25T06:43:51Z</time>
      </trkpt>
      <trkpt lat="44.59314" lon="-0.3128">
        <ele>13.12</ele>
        <time>2014-06-25T06:44:02Z</time>
      </trkpt>
      <trkpt lat="44.59316" lon="-0.31275">
        <ele>13.12</ele>
        <time>2014-06-25T06:44:03Z</time>
      </trkpt>
      <trkpt lat="44.5933" lon="-0.31253">
        <ele>12.15</ele>
        <time>2014-06-25T06:44:10Z</time>
      </trkpt>
      <trkpt lat="44.5934" lon="-0.3122">
        <ele>11.19</ele>
        <time>2014-06-25T06:44:17Z</time>
      </trkpt>
      <trkpt lat="44.59356" lon="-0.3118">
        <ele>7.83</ele>
        <time>2014-06-25T06:44:27Z</time>
      </trkpt>
      <trkpt lat="44.59365" lon="-0.31165">
        <ele>5.91</ele>
        <time>2014-06-25T06:44:32Z</time>
      </trkpt>
      <trkpt lat="44.59373" lon="-0.31164">
        <ele>4.94</ele>
        <time>2014-06-25T06:44:36Z</time>
      </trkpt>
      <trkpt lat="44.59385" lon="-0.31156">
        <ele>4.94</ele>
        <time>2014-06-25T06:44:41Z</time>
      </trkpt>
      <trkpt lat="44.59388" lon="-0.31149">
        <ele>4.94</ele>
        <time>2014-06-25T06:44:43Z</time>
      </trkpt>
      <trkpt lat="44.59402" lon="-0.31133">
        <ele>4.94</ele>
        <time>2014-06-25T06:44:48Z</time>
      </trkpt>
      <trkpt lat="44.59411" lon="-0.31126">
        <ele>5.91</ele>
        <time>2014-06-25T06:44:51Z</time>
      </trkpt>
      <trkpt lat="44.59419" lon="-0.3112">
        <ele>6.39</ele>
        <time>2014-06-25T06:44:54Z</time>
      </trkpt>
      <trkpt lat="44.59431" lon="-0.31109">
        <ele>7.35</ele>
        <time>2014-06-25T06:45:05Z</time>
      </trkpt>
      <trkpt lat="44.59433" lon="-0.311">
        <ele>11.19</ele>
        <time>2014-06-25T06:45:16Z</time>
      </trkpt>
      <trkpt lat="44.59434" lon="-0.31097">
        <ele>11.19</ele>
        <time>2014-06-25T06:45:26Z</time>
      </trkpt>
      <trkpt lat="44.59442" lon="-0.31078">
        <ele>9.27</ele>
        <time>2014-06-25T06:45:34Z</time>
      </trkpt>
      <trkpt lat="44.59447" lon="-0.31074">
        <ele>8.31</ele>
        <time>2014-06-25T06:45:36Z</time>
      </trkpt>
      <trkpt lat="44.59478" lon="-0.31021">
        <ele>5.91</ele>
        <time>2014-06-25T06:45:51Z</time>
      </trkpt>
      <trkpt lat="44.59489" lon="-0.31001">
        <ele>5.42</ele>
        <time>2014-06-25T06:46:00Z</time>
      </trkpt>
      <trkpt lat="44.5949" lon="-0.31">
        <ele>6.87</ele>
        <time>2014-06-25T06:46:10Z</time>
      </trkpt>
      <trkpt lat="44.5949" lon="-0.31">
        <ele>6.87</ele>
        <time>2014-06-25T06:46:11Z</time>
      </trkpt>
      <trkpt lat="44.59503" lon="-0.30981">
        <ele>7.35</ele>
        <time>2014-06-25T06:46:21Z</time>
      </trkpt>
      <trkpt lat="44.59529" lon="-0.30933">
        <ele>6.39</ele>
        <time>2014-06-25T06:46:35Z</time>
      </trkpt>
      <trkpt lat="44.59527" lon="-0.30889">
        <ele>4.94</ele>
        <time>2014-06-25T06:46:46Z</time>
      </trkpt>
      <trkpt lat="44.59531" lon="-0.30845">
        <ele>6.39</ele>
        <time>2014-06-25T06:46:57Z</time>
      </trkpt>
      <trkpt lat="44.59539" lon="-0.30828">
        <ele>6.87</ele>
        <time>2014-06-25T06:47:02Z</time>
      </trkpt>
      <trkpt lat="44.59549" lon="-0.30821">
        <ele>7.83</ele>
        <time>2014-06-25T06:47:06Z</time>
      </trkpt>
      <trkpt lat="44.59578" lon="-0.30799">
        <ele>10.23</ele>
        <time>2014-06-25T06:47:16Z</time>
      </trkpt>
      <trkpt lat="44.59617" lon="-0.3076">
        <ele>9.75</ele>
        <time>2014-06-25T06:47:30Z</time>
      </trkpt>
      <trkpt lat="44.59657" lon="-0.3072">
        <ele>10.71</ele>
        <time>2014-06-25T06:47:44Z</time>
      </trkpt>
      <trkpt lat="44.59687" lon="-0.30686">
        <ele>11.67</ele>
        <time>2014-06-25T06:47:55Z</time>
      </trkpt>
      <trkpt lat="44.59725" lon="-0.30651">
        <ele>13.6</ele>
        <time>2014-06-25T06:48:08Z</time>
      </trkpt>
      <trkpt lat="44.59737" lon="-0.30634">
        <ele>13.12</ele>
        <time>2014-06-25T06:48:14Z</time>
      </trkpt>
      <trkpt lat="44.59736" lon="-0.30626">
        <ele>12.63</ele>
        <time>2014-06-25T06:48:23Z</time>
      </trkpt>
      <trkpt lat="44.59731" lon="-0.30618">
        <ele>11.19</ele>
        <time>2014-06-25T06:48:28Z</time>
      </trkpt>
      <trkpt lat="44.59713" lon="-0.30612">
        <ele>8.31</ele>
        <time>2014-06-25T06:48:35Z</time>
      </trkpt>
      <trkpt lat="44.59689" lon="-0.30594">
        <ele>7.83</ele>
        <time>2014-06-25T06:48:44Z</time>
      </trkpt>
      <trkpt lat="44.59656" lon="-0.30563">
        <ele>8.31</ele>
        <time>2014-06-25T06:48:57Z</time>
      </trkpt>
      <trkpt lat="44.59628" lon="-0.30539">
        <ele>7.83</ele>
        <time>2014-06-25T06:49:08Z</time>
      </trkpt>
      <trkpt lat="44.59622" lon="-0.30539">
        <ele>7.83</ele>
        <time>2014-06-25T06:49:10Z</time>
      </trkpt>
      <trkpt lat="44.59612" lon="-0.30539">
        <ele>7.83</ele>
        <time>2014-06-25T06:49:14Z</time>
      </trkpt>
      <trkpt lat="44.59611" lon="-0.30519">
        <ele>9.27</ele>
        <time>2014-06-25T06:49:22Z</time>
      </trkpt>
      <trkpt lat="44.59611" lon="-0.30516">
        <ele>10.23</ele>
        <time>2014-06-25T06:49:31Z</time>
      </trkpt>
      <trkpt lat="44.59611" lon="-0.30517">
        <ele>12.15</ele>
        <time>2014-06-25T06:49:48Z</time>
      </trkpt>
      <trkpt lat="44.59611" lon="-0.30517">
        <ele>12.63</ele>
        <time>2014-06-25T06:49:52Z</time>
      </trkpt>
      <trkpt lat="44.59615" lon="-0.30509">
        <ele>13.12</ele>
        <time>2014-06-25T06:49:56Z</time>
      </trkpt>
      <trkpt lat="44.59654" lon="-0.30531">
        <ele>13.12</ele>
        <time>2014-06-25T06:50:09Z</time>
      </trkpt>
      <trkpt lat="44.59701" lon="-0.30562">
        <ele>13.12</ele>
        <time>2014-06-25T06:50:23Z</time>
      </trkpt>
      <trkpt lat="44.59752" lon="-0.30594">
        <ele>14.56</ele>
        <time>2014-06-25T06:50:38Z</time>
      </trkpt>
      <trkpt lat="44.59804" lon="-0.30627">
        <ele>15.52</ele>
        <time>2014-06-25T06:50:54Z</time>
      </trkpt>
      <trkpt lat="44.59858" lon="-0.30662">
        <ele>13.6</ele>
        <time>2014-06-25T06:51:08Z</time>
      </trkpt>
      <trkpt lat="44.59879" lon="-0.30676">
        <ele>13.12</ele>
        <time>2014-06-25T06:51:13Z</time>
      </trkpt>
      <trkpt lat="44.59892" lon="-0.30682">
        <ele>12.63</ele>
        <time>2014-06-25T06:51:16Z</time>
      </trkpt>
      <trkpt lat="44.59938" lon="-0.30713">
        <ele>11.67</ele>
        <time>2014-06-25T06:51:32Z</time>
      </trkpt>
      <trkpt lat="44.59943" lon="-0.30717">
        <ele>10.23</ele>
        <time>2014-06-25T06:51:42Z</time>
      </trkpt>
      <trkpt lat="44.59943" lon="-0.30718">
        <ele>9.75</ele>
        <time>2014-06-25T06:51:54Z</time>
      </trkpt>
      <trkpt lat="44.59944" lon="-0.30725">
        <ele>9.75</ele>
        <time>2014-06-25T06:51:58Z</time>
      </trkpt>
      <trkpt lat="44.59931" lon="-0.30751">
        <ele>9.75</ele>
        <time>2014-06-25T06:52:09Z</time>
      </trkpt>
      <trkpt lat="44.59909" lon="-0.308">
        <ele>8.31</ele>
        <time>2014-06-25T06:52:22Z</time>
      </trkpt>
      <trkpt lat="44.59888" lon="-0.30845">
        <ele>9.75</ele>
        <time>2014-06-25T06:52:34Z</time>
      </trkpt>
      <trkpt lat="44.59891" lon="-0.30858">
        <ele>9.27</ele>
        <time>2014-06-25T06:52:38Z</time>
      </trkpt>
      <trkpt lat="44.59943" lon="-0.30905">
        <ele>8.79</ele>
        <time>2014-06-25T06:52:55Z</time>
      </trkpt>
      <trkpt lat="44.59975" lon="-0.30938">
        <ele>8.79</ele>
        <time>2014-06-25T06:53:08Z</time>
      </trkpt>
      <trkpt lat="44.60014" lon="-0.30972">
        <ele>9.27</ele>
        <time>2014-06-25T06:53:23Z</time>
      </trkpt>
      <trkpt lat="44.60053" lon="-0.31009">
        <ele>9.27</ele>
        <time>2014-06-25T06:53:37Z</time>
      </trkpt>
      <trkpt lat="44.60091" lon="-0.31045">
        <ele>11.19</ele>
        <time>2014-06-25T06:53:51Z</time>
      </trkpt>
      <trkpt lat="44.6009" lon="-0.31066">
        <ele>11.19</ele>
        <time>2014-06-25T06:54:01Z</time>
      </trkpt>
      <trkpt lat="44.60083" lon="-0.31094">
        <ele>11.67</ele>
        <time>2014-06-25T06:54:11Z</time>
      </trkpt>
      <trkpt lat="44.60069" lon="-0.3115">
        <ele>11.67</ele>
        <time>2014-06-25T06:54:26Z</time>
      </trkpt>
      <trkpt lat="44.60069" lon="-0.3115">
        <ele>11.19</ele>
        <time>2014-06-25T06:54:43Z</time>
      </trkpt>
      <trkpt lat="44.60069" lon="-0.3115">
        <ele>11.19</ele>
        <time>2014-06-25T06:54:47Z</time>
      </trkpt>
      <trkpt lat="44.60075" lon="-0.3114">
        <ele>11.19</ele>
        <time>2014-06-25T06:54:56Z</time>
      </trkpt>
      <trkpt lat="44.60083" lon="-0.31114">
        <ele>10.71</ele>
        <time>2014-06-25T06:55:03Z</time>
      </trkpt>
      <trkpt lat="44.60098" lon="-0.31053">
        <ele>9.75</ele>
        <time>2014-06-25T06:55:19Z</time>
      </trkpt>
      <trkpt lat="44.60119" lon="-0.31064">
        <ele>10.23</ele>
        <time>2014-06-25T06:55:29Z</time>
      </trkpt>
      <trkpt lat="44.60156" lon="-0.31088">
        <ele>9.27</ele>
        <time>2014-06-25T06:55:42Z</time>
      </trkpt>
      <trkpt lat="44.60203" lon="-0.31114">
        <ele>9.27</ele>
        <time>2014-06-25T06:55:58Z</time>
      </trkpt>
      <trkpt lat="44.60241" lon="-0.31138">
        <ele>9.75</ele>
        <time>2014-06-25T06:56:12Z</time>
      </trkpt>
      <trkpt lat="44.60262" lon="-0.31151">
        <ele>8.79</ele>
        <time>2014-06-25T06:56:21Z</time>
      </trkpt>
      <trkpt lat="44.60274" lon="-0.31125">
        <ele>9.27</ele>
        <time>2014-06-25T06:56:32Z</time>
      </trkpt>
      <trkpt lat="44.60276" lon="-0.31124">
        <ele>9.27</ele>
        <time>2014-06-25T06:56:43Z</time>
      </trkpt>
      <trkpt lat="44.60276" lon="-0.31125">
        <ele>8.79</ele>
        <time>2014-06-25T06:57:05Z</time>
      </trkpt>
      <trkpt lat="44.60276" lon="-0.31125">
        <ele>8.79</ele>
        <time>2014-06-25T06:57:28Z</time>
      </trkpt>
      <trkpt lat="44.60276" lon="-0.31126">
        <ele>8.31</ele>
        <time>2014-06-25T06:57:57Z</time>
      </trkpt>
      <trkpt lat="44.60276" lon="-0.31126">
        <ele>8.31</ele>
        <time>2014-06-25T06:58:26Z</time>
      </trkpt>
      <trkpt lat="44.60276" lon="-0.31125">
        <ele>8.31</ele>
        <time>2014-06-25T06:58:54Z</time>
      </trkpt>
      <trkpt lat="44.60276" lon="-0.31125">
        <ele>8.31</ele>
        <time>2014-06-25T06:59:21Z</time>
      </trkpt>
      <trkpt lat="44.60276" lon="-0.31125">
        <ele>8.31</ele>
        <time>2014-06-25T06:59:42Z</time>
      </trkpt>
      <trkpt lat="44.60275" lon="-0.31126">
        <ele>8.31</ele>
        <time>2014-06-25T07:00:04Z</time>
      </trkpt>
      <trkpt lat="44.60275" lon="-0.31126">
        <ele>8.79</ele>
        <time>2014-06-25T07:00:22Z</time>
      </trkpt>
      <trkpt lat="44.60275" lon="-0.31126">
        <ele>9.27</ele>
        <time>2014-06-25T07:00:53Z</time>
      </trkpt>
      <trkpt lat="44.60275" lon="-0.31126">
        <ele>9.75</ele>
        <time>2014-06-25T07:01:17Z</time>
      </trkpt>
      <trkpt lat="44.60265" lon="-0.3115">
        <ele>10.23</ele>
        <time>2014-06-25T07:01:26Z</time>
      </trkpt>
      <trkpt lat="44.60266" lon="-0.31157">
        <ele>10.71</ele>
        <time>2014-06-25T07:01:29Z</time>
      </trkpt>
      <trkpt lat="44.60251" lon="-0.31206">
        <ele>12.15</ele>
        <time>2014-06-25T07:01:42Z</time>
      </trkpt>
      <trkpt lat="44.6024" lon="-0.31243">
        <ele>11.19</ele>
        <time>2014-06-25T07:01:50Z</time>
      </trkpt>
      <trkpt lat="44.60248" lon="-0.31259">
        <ele>11.19</ele>
        <time>2014-06-25T07:01:55Z</time>
      </trkpt>
      <trkpt lat="44.60277" lon="-0.31278">
        <ele>11.67</ele>
        <time>2014-06-25T07:02:05Z</time>
      </trkpt>
      <trkpt lat="44.60262" lon="-0.31318">
        <ele>11.67</ele>
        <time>2014-06-25T07:02:16Z</time>
      </trkpt>
      <trkpt lat="44.60258" lon="-0.31331">
        <ele>11.19</ele>
        <time>2014-06-25T07:02:19Z</time>
      </trkpt>
      <trkpt lat="44.60271" lon="-0.31346">
        <ele>10.71</ele>
        <time>2014-06-25T07:02:25Z</time>
      </trkpt>
      <trkpt lat="44.60318" lon="-0.31368">
        <ele>11.67</ele>
        <time>2014-06-25T07:02:39Z</time>
      </trkpt>
      <trkpt lat="44.60363" lon="-0.31387">
        <ele>12.63</ele>
        <time>2014-06-25T07:02:52Z</time>
      </trkpt>
      <trkpt lat="44.60403" lon="-0.31373">
        <ele>11.67</ele>
        <time>2014-06-25T07:03:04Z</time>
      </trkpt>
      <trkpt lat="44.60449" lon="-0.31362">
        <ele>11.19</ele>
        <time>2014-06-25T07:03:17Z</time>
      </trkpt>
      <trkpt lat="44.60497" lon="-0.31378">
        <ele>11.19</ele>
        <time>2014-06-25T07:03:33Z</time>
      </trkpt>
      <trkpt lat="44.60497" lon="-0.31377">
        <ele>10.71</ele>
        <time>2014-06-25T07:03:44Z</time>
      </trkpt>
      <trkpt lat="44.60496" lon="-0.31377">
        <ele>10.71</ele>
        <time>2014-06-25T07:03:45Z</time>
      </trkpt>
      <trkpt lat="44.60495" lon="-0.31373">
        <ele>11.19</ele>
        <time>2014-06-25T07:03:48Z</time>
      </trkpt>
      <trkpt lat="44.60495" lon="-0.31367">
        <ele>10.71</ele>
        <time>2014-06-25T07:04:02Z</time>
      </trkpt>
      <trkpt lat="44.60494" lon="-0.31366">
        <ele>11.67</ele>
        <time>2014-06-25T07:04:33Z</time>
      </trkpt>
      <trkpt lat="44.60494" lon="-0.31365">
        <ele>11.67</ele>
        <time>2014-06-25T07:05:04Z</time>
      </trkpt>
      <trkpt lat="44.60494" lon="-0.31366">
        <ele>11.19</ele>
        <time>2014-06-25T07:05:27Z</time>
      </trkpt>
      <trkpt lat="44.60494" lon="-0.31366">
        <ele>11.67</ele>
        <time>2014-06-25T07:05:39Z</time>
      </trkpt>
      <trkpt lat="44.60493" lon="-0.31366">
        <ele>11.19</ele>
        <time>2014-06-25T07:06:07Z</time>
      </trkpt>
      <trkpt lat="44.60493" lon="-0.31367">
        <ele>10.23</ele>
        <time>2014-06-25T07:06:47Z</time>
      </trkpt>
      <trkpt lat="44.60493" lon="-0.31371">
        <ele>10.23</ele>
        <time>2014-06-25T07:07:10Z</time>
      </trkpt>
      <trkpt lat="44.60502" lon="-0.3139">
        <ele>10.71</ele>
        <time>2014-06-25T07:07:20Z</time>
      </trkpt>
      <trkpt lat="44.60534" lon="-0.31399">
        <ele>10.71</ele>
        <time>2014-06-25T07:07:32Z</time>
      </trkpt>
      <trkpt lat="44.60568" lon="-0.31406">
        <ele>11.67</ele>
        <time>2014-06-25T07:07:44Z</time>
      </trkpt>
      <trkpt lat="44.60579" lon="-0.3141">
        <ele>11.67</ele>
        <time>2014-06-25T07:07:49Z</time>
      </trkpt>
      <trkpt lat="44.60625" lon="-0.31423">
        <ele>10.71</ele>
        <time>2014-06-25T07:08:02Z</time>
      </trkpt>
      <trkpt lat="44.60679" lon="-0.3143">
        <ele>11.19</ele>
        <time>2014-06-25T07:08:16Z</time>
      </trkpt>
      <trkpt lat="44.60692" lon="-0.31427">
        <ele>11.67</ele>
        <time>2014-06-25T07:08:20Z</time>
      </trkpt>
      <trkpt lat="44.60711" lon="-0.31368">
        <ele>9.75</ele>
        <time>2014-06-25T07:08:32Z</time>
      </trkpt>
      <trkpt lat="44.60718" lon="-0.31347">
        <ele>9.75</ele>
        <time>2014-06-25T07:08:36Z</time>
      </trkpt>
      <trkpt lat="44.60737" lon="-0.31316">
        <ele>9.27</ele>
        <time>2014-06-25T07:08:44Z</time>
      </trkpt>
      <trkpt lat="44.60761" lon="-0.31327">
        <ele>9.75</ele>
        <time>2014-06-25T07:08:53Z</time>
      </trkpt>
      <trkpt lat="44.60778" lon="-0.31344">
        <ele>9.75</ele>
        <time>2014-06-25T07:09:05Z</time>
      </trkpt>
      <trkpt lat="44.60777" lon="-0.31344">
        <ele>9.75</ele>
        <time>2014-06-25T07:09:27Z</time>
      </trkpt>
    </trkseg>
  </trk>
</gpx>